<?xml version="1.0" encoding="UTF-8" standalone="no" ?>
<gpx xmlns="http://www.topografix.com/GPX/1/1" xmlns:xsi="http://www.w3.org/2001/XMLSchema-instance" xsi:schemaLocation="http://www.topografix.com/GPX/1/1 http://www.topografix.com/GPX/1/1/gpx.xsd" version="1.1" creator="VisuGPX - https://www.visugpx.com">
  <metadata>
    <name>Rieux_ValdeVilaine_20-23km</name>
    <desc><![CDATA[gnerando idor:6533441_10496627]]></desc>
  </metadata>
  <trk>
    <name><![CDATA[Rieux_ValDeVilaineVariante_20.3km-6533441]]></name>
    <extensions>
      <line xmlns="http://www.topografix.com/GPX/gpx_style/0/2">
        <color>0000FF</color>
        <width>4</width>
      </line>
    </extensions>
    <trkseg>
      <trkpt lat="47.59828" lon="-2.09876">
        <ele>8</ele>
        <time>2023-11-11T19:08:32Z</time>
      </trkpt>
      <trkpt lat="47.59815" lon="-2.09897">
        <ele>7</ele>
        <time>2023-11-11T19:08:58Z</time>
      </trkpt>
      <trkpt lat="47.5981" lon="-2.09923">
        <ele>6</ele>
        <time>2023-11-11T19:09:22Z</time>
      </trkpt>
      <trkpt lat="47.5981" lon="-2.0995">
        <ele>7</ele>
        <time>2023-11-11T19:09:46Z</time>
      </trkpt>
      <trkpt lat="47.59816" lon="-2.09976">
        <ele>8</ele>
        <time>2023-11-11T19:10:11Z</time>
      </trkpt>
      <trkpt lat="47.59804" lon="-2.09995">
        <ele>8</ele>
        <time>2023-11-11T19:10:34Z</time>
      </trkpt>
      <trkpt lat="47.59786" lon="-2.10004">
        <ele>7</ele>
        <time>2023-11-11T19:11:00Z</time>
      </trkpt>
      <trkpt lat="47.59763" lon="-2.10046">
        <ele>6</ele>
        <time>2023-11-11T19:11:48Z</time>
      </trkpt>
      <trkpt lat="47.59756" lon="-2.10072">
        <ele>6</ele>
        <time>2023-11-11T19:12:14Z</time>
      </trkpt>
      <trkpt lat="47.59741" lon="-2.10087">
        <ele>6</ele>
        <time>2023-11-11T19:12:38Z</time>
      </trkpt>
      <trkpt lat="47.59732" lon="-2.10113">
        <ele>6</ele>
        <time>2023-11-11T19:13:04Z</time>
      </trkpt>
      <trkpt lat="47.59717" lon="-2.1013">
        <ele>6</ele>
        <time>2023-11-11T19:13:29Z</time>
      </trkpt>
      <trkpt lat="47.59707" lon="-2.10183">
        <ele>7</ele>
        <time>2023-11-11T19:14:19Z</time>
      </trkpt>
      <trkpt lat="47.59713" lon="-2.10211">
        <ele>8</ele>
        <time>2023-11-11T19:14:45Z</time>
      </trkpt>
      <trkpt lat="47.59714" lon="-2.10267">
        <ele>9</ele>
        <time>2023-11-11T19:15:36Z</time>
      </trkpt>
      <trkpt lat="47.59709" lon="-2.10294">
        <ele>9</ele>
        <time>2023-11-11T19:16:01Z</time>
      </trkpt>
      <trkpt lat="47.59688" lon="-2.10369">
        <ele>8</ele>
        <time>2023-11-11T19:17:14Z</time>
      </trkpt>
      <trkpt lat="47.597" lon="-2.1039">
        <ele>9</ele>
        <time>2023-11-11T19:17:39Z</time>
      </trkpt>
      <trkpt lat="47.59707" lon="-2.10416">
        <ele>10</ele>
        <time>2023-11-11T19:18:04Z</time>
      </trkpt>
      <trkpt lat="47.59684" lon="-2.10458">
        <ele>10</ele>
        <time>2023-11-11T19:18:53Z</time>
      </trkpt>
      <trkpt lat="47.59667" lon="-2.10471">
        <ele>9</ele>
        <time>2023-11-11T19:19:18Z</time>
      </trkpt>
      <trkpt lat="47.59631" lon="-2.10464">
        <ele>10</ele>
        <time>2023-11-11T19:20:07Z</time>
      </trkpt>
      <trkpt lat="47.5952" lon="-2.10428">
        <ele>11</ele>
        <time>2023-11-11T19:22:38Z</time>
      </trkpt>
      <trkpt lat="47.59484" lon="-2.10413">
        <ele>9</ele>
        <time>2023-11-11T19:23:28Z</time>
      </trkpt>
      <trkpt lat="47.59465" lon="-2.10412">
        <ele>8</ele>
        <time>2023-11-11T19:23:53Z</time>
      </trkpt>
      <trkpt lat="47.59412" lon="-2.1043">
        <ele>7</ele>
        <time>2023-11-11T19:25:06Z</time>
      </trkpt>
      <trkpt lat="47.59374" lon="-2.1044">
        <ele>6</ele>
        <time>2023-11-11T19:25:58Z</time>
      </trkpt>
      <trkpt lat="47.59342" lon="-2.10468">
        <ele>6</ele>
        <time>2023-11-11T19:26:47Z</time>
      </trkpt>
      <trkpt lat="47.59334" lon="-2.10492">
        <ele>7</ele>
        <time>2023-11-11T19:27:11Z</time>
      </trkpt>
      <trkpt lat="47.5933" lon="-2.1052">
        <ele>9</ele>
        <time>2023-11-11T19:27:37Z</time>
      </trkpt>
      <trkpt lat="47.59314" lon="-2.10534">
        <ele>10</ele>
        <time>2023-11-11T19:28:02Z</time>
      </trkpt>
      <trkpt lat="47.59279" lon="-2.10554">
        <ele>10</ele>
        <time>2023-11-11T19:28:52Z</time>
      </trkpt>
      <trkpt lat="47.59244" lon="-2.10571">
        <ele>10</ele>
        <time>2023-11-11T19:29:41Z</time>
      </trkpt>
      <trkpt lat="47.59225" lon="-2.10576">
        <ele>8</ele>
        <time>2023-11-11T19:30:07Z</time>
      </trkpt>
      <trkpt lat="47.59191" lon="-2.10641">
        <ele>8</ele>
        <time>2023-11-11T19:31:21Z</time>
      </trkpt>
      <trkpt lat="47.5915" lon="-2.10764">
        <ele>14</ele>
        <time>2023-11-11T19:33:24Z</time>
      </trkpt>
      <trkpt lat="47.59131" lon="-2.10766">
        <ele>13</ele>
        <time>2023-11-11T19:33:50Z</time>
      </trkpt>
      <trkpt lat="47.59095" lon="-2.10778">
        <ele>12</ele>
        <time>2023-11-11T19:34:39Z</time>
      </trkpt>
      <trkpt lat="47.59039" lon="-2.10779">
        <ele>13</ele>
        <time>2023-11-11T19:35:54Z</time>
      </trkpt>
      <trkpt lat="47.59022" lon="-2.1077">
        <ele>13</ele>
        <time>2023-11-11T19:36:18Z</time>
      </trkpt>
      <trkpt lat="47.58998" lon="-2.10696">
        <ele>13</ele>
        <time>2023-11-11T19:37:32Z</time>
      </trkpt>
      <trkpt lat="47.58962" lon="-2.10678">
        <ele>11</ele>
        <time>2023-11-11T19:38:22Z</time>
      </trkpt>
      <trkpt lat="47.58945" lon="-2.10672">
        <ele>11</ele>
        <time>2023-11-11T19:38:46Z</time>
      </trkpt>
      <trkpt lat="47.58926" lon="-2.10673">
        <ele>10</ele>
        <time>2023-11-11T19:39:11Z</time>
      </trkpt>
      <trkpt lat="47.58907" lon="-2.10669">
        <ele>9</ele>
        <time>2023-11-11T19:39:37Z</time>
      </trkpt>
      <trkpt lat="47.58851" lon="-2.1067">
        <ele>7</ele>
        <time>2023-11-11T19:40:51Z</time>
      </trkpt>
      <trkpt lat="47.58796" lon="-2.10683">
        <ele>7</ele>
        <time>2023-11-11T19:42:06Z</time>
      </trkpt>
      <trkpt lat="47.58722" lon="-2.10694">
        <ele>7</ele>
        <time>2023-11-11T19:43:45Z</time>
      </trkpt>
      <trkpt lat="47.58688" lon="-2.10717">
        <ele>7</ele>
        <time>2023-11-11T19:44:35Z</time>
      </trkpt>
      <trkpt lat="47.58657" lon="-2.10744">
        <ele>7</ele>
        <time>2023-11-11T19:45:23Z</time>
      </trkpt>
      <trkpt lat="47.58639" lon="-2.10756">
        <ele>6</ele>
        <time>2023-11-11T19:45:49Z</time>
      </trkpt>
      <trkpt lat="47.58607" lon="-2.10785">
        <ele>5</ele>
        <time>2023-11-11T19:46:39Z</time>
      </trkpt>
      <trkpt lat="47.58557" lon="-2.10821">
        <ele>4</ele>
        <time>2023-11-11T19:47:53Z</time>
      </trkpt>
      <trkpt lat="47.58542" lon="-2.10837">
        <ele>4</ele>
        <time>2023-11-11T19:48:18Z</time>
      </trkpt>
      <trkpt lat="47.58546" lon="-2.10892">
        <ele>4</ele>
        <time>2023-11-11T19:49:08Z</time>
      </trkpt>
      <trkpt lat="47.58554" lon="-2.10947">
        <ele>4</ele>
        <time>2023-11-11T19:49:58Z</time>
      </trkpt>
      <trkpt lat="47.58555" lon="-2.10974">
        <ele>4</ele>
        <time>2023-11-11T19:50:23Z</time>
      </trkpt>
      <trkpt lat="47.58552" lon="-2.11001">
        <ele>4</ele>
        <time>2023-11-11T19:50:47Z</time>
      </trkpt>
      <trkpt lat="47.58568" lon="-2.1105">
        <ele>5</ele>
        <time>2023-11-11T19:51:36Z</time>
      </trkpt>
      <trkpt lat="47.58642" lon="-2.11036">
        <ele>8</ele>
        <time>2023-11-11T19:53:16Z</time>
      </trkpt>
      <trkpt lat="47.58659" lon="-2.11046">
        <ele>9</ele>
        <time>2023-11-11T19:53:40Z</time>
      </trkpt>
      <trkpt lat="47.58672" lon="-2.11065">
        <ele>9</ele>
        <time>2023-11-11T19:54:05Z</time>
      </trkpt>
      <trkpt lat="47.58688" lon="-2.11173">
        <ele>9</ele>
        <time>2023-11-11T19:55:44Z</time>
      </trkpt>
      <trkpt lat="47.58702" lon="-2.11309">
        <ele>7</ele>
        <time>2023-11-11T19:57:48Z</time>
      </trkpt>
      <trkpt lat="47.58727" lon="-2.11496">
        <ele>6</ele>
        <time>2023-11-11T20:00:40Z</time>
      </trkpt>
      <trkpt lat="47.58732" lon="-2.11524">
        <ele>6</ele>
        <time>2023-11-11T20:01:06Z</time>
      </trkpt>
      <trkpt lat="47.5874" lon="-2.11548">
        <ele>6</ele>
        <time>2023-11-11T20:01:30Z</time>
      </trkpt>
      <trkpt lat="47.58755" lon="-2.11563">
        <ele>7</ele>
        <time>2023-11-11T20:01:54Z</time>
      </trkpt>
      <trkpt lat="47.58773" lon="-2.11568">
        <ele>8</ele>
        <time>2023-11-11T20:02:18Z</time>
      </trkpt>
      <trkpt lat="47.58792" lon="-2.11567">
        <ele>9</ele>
        <time>2023-11-11T20:02:44Z</time>
      </trkpt>
      <trkpt lat="47.5881" lon="-2.11561">
        <ele>10</ele>
        <time>2023-11-11T20:03:08Z</time>
      </trkpt>
      <trkpt lat="47.58847" lon="-2.11558">
        <ele>13</ele>
        <time>2023-11-11T20:03:58Z</time>
      </trkpt>
      <trkpt lat="47.5886" lon="-2.11577">
        <ele>13</ele>
        <time>2023-11-11T20:04:22Z</time>
      </trkpt>
      <trkpt lat="47.58864" lon="-2.1166">
        <ele>10</ele>
        <time>2023-11-11T20:05:37Z</time>
      </trkpt>
      <trkpt lat="47.58874" lon="-2.11713">
        <ele>10</ele>
        <time>2023-11-11T20:06:27Z</time>
      </trkpt>
      <trkpt lat="47.58887" lon="-2.11821">
        <ele>8</ele>
        <time>2023-11-11T20:08:05Z</time>
      </trkpt>
      <trkpt lat="47.58901" lon="-2.11901">
        <ele>7</ele>
        <time>2023-11-11T20:09:20Z</time>
      </trkpt>
      <trkpt lat="47.58909" lon="-2.11983">
        <ele>5</ele>
        <time>2023-11-11T20:10:34Z</time>
      </trkpt>
      <trkpt lat="47.58919" lon="-2.12005">
        <ele>5</ele>
        <time>2023-11-11T20:10:58Z</time>
      </trkpt>
      <trkpt lat="47.58938" lon="-2.12007">
        <ele>5</ele>
        <time>2023-11-11T20:11:24Z</time>
      </trkpt>
      <trkpt lat="47.58955" lon="-2.12014">
        <ele>5</ele>
        <time>2023-11-11T20:11:47Z</time>
      </trkpt>
      <trkpt lat="47.58941" lon="-2.12065">
        <ele>4</ele>
        <time>2023-11-11T20:12:37Z</time>
      </trkpt>
      <trkpt lat="47.58912" lon="-2.12134">
        <ele>3</ele>
        <time>2023-11-11T20:13:50Z</time>
      </trkpt>
      <trkpt lat="47.58906" lon="-2.1216">
        <ele>4</ele>
        <time>2023-11-11T20:14:15Z</time>
      </trkpt>
      <trkpt lat="47.58904" lon="-2.12187">
        <ele>4</ele>
        <time>2023-11-11T20:14:39Z</time>
      </trkpt>
      <trkpt lat="47.58906" lon="-2.12214">
        <ele>4</ele>
        <time>2023-11-11T20:15:03Z</time>
      </trkpt>
      <trkpt lat="47.58969" lon="-2.12445">
        <ele>4</ele>
        <time>2023-11-11T20:18:48Z</time>
      </trkpt>
      <trkpt lat="47.58973" lon="-2.12471">
        <ele>4</ele>
        <time>2023-11-11T20:19:12Z</time>
      </trkpt>
      <trkpt lat="47.58975" lon="-2.12527">
        <ele>4</ele>
        <time>2023-11-11T20:20:02Z</time>
      </trkpt>
      <trkpt lat="47.58981" lon="-2.12581">
        <ele>5</ele>
        <time>2023-11-11T20:20:51Z</time>
      </trkpt>
      <trkpt lat="47.58974" lon="-2.12635">
        <ele>5</ele>
        <time>2023-11-11T20:21:41Z</time>
      </trkpt>
      <trkpt lat="47.58981" lon="-2.12689">
        <ele>4</ele>
        <time>2023-11-11T20:22:30Z</time>
      </trkpt>
      <trkpt lat="47.58976" lon="-2.12743">
        <ele>3</ele>
        <time>2023-11-11T20:23:20Z</time>
      </trkpt>
      <trkpt lat="47.58978" lon="-2.12772">
        <ele>3</ele>
        <time>2023-11-11T20:23:46Z</time>
      </trkpt>
      <trkpt lat="47.58991" lon="-2.12823">
        <ele>4</ele>
        <time>2023-11-11T20:24:35Z</time>
      </trkpt>
      <trkpt lat="47.59001" lon="-2.12848">
        <ele>4</ele>
        <time>2023-11-11T20:25:01Z</time>
      </trkpt>
      <trkpt lat="47.59033" lon="-2.12913">
        <ele>6</ele>
        <time>2023-11-11T20:26:13Z</time>
      </trkpt>
      <trkpt lat="47.59038" lon="-2.1294">
        <ele>6</ele>
        <time>2023-11-11T20:26:39Z</time>
      </trkpt>
      <trkpt lat="47.59031" lon="-2.12965">
        <ele>6</ele>
        <time>2023-11-11T20:27:03Z</time>
      </trkpt>
      <trkpt lat="47.59009" lon="-2.13008">
        <ele>5</ele>
        <time>2023-11-11T20:27:52Z</time>
      </trkpt>
      <trkpt lat="47.59" lon="-2.13032">
        <ele>4</ele>
        <time>2023-11-11T20:28:16Z</time>
      </trkpt>
      <trkpt lat="47.58986" lon="-2.1311">
        <ele>3</ele>
        <time>2023-11-11T20:29:29Z</time>
      </trkpt>
      <trkpt lat="47.58997" lon="-2.13162">
        <ele>4</ele>
        <time>2023-11-11T20:30:18Z</time>
      </trkpt>
      <trkpt lat="47.59005" lon="-2.13188">
        <ele>5</ele>
        <time>2023-11-11T20:30:44Z</time>
      </trkpt>
      <trkpt lat="47.59026" lon="-2.13233">
        <ele>7</ele>
        <time>2023-11-11T20:31:33Z</time>
      </trkpt>
      <trkpt lat="47.59041" lon="-2.13249">
        <ele>8</ele>
        <time>2023-11-11T20:31:58Z</time>
      </trkpt>
      <trkpt lat="47.59052" lon="-2.13271">
        <ele>9</ele>
        <time>2023-11-11T20:32:22Z</time>
      </trkpt>
      <trkpt lat="47.59055" lon="-2.13298">
        <ele>10</ele>
        <time>2023-11-11T20:32:47Z</time>
      </trkpt>
      <trkpt lat="47.59061" lon="-2.13324">
        <ele>12</ele>
        <time>2023-11-11T20:33:12Z</time>
      </trkpt>
      <trkpt lat="47.59075" lon="-2.13341">
        <ele>14</ele>
        <time>2023-11-11T20:33:36Z</time>
      </trkpt>
      <trkpt lat="47.59091" lon="-2.13355">
        <ele>16</ele>
        <time>2023-11-11T20:34:01Z</time>
      </trkpt>
      <trkpt lat="47.59095" lon="-2.13381">
        <ele>17</ele>
        <time>2023-11-11T20:34:25Z</time>
      </trkpt>
      <trkpt lat="47.59087" lon="-2.13406">
        <ele>18</ele>
        <time>2023-11-11T20:34:49Z</time>
      </trkpt>
      <trkpt lat="47.59082" lon="-2.13433">
        <ele>19</ele>
        <time>2023-11-11T20:35:15Z</time>
      </trkpt>
      <trkpt lat="47.59083" lon="-2.1346">
        <ele>20</ele>
        <time>2023-11-11T20:35:39Z</time>
      </trkpt>
      <trkpt lat="47.59086" lon="-2.13486">
        <ele>21</ele>
        <time>2023-11-11T20:36:03Z</time>
      </trkpt>
      <trkpt lat="47.59098" lon="-2.13539">
        <ele>22</ele>
        <time>2023-11-11T20:36:53Z</time>
      </trkpt>
      <trkpt lat="47.591" lon="-2.13565">
        <ele>23</ele>
        <time>2023-11-11T20:37:17Z</time>
      </trkpt>
      <trkpt lat="47.59112" lon="-2.13616">
        <ele>24</ele>
        <time>2023-11-11T20:38:05Z</time>
      </trkpt>
      <trkpt lat="47.59129" lon="-2.13626">
        <ele>25</ele>
        <time>2023-11-11T20:38:30Z</time>
      </trkpt>
      <trkpt lat="47.59148" lon="-2.1362">
        <ele>25</ele>
        <time>2023-11-11T20:38:56Z</time>
      </trkpt>
      <trkpt lat="47.59202" lon="-2.13598">
        <ele>24</ele>
        <time>2023-11-11T20:40:10Z</time>
      </trkpt>
      <trkpt lat="47.59219" lon="-2.13587">
        <ele>24</ele>
        <time>2023-11-11T20:40:35Z</time>
      </trkpt>
      <trkpt lat="47.59251" lon="-2.1356">
        <ele>24</ele>
        <time>2023-11-11T20:41:24Z</time>
      </trkpt>
      <trkpt lat="47.59305" lon="-2.13546">
        <ele>24</ele>
        <time>2023-11-11T20:42:37Z</time>
      </trkpt>
      <trkpt lat="47.59341" lon="-2.13542">
        <ele>23</ele>
        <time>2023-11-11T20:43:25Z</time>
      </trkpt>
      <trkpt lat="47.59358" lon="-2.13531">
        <ele>23</ele>
        <time>2023-11-11T20:43:50Z</time>
      </trkpt>
      <trkpt lat="47.59405" lon="-2.13488">
        <ele>23</ele>
        <time>2023-11-11T20:45:04Z</time>
      </trkpt>
      <trkpt lat="47.59419" lon="-2.13471">
        <ele>23</ele>
        <time>2023-11-11T20:45:28Z</time>
      </trkpt>
      <trkpt lat="47.59452" lon="-2.13446">
        <ele>24</ele>
        <time>2023-11-11T20:46:18Z</time>
      </trkpt>
      <trkpt lat="47.5947" lon="-2.13451">
        <ele>24</ele>
        <time>2023-11-11T20:46:42Z</time>
      </trkpt>
      <trkpt lat="47.59498" lon="-2.13521">
        <ele>24</ele>
        <time>2023-11-11T20:47:55Z</time>
      </trkpt>
      <trkpt lat="47.59511" lon="-2.13541">
        <ele>24</ele>
        <time>2023-11-11T20:48:20Z</time>
      </trkpt>
      <trkpt lat="47.59542" lon="-2.13572">
        <ele>25</ele>
        <time>2023-11-11T20:49:10Z</time>
      </trkpt>
      <trkpt lat="47.5956" lon="-2.13582">
        <ele>25</ele>
        <time>2023-11-11T20:49:36Z</time>
      </trkpt>
      <trkpt lat="47.59576" lon="-2.13596">
        <ele>26</ele>
        <time>2023-11-11T20:50:01Z</time>
      </trkpt>
      <trkpt lat="47.59584" lon="-2.13621">
        <ele>26</ele>
        <time>2023-11-11T20:50:25Z</time>
      </trkpt>
      <trkpt lat="47.59586" lon="-2.13649">
        <ele>25</ele>
        <time>2023-11-11T20:50:51Z</time>
      </trkpt>
      <trkpt lat="47.59603" lon="-2.13661">
        <ele>25</ele>
        <time>2023-11-11T20:51:16Z</time>
      </trkpt>
      <trkpt lat="47.59621" lon="-2.13653">
        <ele>24</ele>
        <time>2023-11-11T20:51:41Z</time>
      </trkpt>
      <trkpt lat="47.59658" lon="-2.1366">
        <ele>23</ele>
        <time>2023-11-11T20:52:31Z</time>
      </trkpt>
      <trkpt lat="47.59694" lon="-2.13662">
        <ele>22</ele>
        <time>2023-11-11T20:53:19Z</time>
      </trkpt>
      <trkpt lat="47.59712" lon="-2.13655">
        <ele>22</ele>
        <time>2023-11-11T20:53:44Z</time>
      </trkpt>
      <trkpt lat="47.59731" lon="-2.13651">
        <ele>21</ele>
        <time>2023-11-11T20:54:09Z</time>
      </trkpt>
      <trkpt lat="47.59749" lon="-2.13643">
        <ele>21</ele>
        <time>2023-11-11T20:54:34Z</time>
      </trkpt>
      <trkpt lat="47.59768" lon="-2.13641">
        <ele>20</ele>
        <time>2023-11-11T20:55:00Z</time>
      </trkpt>
      <trkpt lat="47.59786" lon="-2.13636">
        <ele>20</ele>
        <time>2023-11-11T20:55:24Z</time>
      </trkpt>
      <trkpt lat="47.59804" lon="-2.13644">
        <ele>19</ele>
        <time>2023-11-11T20:55:49Z</time>
      </trkpt>
      <trkpt lat="47.59815" lon="-2.13667">
        <ele>18</ele>
        <time>2023-11-11T20:56:15Z</time>
      </trkpt>
      <trkpt lat="47.59813" lon="-2.13696">
        <ele>19</ele>
        <time>2023-11-11T20:56:41Z</time>
      </trkpt>
      <trkpt lat="47.59824" lon="-2.13718">
        <ele>20</ele>
        <time>2023-11-11T20:57:06Z</time>
      </trkpt>
      <trkpt lat="47.59811" lon="-2.13736">
        <ele>20</ele>
        <time>2023-11-11T20:57:29Z</time>
      </trkpt>
      <trkpt lat="47.59792" lon="-2.13745">
        <ele>20</ele>
        <time>2023-11-11T20:57:56Z</time>
      </trkpt>
      <trkpt lat="47.59811" lon="-2.13741">
        <ele>21</ele>
        <time>2023-11-11T20:58:21Z</time>
      </trkpt>
      <trkpt lat="47.59829" lon="-2.13741">
        <ele>21</ele>
        <time>2023-11-11T20:58:46Z</time>
      </trkpt>
      <trkpt lat="47.59842" lon="-2.13761">
        <ele>22</ele>
        <time>2023-11-11T20:59:10Z</time>
      </trkpt>
      <trkpt lat="47.59834" lon="-2.13786">
        <ele>23</ele>
        <time>2023-11-11T20:59:35Z</time>
      </trkpt>
      <trkpt lat="47.59852" lon="-2.13782">
        <ele>23</ele>
        <time>2023-11-11T21:00:00Z</time>
      </trkpt>
      <trkpt lat="47.59926" lon="-2.13797">
        <ele>24</ele>
        <time>2023-11-11T21:01:39Z</time>
      </trkpt>
      <trkpt lat="47.60001" lon="-2.13805">
        <ele>26</ele>
        <time>2023-11-11T21:03:20Z</time>
      </trkpt>
      <trkpt lat="47.60039" lon="-2.13803">
        <ele>28</ele>
        <time>2023-11-11T21:04:10Z</time>
      </trkpt>
      <trkpt lat="47.60059" lon="-2.13805">
        <ele>29</ele>
        <time>2023-11-11T21:04:37Z</time>
      </trkpt>
      <trkpt lat="47.60115" lon="-2.13797">
        <ele>33</ele>
        <time>2023-11-11T21:05:52Z</time>
      </trkpt>
      <trkpt lat="47.60151" lon="-2.13798">
        <ele>37</ele>
        <time>2023-11-11T21:06:40Z</time>
      </trkpt>
      <trkpt lat="47.60162" lon="-2.13821">
        <ele>39</ele>
        <time>2023-11-11T21:07:06Z</time>
      </trkpt>
      <trkpt lat="47.60162" lon="-2.13903">
        <ele>38</ele>
        <time>2023-11-11T21:08:19Z</time>
      </trkpt>
      <trkpt lat="47.60151" lon="-2.13956">
        <ele>36</ele>
        <time>2023-11-11T21:09:09Z</time>
      </trkpt>
      <trkpt lat="47.60097" lon="-2.1413">
        <ele>33</ele>
        <time>2023-11-11T21:12:02Z</time>
      </trkpt>
      <trkpt lat="47.60092" lon="-2.14156">
        <ele>34</ele>
        <time>2023-11-11T21:12:26Z</time>
      </trkpt>
      <trkpt lat="47.60091" lon="-2.14183">
        <ele>35</ele>
        <time>2023-11-11T21:12:50Z</time>
      </trkpt>
      <trkpt lat="47.60113" lon="-2.14399">
        <ele>45</ele>
        <time>2023-11-11T21:16:07Z</time>
      </trkpt>
      <trkpt lat="47.60127" lon="-2.14419">
        <ele>47</ele>
        <time>2023-11-11T21:16:33Z</time>
      </trkpt>
      <trkpt lat="47.60144" lon="-2.14429">
        <ele>49</ele>
        <time>2023-11-11T21:16:57Z</time>
      </trkpt>
      <trkpt lat="47.60166" lon="-2.14472">
        <ele>54</ele>
        <time>2023-11-11T21:17:46Z</time>
      </trkpt>
      <trkpt lat="47.60141" lon="-2.14576">
        <ele>53</ele>
        <time>2023-11-11T21:19:25Z</time>
      </trkpt>
      <trkpt lat="47.60132" lon="-2.146">
        <ele>52</ele>
        <time>2023-11-11T21:19:50Z</time>
      </trkpt>
      <trkpt lat="47.60121" lon="-2.14653">
        <ele>51</ele>
        <time>2023-11-11T21:20:40Z</time>
      </trkpt>
      <trkpt lat="47.60119" lon="-2.1468">
        <ele>51</ele>
        <time>2023-11-11T21:21:04Z</time>
      </trkpt>
      <trkpt lat="47.60128" lon="-2.14735">
        <ele>51</ele>
        <time>2023-11-11T21:21:55Z</time>
      </trkpt>
      <trkpt lat="47.60127" lon="-2.14762">
        <ele>51</ele>
        <time>2023-11-11T21:22:20Z</time>
      </trkpt>
      <trkpt lat="47.60112" lon="-2.14811">
        <ele>51</ele>
        <time>2023-11-11T21:23:08Z</time>
      </trkpt>
      <trkpt lat="47.60113" lon="-2.14838">
        <ele>52</ele>
        <time>2023-11-11T21:23:32Z</time>
      </trkpt>
      <trkpt lat="47.6011" lon="-2.14865">
        <ele>52</ele>
        <time>2023-11-11T21:23:57Z</time>
      </trkpt>
      <trkpt lat="47.60113" lon="-2.14919">
        <ele>53</ele>
        <time>2023-11-11T21:24:46Z</time>
      </trkpt>
      <trkpt lat="47.6011" lon="-2.14974">
        <ele>57</ele>
        <time>2023-11-11T21:25:35Z</time>
      </trkpt>
      <trkpt lat="47.60106" lon="-2.15001">
        <ele>58</ele>
        <time>2023-11-11T21:26:00Z</time>
      </trkpt>
      <trkpt lat="47.60098" lon="-2.15026">
        <ele>58</ele>
        <time>2023-11-11T21:26:25Z</time>
      </trkpt>
      <trkpt lat="47.60096" lon="-2.15053">
        <ele>59</ele>
        <time>2023-11-11T21:26:50Z</time>
      </trkpt>
      <trkpt lat="47.6009" lon="-2.15078">
        <ele>59</ele>
        <time>2023-11-11T21:27:13Z</time>
      </trkpt>
      <trkpt lat="47.60083" lon="-2.15104">
        <ele>59</ele>
        <time>2023-11-11T21:27:39Z</time>
      </trkpt>
      <trkpt lat="47.60072" lon="-2.15128">
        <ele>58</ele>
        <time>2023-11-11T21:28:05Z</time>
      </trkpt>
      <trkpt lat="47.60072" lon="-2.15156">
        <ele>58</ele>
        <time>2023-11-11T21:28:30Z</time>
      </trkpt>
      <trkpt lat="47.60068" lon="-2.15182">
        <ele>57</ele>
        <time>2023-11-11T21:28:54Z</time>
      </trkpt>
      <trkpt lat="47.60054" lon="-2.15199">
        <ele>55</ele>
        <time>2023-11-11T21:29:18Z</time>
      </trkpt>
      <trkpt lat="47.60042" lon="-2.15219">
        <ele>53</ele>
        <time>2023-11-11T21:29:42Z</time>
      </trkpt>
      <trkpt lat="47.60034" lon="-2.15245">
        <ele>52</ele>
        <time>2023-11-11T21:30:08Z</time>
      </trkpt>
      <trkpt lat="47.60041" lon="-2.15326">
        <ele>45</ele>
        <time>2023-11-11T21:31:21Z</time>
      </trkpt>
      <trkpt lat="47.60049" lon="-2.15351">
        <ele>44</ele>
        <time>2023-11-11T21:31:46Z</time>
      </trkpt>
      <trkpt lat="47.60062" lon="-2.15372">
        <ele>43</ele>
        <time>2023-11-11T21:32:12Z</time>
      </trkpt>
      <trkpt lat="47.60072" lon="-2.15394">
        <ele>43</ele>
        <time>2023-11-11T21:32:36Z</time>
      </trkpt>
      <trkpt lat="47.60077" lon="-2.15421">
        <ele>41</ele>
        <time>2023-11-11T21:33:01Z</time>
      </trkpt>
      <trkpt lat="47.60087" lon="-2.15444">
        <ele>41</ele>
        <time>2023-11-11T21:33:26Z</time>
      </trkpt>
      <trkpt lat="47.60105" lon="-2.15438">
        <ele>43</ele>
        <time>2023-11-11T21:33:50Z</time>
      </trkpt>
      <trkpt lat="47.60122" lon="-2.15428">
        <ele>45</ele>
        <time>2023-11-11T21:34:15Z</time>
      </trkpt>
      <trkpt lat="47.60201" lon="-2.15358">
        <ele>51</ele>
        <time>2023-11-11T21:36:17Z</time>
      </trkpt>
      <trkpt lat="47.60219" lon="-2.15346">
        <ele>49</ele>
        <time>2023-11-11T21:36:44Z</time>
      </trkpt>
      <trkpt lat="47.6024" lon="-2.15391">
        <ele>46</ele>
        <time>2023-11-11T21:37:33Z</time>
      </trkpt>
      <trkpt lat="47.60243" lon="-2.15418">
        <ele>45</ele>
        <time>2023-11-11T21:37:58Z</time>
      </trkpt>
      <trkpt lat="47.60255" lon="-2.15439">
        <ele>43</ele>
        <time>2023-11-11T21:38:22Z</time>
      </trkpt>
      <trkpt lat="47.6026" lon="-2.15466">
        <ele>41</ele>
        <time>2023-11-11T21:38:48Z</time>
      </trkpt>
      <trkpt lat="47.60251" lon="-2.1549">
        <ele>41</ele>
        <time>2023-11-11T21:39:12Z</time>
      </trkpt>
      <trkpt lat="47.60239" lon="-2.1551">
        <ele>40</ele>
        <time>2023-11-11T21:39:36Z</time>
      </trkpt>
      <trkpt lat="47.60237" lon="-2.15537">
        <ele>36</ele>
        <time>2023-11-11T21:40:01Z</time>
      </trkpt>
      <trkpt lat="47.6024" lon="-2.15592">
        <ele>29</ele>
        <time>2023-11-11T21:40:50Z</time>
      </trkpt>
      <trkpt lat="47.60233" lon="-2.15618">
        <ele>27</ele>
        <time>2023-11-11T21:41:16Z</time>
      </trkpt>
      <trkpt lat="47.60206" lon="-2.15691">
        <ele>22</ele>
        <time>2023-11-11T21:42:31Z</time>
      </trkpt>
      <trkpt lat="47.60195" lon="-2.15713">
        <ele>21</ele>
        <time>2023-11-11T21:42:55Z</time>
      </trkpt>
      <trkpt lat="47.60181" lon="-2.1573">
        <ele>20</ele>
        <time>2023-11-11T21:43:19Z</time>
      </trkpt>
      <trkpt lat="47.60188" lon="-2.15784">
        <ele>18</ele>
        <time>2023-11-11T21:44:09Z</time>
      </trkpt>
      <trkpt lat="47.60195" lon="-2.15809">
        <ele>18</ele>
        <time>2023-11-11T21:44:33Z</time>
      </trkpt>
      <trkpt lat="47.60286" lon="-2.15806">
        <ele>19</ele>
        <time>2023-11-11T21:46:35Z</time>
      </trkpt>
      <trkpt lat="47.60303" lon="-2.15814">
        <ele>19</ele>
        <time>2023-11-11T21:46:58Z</time>
      </trkpt>
      <trkpt lat="47.60336" lon="-2.15841">
        <ele>19</ele>
        <time>2023-11-11T21:47:49Z</time>
      </trkpt>
      <trkpt lat="47.60354" lon="-2.15845">
        <ele>19</ele>
        <time>2023-11-11T21:48:13Z</time>
      </trkpt>
      <trkpt lat="47.6041" lon="-2.15846">
        <ele>19</ele>
        <time>2023-11-11T21:49:28Z</time>
      </trkpt>
      <trkpt lat="47.60483" lon="-2.15836">
        <ele>21</ele>
        <time>2023-11-11T21:51:06Z</time>
      </trkpt>
      <trkpt lat="47.60501" lon="-2.15838">
        <ele>21</ele>
        <time>2023-11-11T21:51:30Z</time>
      </trkpt>
      <trkpt lat="47.60612" lon="-2.15831">
        <ele>25</ele>
        <time>2023-11-11T21:53:58Z</time>
      </trkpt>
      <trkpt lat="47.60649" lon="-2.15826">
        <ele>27</ele>
        <time>2023-11-11T21:54:48Z</time>
      </trkpt>
      <trkpt lat="47.60686" lon="-2.15815">
        <ele>29</ele>
        <time>2023-11-11T21:55:38Z</time>
      </trkpt>
      <trkpt lat="47.60704" lon="-2.15814">
        <ele>31</ele>
        <time>2023-11-11T21:56:02Z</time>
      </trkpt>
      <trkpt lat="47.60739" lon="-2.15828">
        <ele>33</ele>
        <time>2023-11-11T21:56:50Z</time>
      </trkpt>
      <trkpt lat="47.60758" lon="-2.15829">
        <ele>34</ele>
        <time>2023-11-11T21:57:16Z</time>
      </trkpt>
      <trkpt lat="47.60793" lon="-2.15816">
        <ele>34</ele>
        <time>2023-11-11T21:58:04Z</time>
      </trkpt>
      <trkpt lat="47.60845" lon="-2.15787">
        <ele>34</ele>
        <time>2023-11-11T21:59:18Z</time>
      </trkpt>
      <trkpt lat="47.60916" lon="-2.15761">
        <ele>39</ele>
        <time>2023-11-11T22:00:56Z</time>
      </trkpt>
      <trkpt lat="47.60949" lon="-2.15785">
        <ele>41</ele>
        <time>2023-11-11T22:01:45Z</time>
      </trkpt>
      <trkpt lat="47.60962" lon="-2.15803">
        <ele>42</ele>
        <time>2023-11-11T22:02:08Z</time>
      </trkpt>
      <trkpt lat="47.60967" lon="-2.15856">
        <ele>44</ele>
        <time>2023-11-11T22:02:56Z</time>
      </trkpt>
      <trkpt lat="47.6098" lon="-2.15875">
        <ele>45</ele>
        <time>2023-11-11T22:03:21Z</time>
      </trkpt>
      <trkpt lat="47.60992" lon="-2.15927">
        <ele>47</ele>
        <time>2023-11-11T22:04:10Z</time>
      </trkpt>
      <trkpt lat="47.60986" lon="-2.15952">
        <ele>48</ele>
        <time>2023-11-11T22:04:34Z</time>
      </trkpt>
      <trkpt lat="47.60983" lon="-2.15979">
        <ele>50</ele>
        <time>2023-11-11T22:04:59Z</time>
      </trkpt>
      <trkpt lat="47.60952" lon="-2.16033">
        <ele>50</ele>
        <time>2023-11-11T22:06:03Z</time>
      </trkpt>
      <trkpt lat="47.60966" lon="-2.16014">
        <ele>50</ele>
        <time>2023-11-11T22:06:28Z</time>
      </trkpt>
      <trkpt lat="47.60969" lon="-2.1604">
        <ele>52</ele>
        <time>2023-11-11T22:06:52Z</time>
      </trkpt>
      <trkpt lat="47.60963" lon="-2.16122">
        <ele>52</ele>
        <time>2023-11-11T22:08:06Z</time>
      </trkpt>
      <trkpt lat="47.60969" lon="-2.16148">
        <ele>52</ele>
        <time>2023-11-11T22:08:31Z</time>
      </trkpt>
      <trkpt lat="47.60967" lon="-2.16175">
        <ele>52</ele>
        <time>2023-11-11T22:08:55Z</time>
      </trkpt>
      <trkpt lat="47.6097" lon="-2.16229">
        <ele>53</ele>
        <time>2023-11-11T22:09:44Z</time>
      </trkpt>
      <trkpt lat="47.60966" lon="-2.16284">
        <ele>54</ele>
        <time>2023-11-11T22:10:34Z</time>
      </trkpt>
      <trkpt lat="47.60954" lon="-2.16335">
        <ele>55</ele>
        <time>2023-11-11T22:11:22Z</time>
      </trkpt>
      <trkpt lat="47.60971" lon="-2.16345">
        <ele>56</ele>
        <time>2023-11-11T22:11:47Z</time>
      </trkpt>
      <trkpt lat="47.61007" lon="-2.16358">
        <ele>59</ele>
        <time>2023-11-11T22:12:36Z</time>
      </trkpt>
      <trkpt lat="47.61043" lon="-2.16364">
        <ele>61</ele>
        <time>2023-11-11T22:13:24Z</time>
      </trkpt>
      <trkpt lat="47.61061" lon="-2.1637">
        <ele>62</ele>
        <time>2023-11-11T22:13:49Z</time>
      </trkpt>
      <trkpt lat="47.6108" lon="-2.16372">
        <ele>63</ele>
        <time>2023-11-11T22:14:14Z</time>
      </trkpt>
      <trkpt lat="47.61098" lon="-2.16379">
        <ele>64</ele>
        <time>2023-11-11T22:14:39Z</time>
      </trkpt>
      <trkpt lat="47.61135" lon="-2.16387">
        <ele>66</ele>
        <time>2023-11-11T22:15:29Z</time>
      </trkpt>
      <trkpt lat="47.61153" lon="-2.16387">
        <ele>67</ele>
        <time>2023-11-11T22:15:53Z</time>
      </trkpt>
      <trkpt lat="47.61191" lon="-2.16395">
        <ele>71</ele>
        <time>2023-11-11T22:16:44Z</time>
      </trkpt>
      <trkpt lat="47.61208" lon="-2.16401">
        <ele>73</ele>
        <time>2023-11-11T22:17:08Z</time>
      </trkpt>
      <trkpt lat="47.61245" lon="-2.16403">
        <ele>78</ele>
        <time>2023-11-11T22:17:57Z</time>
      </trkpt>
      <trkpt lat="47.61283" lon="-2.16412">
        <ele>78</ele>
        <time>2023-11-11T22:18:48Z</time>
      </trkpt>
      <trkpt lat="47.61301" lon="-2.16413">
        <ele>78</ele>
        <time>2023-11-11T22:19:12Z</time>
      </trkpt>
      <trkpt lat="47.61305" lon="-2.16386">
        <ele>77</ele>
        <time>2023-11-11T22:19:37Z</time>
      </trkpt>
      <trkpt lat="47.613" lon="-2.1636">
        <ele>77</ele>
        <time>2023-11-11T22:20:02Z</time>
      </trkpt>
      <trkpt lat="47.61296" lon="-2.16304">
        <ele>77</ele>
        <time>2023-11-11T22:20:52Z</time>
      </trkpt>
      <trkpt lat="47.61291" lon="-2.16278">
        <ele>77</ele>
        <time>2023-11-11T22:21:17Z</time>
      </trkpt>
      <trkpt lat="47.61289" lon="-2.16251">
        <ele>77</ele>
        <time>2023-11-11T22:21:41Z</time>
      </trkpt>
      <trkpt lat="47.61291" lon="-2.16222">
        <ele>77</ele>
        <time>2023-11-11T22:22:07Z</time>
      </trkpt>
      <trkpt lat="47.61296" lon="-2.16196">
        <ele>76</ele>
        <time>2023-11-11T22:22:32Z</time>
      </trkpt>
      <trkpt lat="47.61294" lon="-2.16168">
        <ele>76</ele>
        <time>2023-11-11T22:22:57Z</time>
      </trkpt>
      <trkpt lat="47.61299" lon="-2.16115">
        <ele>75</ele>
        <time>2023-11-11T22:23:45Z</time>
      </trkpt>
      <trkpt lat="47.61306" lon="-2.16089">
        <ele>74</ele>
        <time>2023-11-11T22:24:10Z</time>
      </trkpt>
      <trkpt lat="47.61338" lon="-2.16118">
        <ele>75</ele>
        <time>2023-11-11T22:25:00Z</time>
      </trkpt>
      <trkpt lat="47.61351" lon="-2.16136">
        <ele>76</ele>
        <time>2023-11-11T22:25:24Z</time>
      </trkpt>
      <trkpt lat="47.61398" lon="-2.1618">
        <ele>78</ele>
        <time>2023-11-11T22:26:38Z</time>
      </trkpt>
      <trkpt lat="47.61425" lon="-2.16216">
        <ele>80</ele>
        <time>2023-11-11T22:27:27Z</time>
      </trkpt>
      <trkpt lat="47.61442" lon="-2.16226">
        <ele>80</ele>
        <time>2023-11-11T22:27:51Z</time>
      </trkpt>
      <trkpt lat="47.61489" lon="-2.16266">
        <ele>80</ele>
        <time>2023-11-11T22:29:03Z</time>
      </trkpt>
      <trkpt lat="47.61524" lon="-2.16289">
        <ele>79</ele>
        <time>2023-11-11T22:29:54Z</time>
      </trkpt>
      <trkpt lat="47.61542" lon="-2.16296">
        <ele>77</ele>
        <time>2023-11-11T22:30:19Z</time>
      </trkpt>
      <trkpt lat="47.6156" lon="-2.16299">
        <ele>76</ele>
        <time>2023-11-11T22:30:43Z</time>
      </trkpt>
      <trkpt lat="47.6158" lon="-2.16165">
        <ele>74</ele>
        <time>2023-11-11T22:32:47Z</time>
      </trkpt>
      <trkpt lat="47.61592" lon="-2.16113">
        <ele>74</ele>
        <time>2023-11-11T22:33:36Z</time>
      </trkpt>
      <trkpt lat="47.61606" lon="-2.16006">
        <ele>76</ele>
        <time>2023-11-11T22:35:14Z</time>
      </trkpt>
      <trkpt lat="47.61624" lon="-2.16">
        <ele>76</ele>
        <time>2023-11-11T22:35:39Z</time>
      </trkpt>
      <trkpt lat="47.61777" lon="-2.16101">
        <ele>72</ele>
        <time>2023-11-11T22:39:22Z</time>
      </trkpt>
      <trkpt lat="47.61805" lon="-2.16137">
        <ele>74</ele>
        <time>2023-11-11T22:40:12Z</time>
      </trkpt>
      <trkpt lat="47.61817" lon="-2.16159">
        <ele>76</ele>
        <time>2023-11-11T22:40:37Z</time>
      </trkpt>
      <trkpt lat="47.61866" lon="-2.16276">
        <ele>77</ele>
        <time>2023-11-11T22:42:41Z</time>
      </trkpt>
      <trkpt lat="47.61875" lon="-2.16301">
        <ele>76</ele>
        <time>2023-11-11T22:43:07Z</time>
      </trkpt>
      <trkpt lat="47.61905" lon="-2.16429">
        <ele>72</ele>
        <time>2023-11-11T22:45:09Z</time>
      </trkpt>
      <trkpt lat="47.61935" lon="-2.16498">
        <ele>72</ele>
        <time>2023-11-11T22:46:23Z</time>
      </trkpt>
      <trkpt lat="47.61947" lon="-2.16519">
        <ele>72</ele>
        <time>2023-11-11T22:46:47Z</time>
      </trkpt>
      <trkpt lat="47.61979" lon="-2.16546">
        <ele>74</ele>
        <time>2023-11-11T22:47:36Z</time>
      </trkpt>
      <trkpt lat="47.62047" lon="-2.16587">
        <ele>76</ele>
        <time>2023-11-11T22:49:14Z</time>
      </trkpt>
      <trkpt lat="47.62101" lon="-2.16611">
        <ele>76</ele>
        <time>2023-11-11T22:50:30Z</time>
      </trkpt>
      <trkpt lat="47.62118" lon="-2.16622">
        <ele>75</ele>
        <time>2023-11-11T22:50:54Z</time>
      </trkpt>
      <trkpt lat="47.62136" lon="-2.16616">
        <ele>74</ele>
        <time>2023-11-11T22:51:19Z</time>
      </trkpt>
      <trkpt lat="47.62176" lon="-2.16557">
        <ele>73</ele>
        <time>2023-11-11T22:52:34Z</time>
      </trkpt>
      <trkpt lat="47.62199" lon="-2.16515">
        <ele>73</ele>
        <time>2023-11-11T22:53:23Z</time>
      </trkpt>
      <trkpt lat="47.6224" lon="-2.16461">
        <ele>73</ele>
        <time>2023-11-11T22:54:36Z</time>
      </trkpt>
      <trkpt lat="47.62273" lon="-2.16434">
        <ele>71</ele>
        <time>2023-11-11T22:55:26Z</time>
      </trkpt>
      <trkpt lat="47.62285" lon="-2.16411">
        <ele>71</ele>
        <time>2023-11-11T22:55:53Z</time>
      </trkpt>
      <trkpt lat="47.62301" lon="-2.16397">
        <ele>70</ele>
        <time>2023-11-11T22:56:17Z</time>
      </trkpt>
      <trkpt lat="47.62319" lon="-2.16396">
        <ele>70</ele>
        <time>2023-11-11T22:56:41Z</time>
      </trkpt>
      <trkpt lat="47.62374" lon="-2.16411">
        <ele>69</ele>
        <time>2023-11-11T22:57:56Z</time>
      </trkpt>
      <trkpt lat="47.62393" lon="-2.1641">
        <ele>69</ele>
        <time>2023-11-11T22:58:21Z</time>
      </trkpt>
      <trkpt lat="47.62461" lon="-2.16372">
        <ele>67</ele>
        <time>2023-11-11T22:59:58Z</time>
      </trkpt>
      <trkpt lat="47.62515" lon="-2.16347">
        <ele>67</ele>
        <time>2023-11-11T23:01:14Z</time>
      </trkpt>
      <trkpt lat="47.62502" lon="-2.16328">
        <ele>67</ele>
        <time>2023-11-11T23:01:38Z</time>
      </trkpt>
      <trkpt lat="47.62447" lon="-2.16331">
        <ele>68</ele>
        <time>2023-11-11T23:02:52Z</time>
      </trkpt>
      <trkpt lat="47.62409" lon="-2.16326">
        <ele>69</ele>
        <time>2023-11-11T23:03:42Z</time>
      </trkpt>
      <trkpt lat="47.62379" lon="-2.16294">
        <ele>70</ele>
        <time>2023-11-11T23:04:32Z</time>
      </trkpt>
      <trkpt lat="47.62302" lon="-2.16176">
        <ele>72</ele>
        <time>2023-11-11T23:07:00Z</time>
      </trkpt>
      <trkpt lat="47.62269" lon="-2.16147">
        <ele>72</ele>
        <time>2023-11-11T23:07:51Z</time>
      </trkpt>
      <trkpt lat="47.62257" lon="-2.16127">
        <ele>72</ele>
        <time>2023-11-11T23:08:15Z</time>
      </trkpt>
      <trkpt lat="47.62248" lon="-2.16103">
        <ele>73</ele>
        <time>2023-11-11T23:08:39Z</time>
      </trkpt>
      <trkpt lat="47.62231" lon="-2.1609">
        <ele>72</ele>
        <time>2023-11-11T23:09:05Z</time>
      </trkpt>
      <trkpt lat="47.62207" lon="-2.1605">
        <ele>71</ele>
        <time>2023-11-11T23:09:53Z</time>
      </trkpt>
      <trkpt lat="47.62175" lon="-2.16023">
        <ele>71</ele>
        <time>2023-11-11T23:10:42Z</time>
      </trkpt>
      <trkpt lat="47.62167" lon="-2.15998">
        <ele>71</ele>
        <time>2023-11-11T23:11:07Z</time>
      </trkpt>
      <trkpt lat="47.62141" lon="-2.15958">
        <ele>74</ele>
        <time>2023-11-11T23:11:57Z</time>
      </trkpt>
      <trkpt lat="47.62126" lon="-2.15943">
        <ele>75</ele>
        <time>2023-11-11T23:12:21Z</time>
      </trkpt>
      <trkpt lat="47.62099" lon="-2.15904">
        <ele>76</ele>
        <time>2023-11-11T23:13:12Z</time>
      </trkpt>
      <trkpt lat="47.6209" lon="-2.15882">
        <ele>76</ele>
        <time>2023-11-11T23:13:35Z</time>
      </trkpt>
      <trkpt lat="47.6206" lon="-2.15848">
        <ele>75</ele>
        <time>2023-11-11T23:14:25Z</time>
      </trkpt>
      <trkpt lat="47.62023" lon="-2.15787">
        <ele>76</ele>
        <time>2023-11-11T23:15:39Z</time>
      </trkpt>
      <trkpt lat="47.62008" lon="-2.15771">
        <ele>76</ele>
        <time>2023-11-11T23:16:04Z</time>
      </trkpt>
      <trkpt lat="47.62001" lon="-2.15746">
        <ele>77</ele>
        <time>2023-11-11T23:16:28Z</time>
      </trkpt>
      <trkpt lat="47.61988" lon="-2.15726">
        <ele>77</ele>
        <time>2023-11-11T23:16:53Z</time>
      </trkpt>
      <trkpt lat="47.61974" lon="-2.15708">
        <ele>76</ele>
        <time>2023-11-11T23:17:18Z</time>
      </trkpt>
      <trkpt lat="47.61955" lon="-2.15707">
        <ele>77</ele>
        <time>2023-11-11T23:17:43Z</time>
      </trkpt>
      <trkpt lat="47.61916" lon="-2.15648">
        <ele>79</ele>
        <time>2023-11-11T23:18:57Z</time>
      </trkpt>
      <trkpt lat="47.61887" lon="-2.15612">
        <ele>81</ele>
        <time>2023-11-11T23:19:48Z</time>
      </trkpt>
      <trkpt lat="47.61878" lon="-2.15589">
        <ele>82</ele>
        <time>2023-11-11T23:20:12Z</time>
      </trkpt>
      <trkpt lat="47.61851" lon="-2.15551">
        <ele>83</ele>
        <time>2023-11-11T23:21:01Z</time>
      </trkpt>
      <trkpt lat="47.61836" lon="-2.15536">
        <ele>83</ele>
        <time>2023-11-11T23:21:26Z</time>
      </trkpt>
      <trkpt lat="47.61796" lon="-2.15478">
        <ele>83</ele>
        <time>2023-11-11T23:22:40Z</time>
      </trkpt>
      <trkpt lat="47.61781" lon="-2.15461">
        <ele>83</ele>
        <time>2023-11-11T23:23:05Z</time>
      </trkpt>
      <trkpt lat="47.61773" lon="-2.15436">
        <ele>83</ele>
        <time>2023-11-11T23:23:30Z</time>
      </trkpt>
      <trkpt lat="47.61786" lon="-2.15419">
        <ele>85</ele>
        <time>2023-11-11T23:23:53Z</time>
      </trkpt>
      <trkpt lat="47.61795" lon="-2.15395">
        <ele>85</ele>
        <time>2023-11-11T23:24:18Z</time>
      </trkpt>
      <trkpt lat="47.61796" lon="-2.15368">
        <ele>84</ele>
        <time>2023-11-11T23:24:42Z</time>
      </trkpt>
      <trkpt lat="47.61803" lon="-2.15341">
        <ele>84</ele>
        <time>2023-11-11T23:25:08Z</time>
      </trkpt>
      <trkpt lat="47.61816" lon="-2.15321">
        <ele>84</ele>
        <time>2023-11-11T23:25:33Z</time>
      </trkpt>
      <trkpt lat="47.61829" lon="-2.1527">
        <ele>83</ele>
        <time>2023-11-11T23:26:22Z</time>
      </trkpt>
      <trkpt lat="47.61839" lon="-2.15247">
        <ele>83</ele>
        <time>2023-11-11T23:26:47Z</time>
      </trkpt>
      <trkpt lat="47.61843" lon="-2.1522">
        <ele>83</ele>
        <time>2023-11-11T23:27:12Z</time>
      </trkpt>
      <trkpt lat="47.61851" lon="-2.15196">
        <ele>82</ele>
        <time>2023-11-11T23:27:36Z</time>
      </trkpt>
      <trkpt lat="47.61856" lon="-2.15169">
        <ele>81</ele>
        <time>2023-11-11T23:28:01Z</time>
      </trkpt>
      <trkpt lat="47.61877" lon="-2.15123">
        <ele>79</ele>
        <time>2023-11-11T23:28:51Z</time>
      </trkpt>
      <trkpt lat="47.61895" lon="-2.15076">
        <ele>76</ele>
        <time>2023-11-11T23:29:40Z</time>
      </trkpt>
      <trkpt lat="47.61899" lon="-2.1505">
        <ele>76</ele>
        <time>2023-11-11T23:30:04Z</time>
      </trkpt>
      <trkpt lat="47.6196" lon="-2.14788">
        <ele>73</ele>
        <time>2023-11-11T23:34:13Z</time>
      </trkpt>
      <trkpt lat="47.61963" lon="-2.1476">
        <ele>73</ele>
        <time>2023-11-11T23:34:39Z</time>
      </trkpt>
      <trkpt lat="47.61957" lon="-2.14649">
        <ele>73</ele>
        <time>2023-11-11T23:36:19Z</time>
      </trkpt>
      <trkpt lat="47.6196" lon="-2.14593">
        <ele>72</ele>
        <time>2023-11-11T23:37:09Z</time>
      </trkpt>
      <trkpt lat="47.61985" lon="-2.14347">
        <ele>60</ele>
        <time>2023-11-11T23:40:53Z</time>
      </trkpt>
      <trkpt lat="47.61994" lon="-2.14292">
        <ele>56</ele>
        <time>2023-11-11T23:41:44Z</time>
      </trkpt>
      <trkpt lat="47.61997" lon="-2.14236">
        <ele>52</ele>
        <time>2023-11-11T23:42:35Z</time>
      </trkpt>
      <trkpt lat="47.62005" lon="-2.14181">
        <ele>49</ele>
        <time>2023-11-11T23:43:25Z</time>
      </trkpt>
      <trkpt lat="47.62004" lon="-2.14153">
        <ele>48</ele>
        <time>2023-11-11T23:43:50Z</time>
      </trkpt>
      <trkpt lat="47.61998" lon="-2.14127">
        <ele>47</ele>
        <time>2023-11-11T23:44:15Z</time>
      </trkpt>
      <trkpt lat="47.61988" lon="-2.14105">
        <ele>46</ele>
        <time>2023-11-11T23:44:39Z</time>
      </trkpt>
      <trkpt lat="47.61986" lon="-2.14078">
        <ele>46</ele>
        <time>2023-11-11T23:45:03Z</time>
      </trkpt>
      <trkpt lat="47.61991" lon="-2.1405">
        <ele>45</ele>
        <time>2023-11-11T23:45:29Z</time>
      </trkpt>
      <trkpt lat="47.61992" lon="-2.14023">
        <ele>44</ele>
        <time>2023-11-11T23:45:54Z</time>
      </trkpt>
      <trkpt lat="47.61998" lon="-2.13996">
        <ele>43</ele>
        <time>2023-11-11T23:46:19Z</time>
      </trkpt>
      <trkpt lat="47.61999" lon="-2.1397">
        <ele>43</ele>
        <time>2023-11-11T23:46:43Z</time>
      </trkpt>
      <trkpt lat="47.62012" lon="-2.1386">
        <ele>42</ele>
        <time>2023-11-11T23:48:23Z</time>
      </trkpt>
      <trkpt lat="47.62027" lon="-2.1378">
        <ele>42</ele>
        <time>2023-11-11T23:49:38Z</time>
      </trkpt>
      <trkpt lat="47.62035" lon="-2.13754">
        <ele>42</ele>
        <time>2023-11-11T23:50:04Z</time>
      </trkpt>
      <trkpt lat="47.62038" lon="-2.13727">
        <ele>41</ele>
        <time>2023-11-11T23:50:28Z</time>
      </trkpt>
      <trkpt lat="47.62038" lon="-2.13699">
        <ele>39</ele>
        <time>2023-11-11T23:50:53Z</time>
      </trkpt>
      <trkpt lat="47.62046" lon="-2.13675">
        <ele>38</ele>
        <time>2023-11-11T23:51:18Z</time>
      </trkpt>
      <trkpt lat="47.62063" lon="-2.1357">
        <ele>36</ele>
        <time>2023-11-11T23:52:55Z</time>
      </trkpt>
      <trkpt lat="47.62064" lon="-2.13543">
        <ele>36</ele>
        <time>2023-11-11T23:53:19Z</time>
      </trkpt>
      <trkpt lat="47.62057" lon="-2.13489">
        <ele>37</ele>
        <time>2023-11-11T23:54:08Z</time>
      </trkpt>
      <trkpt lat="47.62054" lon="-2.13433">
        <ele>38</ele>
        <time>2023-11-11T23:54:59Z</time>
      </trkpt>
      <trkpt lat="47.6204" lon="-2.13353">
        <ele>41</ele>
        <time>2023-11-11T23:56:13Z</time>
      </trkpt>
      <trkpt lat="47.62039" lon="-2.13326">
        <ele>42</ele>
        <time>2023-11-11T23:56:38Z</time>
      </trkpt>
      <trkpt lat="47.62031" lon="-2.13301">
        <ele>43</ele>
        <time>2023-11-11T23:57:03Z</time>
      </trkpt>
      <trkpt lat="47.62026" lon="-2.13246">
        <ele>45</ele>
        <time>2023-11-11T23:57:52Z</time>
      </trkpt>
      <trkpt lat="47.62018" lon="-2.13221">
        <ele>46</ele>
        <time>2023-11-11T23:58:17Z</time>
      </trkpt>
      <trkpt lat="47.62014" lon="-2.13192">
        <ele>47</ele>
        <time>2023-11-11T23:58:44Z</time>
      </trkpt>
      <trkpt lat="47.62018" lon="-2.13166">
        <ele>47</ele>
        <time>2023-11-11T23:59:08Z</time>
      </trkpt>
      <trkpt lat="47.62027" lon="-2.13141">
        <ele>46</ele>
        <time>2023-11-11T23:59:33Z</time>
      </trkpt>
      <trkpt lat="47.62037" lon="-2.13088">
        <ele>45</ele>
        <time>2023-11-12T00:00:23Z</time>
      </trkpt>
      <trkpt lat="47.62043" lon="-2.13033">
        <ele>43</ele>
        <time>2023-11-12T00:01:13Z</time>
      </trkpt>
      <trkpt lat="47.6205" lon="-2.13006">
        <ele>42</ele>
        <time>2023-11-12T00:01:39Z</time>
      </trkpt>
      <trkpt lat="47.62061" lon="-2.12983">
        <ele>41</ele>
        <time>2023-11-12T00:02:04Z</time>
      </trkpt>
      <trkpt lat="47.62073" lon="-2.12931">
        <ele>40</ele>
        <time>2023-11-12T00:02:54Z</time>
      </trkpt>
      <trkpt lat="47.62081" lon="-2.12877">
        <ele>38</ele>
        <time>2023-11-12T00:03:44Z</time>
      </trkpt>
      <trkpt lat="47.62089" lon="-2.12795">
        <ele>35</ele>
        <time>2023-11-12T00:04:58Z</time>
      </trkpt>
      <trkpt lat="47.62094" lon="-2.12769">
        <ele>34</ele>
        <time>2023-11-12T00:05:22Z</time>
      </trkpt>
      <trkpt lat="47.62101" lon="-2.12411">
        <ele>33</ele>
        <time>2023-11-12T00:10:45Z</time>
      </trkpt>
      <trkpt lat="47.62098" lon="-2.12385">
        <ele>32</ele>
        <time>2023-11-12T00:11:08Z</time>
      </trkpt>
      <trkpt lat="47.6208" lon="-2.12391">
        <ele>34</ele>
        <time>2023-11-12T00:11:33Z</time>
      </trkpt>
      <trkpt lat="47.62025" lon="-2.12403">
        <ele>37</ele>
        <time>2023-11-12T00:12:47Z</time>
      </trkpt>
      <trkpt lat="47.6197" lon="-2.1241">
        <ele>44</ele>
        <time>2023-11-12T00:14:01Z</time>
      </trkpt>
      <trkpt lat="47.61934" lon="-2.12419">
        <ele>50</ele>
        <time>2023-11-12T00:14:50Z</time>
      </trkpt>
      <trkpt lat="47.61916" lon="-2.12419">
        <ele>53</ele>
        <time>2023-11-12T00:15:14Z</time>
      </trkpt>
      <trkpt lat="47.61908" lon="-2.12395">
        <ele>55</ele>
        <time>2023-11-12T00:15:38Z</time>
      </trkpt>
      <trkpt lat="47.61911" lon="-2.12341">
        <ele>57</ele>
        <time>2023-11-12T00:16:26Z</time>
      </trkpt>
      <trkpt lat="47.61906" lon="-2.12314">
        <ele>59</ele>
        <time>2023-11-12T00:16:52Z</time>
      </trkpt>
      <trkpt lat="47.61909" lon="-2.12258">
        <ele>60</ele>
        <time>2023-11-12T00:17:42Z</time>
      </trkpt>
      <trkpt lat="47.61929" lon="-2.12182">
        <ele>56</ele>
        <time>2023-11-12T00:18:55Z</time>
      </trkpt>
      <trkpt lat="47.61941" lon="-2.12074">
        <ele>54</ele>
        <time>2023-11-12T00:20:34Z</time>
      </trkpt>
      <trkpt lat="47.61952" lon="-2.12021">
        <ele>49</ele>
        <time>2023-11-12T00:21:24Z</time>
      </trkpt>
      <trkpt lat="47.61963" lon="-2.12">
        <ele>47</ele>
        <time>2023-11-12T00:21:48Z</time>
      </trkpt>
      <trkpt lat="47.61955" lon="-2.11975">
        <ele>47</ele>
        <time>2023-11-12T00:22:13Z</time>
      </trkpt>
      <trkpt lat="47.6193" lon="-2.11932">
        <ele>47</ele>
        <time>2023-11-12T00:23:04Z</time>
      </trkpt>
      <trkpt lat="47.61917" lon="-2.11914">
        <ele>47</ele>
        <time>2023-11-12T00:23:27Z</time>
      </trkpt>
      <trkpt lat="47.61913" lon="-2.11887">
        <ele>47</ele>
        <time>2023-11-12T00:23:52Z</time>
      </trkpt>
      <trkpt lat="47.61932" lon="-2.11841">
        <ele>45</ele>
        <time>2023-11-12T00:24:41Z</time>
      </trkpt>
      <trkpt lat="47.61947" lon="-2.11791">
        <ele>40</ele>
        <time>2023-11-12T00:25:30Z</time>
      </trkpt>
      <trkpt lat="47.61957" lon="-2.11769">
        <ele>37</ele>
        <time>2023-11-12T00:25:54Z</time>
      </trkpt>
      <trkpt lat="47.6197" lon="-2.11748">
        <ele>35</ele>
        <time>2023-11-12T00:26:20Z</time>
      </trkpt>
      <trkpt lat="47.62006" lon="-2.11732">
        <ele>31</ele>
        <time>2023-11-12T00:27:10Z</time>
      </trkpt>
      <trkpt lat="47.6209" lon="-2.11676">
        <ele>24</ele>
        <time>2023-11-12T00:29:13Z</time>
      </trkpt>
      <trkpt lat="47.62128" lon="-2.1167">
        <ele>22</ele>
        <time>2023-11-12T00:30:04Z</time>
      </trkpt>
      <trkpt lat="47.62145" lon="-2.11661">
        <ele>22</ele>
        <time>2023-11-12T00:30:28Z</time>
      </trkpt>
      <trkpt lat="47.62159" lon="-2.11642">
        <ele>22</ele>
        <time>2023-11-12T00:30:53Z</time>
      </trkpt>
      <trkpt lat="47.6212" lon="-2.11548">
        <ele>21</ele>
        <time>2023-11-12T00:32:32Z</time>
      </trkpt>
      <trkpt lat="47.62091" lon="-2.11448">
        <ele>16</ele>
        <time>2023-11-12T00:34:10Z</time>
      </trkpt>
      <trkpt lat="47.62078" lon="-2.11429">
        <ele>16</ele>
        <time>2023-11-12T00:34:35Z</time>
      </trkpt>
      <trkpt lat="47.62059" lon="-2.11431">
        <ele>15</ele>
        <time>2023-11-12T00:35:00Z</time>
      </trkpt>
      <trkpt lat="47.62055" lon="-2.11404">
        <ele>14</ele>
        <time>2023-11-12T00:35:25Z</time>
      </trkpt>
      <trkpt lat="47.62054" lon="-2.11348">
        <ele>13</ele>
        <time>2023-11-12T00:36:15Z</time>
      </trkpt>
      <trkpt lat="47.6206" lon="-2.11323">
        <ele>13</ele>
        <time>2023-11-12T00:36:39Z</time>
      </trkpt>
      <trkpt lat="47.62057" lon="-2.11296">
        <ele>12</ele>
        <time>2023-11-12T00:37:04Z</time>
      </trkpt>
      <trkpt lat="47.62041" lon="-2.11282">
        <ele>12</ele>
        <time>2023-11-12T00:37:29Z</time>
      </trkpt>
      <trkpt lat="47.62022" lon="-2.11282">
        <ele>12</ele>
        <time>2023-11-12T00:37:54Z</time>
      </trkpt>
      <trkpt lat="47.62005" lon="-2.11274">
        <ele>12</ele>
        <time>2023-11-12T00:38:18Z</time>
      </trkpt>
      <trkpt lat="47.62002" lon="-2.11248">
        <ele>11</ele>
        <time>2023-11-12T00:38:41Z</time>
      </trkpt>
      <trkpt lat="47.62003" lon="-2.11221">
        <ele>10</ele>
        <time>2023-11-12T00:39:06Z</time>
      </trkpt>
      <trkpt lat="47.61987" lon="-2.11207">
        <ele>10</ele>
        <time>2023-11-12T00:39:31Z</time>
      </trkpt>
      <trkpt lat="47.61968" lon="-2.11203">
        <ele>10</ele>
        <time>2023-11-12T00:39:56Z</time>
      </trkpt>
      <trkpt lat="47.61952" lon="-2.11215">
        <ele>10</ele>
        <time>2023-11-12T00:40:20Z</time>
      </trkpt>
      <trkpt lat="47.61942" lon="-2.11178">
        <ele>9</ele>
        <time>2023-11-12T00:40:56Z</time>
      </trkpt>
      <trkpt lat="47.61928" lon="-2.1116">
        <ele>9</ele>
        <time>2023-11-12T00:41:21Z</time>
      </trkpt>
      <trkpt lat="47.61952" lon="-2.11086">
        <ele>8</ele>
        <time>2023-11-12T00:42:35Z</time>
      </trkpt>
      <trkpt lat="47.61954" lon="-2.11059">
        <ele>8</ele>
        <time>2023-11-12T00:42:59Z</time>
      </trkpt>
      <trkpt lat="47.61946" lon="-2.11034">
        <ele>8</ele>
        <time>2023-11-12T00:43:24Z</time>
      </trkpt>
      <trkpt lat="47.61931" lon="-2.11021">
        <ele>8</ele>
        <time>2023-11-12T00:43:47Z</time>
      </trkpt>
      <trkpt lat="47.61912" lon="-2.11021">
        <ele>8</ele>
        <time>2023-11-12T00:44:12Z</time>
      </trkpt>
      <trkpt lat="47.61875" lon="-2.11035">
        <ele>8</ele>
        <time>2023-11-12T00:45:03Z</time>
      </trkpt>
      <trkpt lat="47.61857" lon="-2.11038">
        <ele>8</ele>
        <time>2023-11-12T00:45:28Z</time>
      </trkpt>
      <trkpt lat="47.61837" lon="-2.11038">
        <ele>8</ele>
        <time>2023-11-12T00:45:54Z</time>
      </trkpt>
      <trkpt lat="47.61801" lon="-2.11051">
        <ele>8</ele>
        <time>2023-11-12T00:46:44Z</time>
      </trkpt>
      <trkpt lat="47.61813" lon="-2.11072">
        <ele>8</ele>
        <time>2023-11-12T00:47:08Z</time>
      </trkpt>
      <trkpt lat="47.6181" lon="-2.11099">
        <ele>8</ele>
        <time>2023-11-12T00:47:33Z</time>
      </trkpt>
      <trkpt lat="47.61809" lon="-2.11154">
        <ele>8</ele>
        <time>2023-11-12T00:48:23Z</time>
      </trkpt>
      <trkpt lat="47.61811" lon="-2.11209">
        <ele>9</ele>
        <time>2023-11-12T00:49:12Z</time>
      </trkpt>
      <trkpt lat="47.61802" lon="-2.11231">
        <ele>10</ele>
        <time>2023-11-12T00:49:35Z</time>
      </trkpt>
      <trkpt lat="47.61783" lon="-2.11234">
        <ele>10</ele>
        <time>2023-11-12T00:50:01Z</time>
      </trkpt>
      <trkpt lat="47.61728" lon="-2.1122">
        <ele>10</ele>
        <time>2023-11-12T00:51:15Z</time>
      </trkpt>
      <trkpt lat="47.61672" lon="-2.11225">
        <ele>10</ele>
        <time>2023-11-12T00:52:30Z</time>
      </trkpt>
      <trkpt lat="47.61636" lon="-2.11222">
        <ele>10</ele>
        <time>2023-11-12T00:53:18Z</time>
      </trkpt>
      <trkpt lat="47.6158" lon="-2.11226">
        <ele>10</ele>
        <time>2023-11-12T00:54:33Z</time>
      </trkpt>
      <trkpt lat="47.61561" lon="-2.11223">
        <ele>10</ele>
        <time>2023-11-12T00:54:58Z</time>
      </trkpt>
      <trkpt lat="47.61543" lon="-2.11213">
        <ele>9</ele>
        <time>2023-11-12T00:55:24Z</time>
      </trkpt>
      <trkpt lat="47.61525" lon="-2.11213">
        <ele>9</ele>
        <time>2023-11-12T00:55:48Z</time>
      </trkpt>
      <trkpt lat="47.6151" lon="-2.11198">
        <ele>8</ele>
        <time>2023-11-12T00:56:12Z</time>
      </trkpt>
      <trkpt lat="47.61493" lon="-2.11189">
        <ele>8</ele>
        <time>2023-11-12T00:56:36Z</time>
      </trkpt>
      <trkpt lat="47.61475" lon="-2.11198">
        <ele>8</ele>
        <time>2023-11-12T00:57:02Z</time>
      </trkpt>
      <trkpt lat="47.61368" lon="-2.11232">
        <ele>9</ele>
        <time>2023-11-12T00:59:28Z</time>
      </trkpt>
      <trkpt lat="47.61352" lon="-2.11246">
        <ele>9</ele>
        <time>2023-11-12T00:59:53Z</time>
      </trkpt>
      <trkpt lat="47.61276" lon="-2.11325">
        <ele>11</ele>
        <time>2023-11-12T01:01:56Z</time>
      </trkpt>
      <trkpt lat="47.61257" lon="-2.11325">
        <ele>11</ele>
        <time>2023-11-12T01:02:22Z</time>
      </trkpt>
      <trkpt lat="47.61222" lon="-2.11306">
        <ele>10</ele>
        <time>2023-11-12T01:03:11Z</time>
      </trkpt>
      <trkpt lat="47.61203" lon="-2.11303">
        <ele>10</ele>
        <time>2023-11-12T01:03:37Z</time>
      </trkpt>
      <trkpt lat="47.61185" lon="-2.11295">
        <ele>10</ele>
        <time>2023-11-12T01:04:02Z</time>
      </trkpt>
      <trkpt lat="47.61166" lon="-2.11291">
        <ele>10</ele>
        <time>2023-11-12T01:04:28Z</time>
      </trkpt>
      <trkpt lat="47.6111" lon="-2.11287">
        <ele>9</ele>
        <time>2023-11-12T01:05:42Z</time>
      </trkpt>
      <trkpt lat="47.61097" lon="-2.11307">
        <ele>9</ele>
        <time>2023-11-12T01:06:07Z</time>
      </trkpt>
      <trkpt lat="47.61079" lon="-2.11385">
        <ele>10</ele>
        <time>2023-11-12T01:07:22Z</time>
      </trkpt>
      <trkpt lat="47.61064" lon="-2.114">
        <ele>11</ele>
        <time>2023-11-12T01:07:46Z</time>
      </trkpt>
      <trkpt lat="47.61046" lon="-2.11396">
        <ele>11</ele>
        <time>2023-11-12T01:08:10Z</time>
      </trkpt>
      <trkpt lat="47.61047" lon="-2.11369">
        <ele>11</ele>
        <time>2023-11-12T01:08:34Z</time>
      </trkpt>
      <trkpt lat="47.61022" lon="-2.11328">
        <ele>10</ele>
        <time>2023-11-12T01:09:24Z</time>
      </trkpt>
      <trkpt lat="47.61008" lon="-2.11276">
        <ele>10</ele>
        <time>2023-11-12T01:10:14Z</time>
      </trkpt>
      <trkpt lat="47.60993" lon="-2.11262">
        <ele>10</ele>
        <time>2023-11-12T01:10:38Z</time>
      </trkpt>
      <trkpt lat="47.60966" lon="-2.11299">
        <ele>11</ele>
        <time>2023-11-12T01:11:27Z</time>
      </trkpt>
      <trkpt lat="47.60921" lon="-2.11349">
        <ele>14</ele>
        <time>2023-11-12T01:12:42Z</time>
      </trkpt>
      <trkpt lat="47.60904" lon="-2.11361">
        <ele>15</ele>
        <time>2023-11-12T01:13:07Z</time>
      </trkpt>
      <trkpt lat="47.60869" lon="-2.1138">
        <ele>17</ele>
        <time>2023-11-12T01:13:57Z</time>
      </trkpt>
      <trkpt lat="47.60833" lon="-2.11395">
        <ele>19</ele>
        <time>2023-11-12T01:14:47Z</time>
      </trkpt>
      <trkpt lat="47.60799" lon="-2.11418">
        <ele>21</ele>
        <time>2023-11-12T01:15:37Z</time>
      </trkpt>
      <trkpt lat="47.6077" lon="-2.1145">
        <ele>24</ele>
        <time>2023-11-12T01:16:25Z</time>
      </trkpt>
      <trkpt lat="47.60744" lon="-2.11488">
        <ele>29</ele>
        <time>2023-11-12T01:17:14Z</time>
      </trkpt>
      <trkpt lat="47.60728" lon="-2.11503">
        <ele>31</ele>
        <time>2023-11-12T01:17:39Z</time>
      </trkpt>
      <trkpt lat="47.60713" lon="-2.1149">
        <ele>31</ele>
        <time>2023-11-12T01:18:02Z</time>
      </trkpt>
      <trkpt lat="47.60674" lon="-2.11365">
        <ele>27</ele>
        <time>2023-11-12T01:20:06Z</time>
      </trkpt>
      <trkpt lat="47.60668" lon="-2.11339">
        <ele>26</ele>
        <time>2023-11-12T01:20:31Z</time>
      </trkpt>
      <trkpt lat="47.60642" lon="-2.11266">
        <ele>24</ele>
        <time>2023-11-12T01:21:45Z</time>
      </trkpt>
      <trkpt lat="47.60621" lon="-2.11218">
        <ele>21</ele>
        <time>2023-11-12T01:22:37Z</time>
      </trkpt>
      <trkpt lat="47.60597" lon="-2.11177">
        <ele>18</ele>
        <time>2023-11-12T01:23:26Z</time>
      </trkpt>
      <trkpt lat="47.60575" lon="-2.11132">
        <ele>16</ele>
        <time>2023-11-12T01:24:16Z</time>
      </trkpt>
      <trkpt lat="47.60559" lon="-2.11082">
        <ele>14</ele>
        <time>2023-11-12T01:25:05Z</time>
      </trkpt>
      <trkpt lat="47.60512" lon="-2.10996">
        <ele>13</ele>
        <time>2023-11-12T01:26:45Z</time>
      </trkpt>
      <trkpt lat="47.60468" lon="-2.10944">
        <ele>12</ele>
        <time>2023-11-12T01:28:00Z</time>
      </trkpt>
      <trkpt lat="47.60435" lon="-2.10915">
        <ele>11</ele>
        <time>2023-11-12T01:28:51Z</time>
      </trkpt>
      <trkpt lat="47.60392" lon="-2.10863">
        <ele>12</ele>
        <time>2023-11-12T01:30:05Z</time>
      </trkpt>
      <trkpt lat="47.60375" lon="-2.10849">
        <ele>13</ele>
        <time>2023-11-12T01:30:31Z</time>
      </trkpt>
      <trkpt lat="47.60338" lon="-2.10852">
        <ele>17</ele>
        <time>2023-11-12T01:31:21Z</time>
      </trkpt>
      <trkpt lat="47.60285" lon="-2.1083">
        <ele>24</ele>
        <time>2023-11-12T01:32:34Z</time>
      </trkpt>
      <trkpt lat="47.60202" lon="-2.10769">
        <ele>26</ele>
        <time>2023-11-12T01:34:38Z</time>
      </trkpt>
      <trkpt lat="47.6017" lon="-2.10741">
        <ele>25</ele>
        <time>2023-11-12T01:35:27Z</time>
      </trkpt>
      <trkpt lat="47.60153" lon="-2.1073">
        <ele>24</ele>
        <time>2023-11-12T01:35:52Z</time>
      </trkpt>
      <trkpt lat="47.60135" lon="-2.10723">
        <ele>23</ele>
        <time>2023-11-12T01:36:17Z</time>
      </trkpt>
      <trkpt lat="47.60103" lon="-2.10658">
        <ele>19</ele>
        <time>2023-11-12T01:37:29Z</time>
      </trkpt>
      <trkpt lat="47.60077" lon="-2.10619">
        <ele>17</ele>
        <time>2023-11-12T01:38:19Z</time>
      </trkpt>
      <trkpt lat="47.60049" lon="-2.10585">
        <ele>15</ele>
        <time>2023-11-12T01:39:07Z</time>
      </trkpt>
      <trkpt lat="47.59988" lon="-2.10523">
        <ele>14</ele>
        <time>2023-11-12T01:40:46Z</time>
      </trkpt>
      <trkpt lat="47.59975" lon="-2.10504">
        <ele>14</ele>
        <time>2023-11-12T01:41:10Z</time>
      </trkpt>
      <trkpt lat="47.59955" lon="-2.10398">
        <ele>11</ele>
        <time>2023-11-12T01:42:49Z</time>
      </trkpt>
      <trkpt lat="47.59955" lon="-2.10371">
        <ele>11</ele>
        <time>2023-11-12T01:43:13Z</time>
      </trkpt>
      <trkpt lat="47.59964" lon="-2.10317">
        <ele>10</ele>
        <time>2023-11-12T01:44:03Z</time>
      </trkpt>
      <trkpt lat="47.59964" lon="-2.10289">
        <ele>10</ele>
        <time>2023-11-12T01:44:29Z</time>
      </trkpt>
      <trkpt lat="47.59975" lon="-2.10208">
        <ele>7</ele>
        <time>2023-11-12T01:45:43Z</time>
      </trkpt>
      <trkpt lat="47.59968" lon="-2.10183">
        <ele>8</ele>
        <time>2023-11-12T01:46:07Z</time>
      </trkpt>
      <trkpt lat="47.59963" lon="-2.10127">
        <ele>7</ele>
        <time>2023-11-12T01:46:58Z</time>
      </trkpt>
      <trkpt lat="47.59954" lon="-2.10102">
        <ele>7</ele>
        <time>2023-11-12T01:47:24Z</time>
      </trkpt>
      <trkpt lat="47.5995" lon="-2.10076">
        <ele>7</ele>
        <time>2023-11-12T01:47:48Z</time>
      </trkpt>
      <trkpt lat="47.59949" lon="-2.1002">
        <ele>9</ele>
        <time>2023-11-12T01:48:38Z</time>
      </trkpt>
      <trkpt lat="47.59959" lon="-2.09967">
        <ele>10</ele>
        <time>2023-11-12T01:49:28Z</time>
      </trkpt>
      <trkpt lat="47.59958" lon="-2.0994">
        <ele>11</ele>
        <time>2023-11-12T01:49:52Z</time>
      </trkpt>
      <trkpt lat="47.59961" lon="-2.09912">
        <ele>11</ele>
        <time>2023-11-12T01:50:17Z</time>
      </trkpt>
      <trkpt lat="47.59956" lon="-2.09858">
        <ele>9</ele>
        <time>2023-11-12T01:51:06Z</time>
      </trkpt>
      <trkpt lat="47.59939" lon="-2.09778">
        <ele>6</ele>
        <time>2023-11-12T01:52:22Z</time>
      </trkpt>
      <trkpt lat="47.59923" lon="-2.09766">
        <ele>6</ele>
        <time>2023-11-12T01:52:46Z</time>
      </trkpt>
      <trkpt lat="47.59905" lon="-2.09769">
        <ele>6</ele>
        <time>2023-11-12T01:53:10Z</time>
      </trkpt>
      <trkpt lat="47.59889" lon="-2.09783">
        <ele>7</ele>
        <time>2023-11-12T01:53:35Z</time>
      </trkpt>
      <trkpt lat="47.59879" lon="-2.09806">
        <ele>8</ele>
        <time>2023-11-12T01:53:59Z</time>
      </trkpt>
      <trkpt lat="47.59853" lon="-2.09847">
        <ele>9</ele>
        <time>2023-11-12T01:54:50Z</time>
      </trkpt>
    </trkseg>
  </trk>
  <trk>
    <name><![CDATA[Rieux_ValDeVilaine_22.7km-10496627]]></name>
    <extensions>
      <line xmlns="http://www.topografix.com/GPX/gpx_style/0/2">
        <color>00FF00</color>
        <width>7</width>
      </line>
    </extensions>
    <trkseg>
      <trkpt lat="47.59787" lon="-2.10686">
        <ele>23</ele>
        <time>2023-11-11T19:08:23Z</time>
      </trkpt>
      <trkpt lat="47.59806" lon="-2.10612">
        <ele>23</ele>
        <time>2023-11-11T19:09:34Z</time>
      </trkpt>
      <trkpt lat="47.59812" lon="-2.10521">
        <ele>20</ele>
        <time>2023-11-11T19:10:57Z</time>
      </trkpt>
      <trkpt lat="47.59839" lon="-2.10444">
        <ele>19</ele>
        <time>2023-11-11T19:12:15Z</time>
      </trkpt>
      <trkpt lat="47.59853" lon="-2.10376">
        <ele>18</ele>
        <time>2023-11-11T19:13:19Z</time>
      </trkpt>
      <trkpt lat="47.59869" lon="-2.10276">
        <ele>17</ele>
        <time>2023-11-11T19:14:51Z</time>
      </trkpt>
      <trkpt lat="47.59831" lon="-2.1028">
        <ele>18</ele>
        <time>2023-11-11T19:15:42Z</time>
      </trkpt>
      <trkpt lat="47.59833" lon="-2.10188">
        <ele>15</ele>
        <time>2023-11-11T19:17:05Z</time>
      </trkpt>
      <trkpt lat="47.59823" lon="-2.10063">
        <ele>9</ele>
        <time>2023-11-11T19:18:58Z</time>
      </trkpt>
      <trkpt lat="47.5981" lon="-2.10009">
        <ele>8</ele>
        <time>2023-11-11T19:19:50Z</time>
      </trkpt>
      <trkpt lat="47.59794" lon="-2.10008">
        <ele>7</ele>
        <time>2023-11-11T19:20:11Z</time>
      </trkpt>
      <trkpt lat="47.59795" lon="-2.10011">
        <ele>7</ele>
        <time>2023-11-11T19:20:14Z</time>
      </trkpt>
      <trkpt lat="47.5979" lon="-2.10004">
        <ele>7</ele>
        <time>2023-11-11T19:20:23Z</time>
      </trkpt>
      <trkpt lat="47.59774" lon="-2.10012">
        <ele>6</ele>
        <time>2023-11-11T19:20:46Z</time>
      </trkpt>
      <trkpt lat="47.59767" lon="-2.10026">
        <ele>6</ele>
        <time>2023-11-11T19:21:01Z</time>
      </trkpt>
      <trkpt lat="47.59736" lon="-2.10102">
        <ele>6</ele>
        <time>2023-11-11T19:22:21Z</time>
      </trkpt>
      <trkpt lat="47.59718" lon="-2.10131">
        <ele>6</ele>
        <time>2023-11-11T19:22:57Z</time>
      </trkpt>
      <trkpt lat="47.59707" lon="-2.10166">
        <ele>6</ele>
        <time>2023-11-11T19:23:32Z</time>
      </trkpt>
      <trkpt lat="47.59711" lon="-2.10215">
        <ele>8</ele>
        <time>2023-11-11T19:24:16Z</time>
      </trkpt>
      <trkpt lat="47.59679" lon="-2.10347">
        <ele>7</ele>
        <time>2023-11-11T19:26:22Z</time>
      </trkpt>
      <trkpt lat="47.59705" lon="-2.10406">
        <ele>10</ele>
        <time>2023-11-11T19:27:26Z</time>
      </trkpt>
      <trkpt lat="47.59701" lon="-2.10422">
        <ele>10</ele>
        <time>2023-11-11T19:27:41Z</time>
      </trkpt>
      <trkpt lat="47.5966" lon="-2.10462">
        <ele>9</ele>
        <time>2023-11-11T19:28:46Z</time>
      </trkpt>
      <trkpt lat="47.59542" lon="-2.10428">
        <ele>11</ele>
        <time>2023-11-11T19:31:27Z</time>
      </trkpt>
      <trkpt lat="47.59468" lon="-2.10403">
        <ele>8</ele>
        <time>2023-11-11T19:33:08Z</time>
      </trkpt>
      <trkpt lat="47.59417" lon="-2.1042">
        <ele>6</ele>
        <time>2023-11-11T19:34:18Z</time>
      </trkpt>
      <trkpt lat="47.59406" lon="-2.10415">
        <ele>6</ele>
        <time>2023-11-11T19:34:33Z</time>
      </trkpt>
      <trkpt lat="47.59401" lon="-2.10389">
        <ele>5</ele>
        <time>2023-11-11T19:34:58Z</time>
      </trkpt>
      <trkpt lat="47.59263" lon="-2.10431">
        <ele>3</ele>
        <time>2023-11-11T19:38:06Z</time>
      </trkpt>
      <trkpt lat="47.59151" lon="-2.10446">
        <ele>2</ele>
        <time>2023-11-11T19:40:36Z</time>
      </trkpt>
      <trkpt lat="47.59042" lon="-2.10473">
        <ele>3</ele>
        <time>2023-11-11T19:43:03Z</time>
      </trkpt>
      <trkpt lat="47.59004" lon="-2.10478">
        <ele>3</ele>
        <time>2023-11-11T19:43:54Z</time>
      </trkpt>
      <trkpt lat="47.58922" lon="-2.10454">
        <ele>3</ele>
        <time>2023-11-11T19:45:46Z</time>
      </trkpt>
      <trkpt lat="47.58723" lon="-2.10358">
        <ele>4</ele>
        <time>2023-11-11T19:50:25Z</time>
      </trkpt>
      <trkpt lat="47.58656" lon="-2.10333">
        <ele>2</ele>
        <time>2023-11-11T19:51:57Z</time>
      </trkpt>
      <trkpt lat="47.58646" lon="-2.10357">
        <ele>2</ele>
        <time>2023-11-11T19:52:22Z</time>
      </trkpt>
      <trkpt lat="47.58542" lon="-2.10815">
        <ele>3</ele>
        <time>2023-11-11T19:59:37Z</time>
      </trkpt>
      <trkpt lat="47.58554" lon="-2.10963">
        <ele>4</ele>
        <time>2023-11-11T20:01:52Z</time>
      </trkpt>
      <trkpt lat="47.5855" lon="-2.10992">
        <ele>4</ele>
        <time>2023-11-11T20:02:18Z</time>
      </trkpt>
      <trkpt lat="47.58554" lon="-2.11016">
        <ele>4</ele>
        <time>2023-11-11T20:02:40Z</time>
      </trkpt>
      <trkpt lat="47.58567" lon="-2.11043">
        <ele>5</ele>
        <time>2023-11-11T20:03:10Z</time>
      </trkpt>
      <trkpt lat="47.58595" lon="-2.11045">
        <ele>6</ele>
        <time>2023-11-11T20:03:48Z</time>
      </trkpt>
      <trkpt lat="47.58654" lon="-2.11035">
        <ele>8</ele>
        <time>2023-11-11T20:05:07Z</time>
      </trkpt>
      <trkpt lat="47.5866" lon="-2.11037">
        <ele>9</ele>
        <time>2023-11-11T20:05:15Z</time>
      </trkpt>
      <trkpt lat="47.58671" lon="-2.11054">
        <ele>9</ele>
        <time>2023-11-11T20:05:36Z</time>
      </trkpt>
      <trkpt lat="47.58719" lon="-2.11446">
        <ele>6</ele>
        <time>2023-11-11T20:11:35Z</time>
      </trkpt>
      <trkpt lat="47.58738" lon="-2.11542">
        <ele>6</ele>
        <time>2023-11-11T20:13:05Z</time>
      </trkpt>
      <trkpt lat="47.58757" lon="-2.11558">
        <ele>7</ele>
        <time>2023-11-11T20:13:34Z</time>
      </trkpt>
      <trkpt lat="47.58773" lon="-2.11561">
        <ele>8</ele>
        <time>2023-11-11T20:13:56Z</time>
      </trkpt>
      <trkpt lat="47.58843" lon="-2.11554">
        <ele>12</ele>
        <time>2023-11-11T20:15:29Z</time>
      </trkpt>
      <trkpt lat="47.58855" lon="-2.11572">
        <ele>13</ele>
        <time>2023-11-11T20:15:52Z</time>
      </trkpt>
      <trkpt lat="47.58887" lon="-2.11847">
        <ele>7</ele>
        <time>2023-11-11T20:20:03Z</time>
      </trkpt>
      <trkpt lat="47.58904" lon="-2.11975">
        <ele>5</ele>
        <time>2023-11-11T20:22:01Z</time>
      </trkpt>
      <trkpt lat="47.58908" lon="-2.11986">
        <ele>5</ele>
        <time>2023-11-11T20:22:12Z</time>
      </trkpt>
      <trkpt lat="47.58902" lon="-2.11993">
        <ele>5</ele>
        <time>2023-11-11T20:22:22Z</time>
      </trkpt>
      <trkpt lat="47.58926" lon="-2.12003">
        <ele>5</ele>
        <time>2023-11-11T20:22:55Z</time>
      </trkpt>
      <trkpt lat="47.58946" lon="-2.12001">
        <ele>5</ele>
        <time>2023-11-11T20:23:22Z</time>
      </trkpt>
      <trkpt lat="47.58955" lon="-2.12011">
        <ele>5</ele>
        <time>2023-11-11T20:23:37Z</time>
      </trkpt>
      <trkpt lat="47.58946" lon="-2.12045">
        <ele>4</ele>
        <time>2023-11-11T20:24:10Z</time>
      </trkpt>
      <trkpt lat="47.58915" lon="-2.12119">
        <ele>3</ele>
        <time>2023-11-11T20:25:28Z</time>
      </trkpt>
      <trkpt lat="47.58902" lon="-2.12185">
        <ele>4</ele>
        <time>2023-11-11T20:26:30Z</time>
      </trkpt>
      <trkpt lat="47.58918" lon="-2.12265">
        <ele>5</ele>
        <time>2023-11-11T20:27:45Z</time>
      </trkpt>
      <trkpt lat="47.58971" lon="-2.12461">
        <ele>4</ele>
        <time>2023-11-11T20:30:55Z</time>
      </trkpt>
      <trkpt lat="47.58974" lon="-2.12527">
        <ele>4</ele>
        <time>2023-11-11T20:31:55Z</time>
      </trkpt>
      <trkpt lat="47.58982" lon="-2.12573">
        <ele>4</ele>
        <time>2023-11-11T20:32:38Z</time>
      </trkpt>
      <trkpt lat="47.58972" lon="-2.12598">
        <ele>4</ele>
        <time>2023-11-11T20:33:04Z</time>
      </trkpt>
      <trkpt lat="47.58977" lon="-2.12687">
        <ele>4</ele>
        <time>2023-11-11T20:34:24Z</time>
      </trkpt>
      <trkpt lat="47.58973" lon="-2.12742">
        <ele>3</ele>
        <time>2023-11-11T20:35:14Z</time>
      </trkpt>
      <trkpt lat="47.58977" lon="-2.12778">
        <ele>3</ele>
        <time>2023-11-11T20:35:47Z</time>
      </trkpt>
      <trkpt lat="47.58994" lon="-2.12842">
        <ele>4</ele>
        <time>2023-11-11T20:36:49Z</time>
      </trkpt>
      <trkpt lat="47.59022" lon="-2.12892">
        <ele>5</ele>
        <time>2023-11-11T20:37:47Z</time>
      </trkpt>
      <trkpt lat="47.59031" lon="-2.12931">
        <ele>6</ele>
        <time>2023-11-11T20:38:24Z</time>
      </trkpt>
      <trkpt lat="47.59021" lon="-2.12973">
        <ele>5</ele>
        <time>2023-11-11T20:39:04Z</time>
      </trkpt>
      <trkpt lat="47.59" lon="-2.13016">
        <ele>4</ele>
        <time>2023-11-11T20:39:52Z</time>
      </trkpt>
      <trkpt lat="47.58986" lon="-2.13058">
        <ele>3</ele>
        <time>2023-11-11T20:40:34Z</time>
      </trkpt>
      <trkpt lat="47.58981" lon="-2.13086">
        <ele>3</ele>
        <time>2023-11-11T20:41:01Z</time>
      </trkpt>
      <trkpt lat="47.58984" lon="-2.13133">
        <ele>3</ele>
        <time>2023-11-11T20:41:43Z</time>
      </trkpt>
      <trkpt lat="47.59014" lon="-2.13218">
        <ele>6</ele>
        <time>2023-11-11T20:43:09Z</time>
      </trkpt>
      <trkpt lat="47.59036" lon="-2.13246">
        <ele>8</ele>
        <time>2023-11-11T20:43:48Z</time>
      </trkpt>
      <trkpt lat="47.59047" lon="-2.13251">
        <ele>8</ele>
        <time>2023-11-11T20:44:03Z</time>
      </trkpt>
      <trkpt lat="47.59055" lon="-2.13315">
        <ele>11</ele>
        <time>2023-11-11T20:45:02Z</time>
      </trkpt>
      <trkpt lat="47.59067" lon="-2.13332">
        <ele>12</ele>
        <time>2023-11-11T20:45:24Z</time>
      </trkpt>
      <trkpt lat="47.59074" lon="-2.13335">
        <ele>13</ele>
        <time>2023-11-11T20:45:34Z</time>
      </trkpt>
      <trkpt lat="47.59075" lon="-2.1333">
        <ele>13</ele>
        <time>2023-11-11T20:45:39Z</time>
      </trkpt>
      <trkpt lat="47.59084" lon="-2.13352">
        <ele>15</ele>
        <time>2023-11-11T20:46:02Z</time>
      </trkpt>
      <trkpt lat="47.59096" lon="-2.13361">
        <ele>16</ele>
        <time>2023-11-11T20:46:20Z</time>
      </trkpt>
      <trkpt lat="47.59082" lon="-2.13406">
        <ele>17</ele>
        <time>2023-11-11T20:47:04Z</time>
      </trkpt>
      <trkpt lat="47.59075" lon="-2.13445">
        <ele>19</ele>
        <time>2023-11-11T20:47:41Z</time>
      </trkpt>
      <trkpt lat="47.59099" lon="-2.13555">
        <ele>23</ele>
        <time>2023-11-11T20:49:25Z</time>
      </trkpt>
      <trkpt lat="47.59108" lon="-2.13621">
        <ele>24</ele>
        <time>2023-11-11T20:50:25Z</time>
      </trkpt>
      <trkpt lat="47.59123" lon="-2.13623">
        <ele>24</ele>
        <time>2023-11-11T20:50:45Z</time>
      </trkpt>
      <trkpt lat="47.59188" lon="-2.13603">
        <ele>25</ele>
        <time>2023-11-11T20:52:14Z</time>
      </trkpt>
      <trkpt lat="47.5925" lon="-2.13556">
        <ele>24</ele>
        <time>2023-11-11T20:53:47Z</time>
      </trkpt>
      <trkpt lat="47.59345" lon="-2.13534">
        <ele>23</ele>
        <time>2023-11-11T20:55:55Z</time>
      </trkpt>
      <trkpt lat="47.59387" lon="-2.13501">
        <ele>23</ele>
        <time>2023-11-11T20:56:59Z</time>
      </trkpt>
      <trkpt lat="47.59417" lon="-2.13467">
        <ele>23</ele>
        <time>2023-11-11T20:57:49Z</time>
      </trkpt>
      <trkpt lat="47.59456" lon="-2.13435">
        <ele>25</ele>
        <time>2023-11-11T20:58:48Z</time>
      </trkpt>
      <trkpt lat="47.59506" lon="-2.1353">
        <ele>24</ele>
        <time>2023-11-11T21:00:37Z</time>
      </trkpt>
      <trkpt lat="47.59536" lon="-2.13569">
        <ele>24</ele>
        <time>2023-11-11T21:01:30Z</time>
      </trkpt>
      <trkpt lat="47.59571" lon="-2.13599">
        <ele>25</ele>
        <time>2023-11-11T21:02:24Z</time>
      </trkpt>
      <trkpt lat="47.59581" lon="-2.13621">
        <ele>25</ele>
        <time>2023-11-11T21:02:48Z</time>
      </trkpt>
      <trkpt lat="47.59586" lon="-2.13647">
        <ele>25</ele>
        <time>2023-11-11T21:03:12Z</time>
      </trkpt>
      <trkpt lat="47.59596" lon="-2.13661">
        <ele>25</ele>
        <time>2023-11-11T21:03:31Z</time>
      </trkpt>
      <trkpt lat="47.59623" lon="-2.13657">
        <ele>24</ele>
        <time>2023-11-11T21:04:07Z</time>
      </trkpt>
      <trkpt lat="47.59678" lon="-2.13662">
        <ele>23</ele>
        <time>2023-11-11T21:05:20Z</time>
      </trkpt>
      <trkpt lat="47.59791" lon="-2.13633">
        <ele>20</ele>
        <time>2023-11-11T21:07:53Z</time>
      </trkpt>
      <trkpt lat="47.59803" lon="-2.13641">
        <ele>19</ele>
        <time>2023-11-11T21:08:11Z</time>
      </trkpt>
      <trkpt lat="47.59812" lon="-2.13663">
        <ele>18</ele>
        <time>2023-11-11T21:08:34Z</time>
      </trkpt>
      <trkpt lat="47.59813" lon="-2.13695">
        <ele>19</ele>
        <time>2023-11-11T21:09:03Z</time>
      </trkpt>
      <trkpt lat="47.59819" lon="-2.13718">
        <ele>20</ele>
        <time>2023-11-11T21:09:25Z</time>
      </trkpt>
      <trkpt lat="47.59818" lon="-2.13724">
        <ele>20</ele>
        <time>2023-11-11T21:09:31Z</time>
      </trkpt>
      <trkpt lat="47.59792" lon="-2.13743">
        <ele>20</ele>
        <time>2023-11-11T21:10:09Z</time>
      </trkpt>
      <trkpt lat="47.59827" lon="-2.13743">
        <ele>21</ele>
        <time>2023-11-11T21:10:56Z</time>
      </trkpt>
      <trkpt lat="47.59831" lon="-2.13776">
        <ele>23</ele>
        <time>2023-11-11T21:11:26Z</time>
      </trkpt>
      <trkpt lat="47.59823" lon="-2.13921">
        <ele>22</ele>
        <time>2023-11-11T21:13:37Z</time>
      </trkpt>
      <trkpt lat="47.59826" lon="-2.1397">
        <ele>20</ele>
        <time>2023-11-11T21:14:21Z</time>
      </trkpt>
      <trkpt lat="47.5984" lon="-2.14031">
        <ele>20</ele>
        <time>2023-11-11T21:15:19Z</time>
      </trkpt>
      <trkpt lat="47.59848" lon="-2.14048">
        <ele>20</ele>
        <time>2023-11-11T21:15:38Z</time>
      </trkpt>
      <trkpt lat="47.59862" lon="-2.14059">
        <ele>21</ele>
        <time>2023-11-11T21:15:59Z</time>
      </trkpt>
      <trkpt lat="47.59886" lon="-2.14043">
        <ele>22</ele>
        <time>2023-11-11T21:16:34Z</time>
      </trkpt>
      <trkpt lat="47.59927" lon="-2.14">
        <ele>23</ele>
        <time>2023-11-11T21:17:41Z</time>
      </trkpt>
      <trkpt lat="47.59959" lon="-2.13986">
        <ele>25</ele>
        <time>2023-11-11T21:18:26Z</time>
      </trkpt>
      <trkpt lat="47.60004" lon="-2.13952">
        <ele>27</ele>
        <time>2023-11-11T21:19:33Z</time>
      </trkpt>
      <trkpt lat="47.60026" lon="-2.13947">
        <ele>27</ele>
        <time>2023-11-11T21:20:03Z</time>
      </trkpt>
      <trkpt lat="47.60035" lon="-2.13924">
        <ele>28</ele>
        <time>2023-11-11T21:20:27Z</time>
      </trkpt>
      <trkpt lat="47.60057" lon="-2.13805">
        <ele>29</ele>
        <time>2023-11-11T21:22:18Z</time>
      </trkpt>
      <trkpt lat="47.60144" lon="-2.13795">
        <ele>36</ele>
        <time>2023-11-11T21:24:14Z</time>
      </trkpt>
      <trkpt lat="47.60156" lon="-2.13807">
        <ele>38</ele>
        <time>2023-11-11T21:24:34Z</time>
      </trkpt>
      <trkpt lat="47.60159" lon="-2.13835">
        <ele>39</ele>
        <time>2023-11-11T21:24:59Z</time>
      </trkpt>
      <trkpt lat="47.60152" lon="-2.13931">
        <ele>36</ele>
        <time>2023-11-11T21:26:26Z</time>
      </trkpt>
      <trkpt lat="47.60127" lon="-2.14029">
        <ele>34</ele>
        <time>2023-11-11T21:28:00Z</time>
      </trkpt>
      <trkpt lat="47.60088" lon="-2.14139">
        <ele>33</ele>
        <time>2023-11-11T21:29:52Z</time>
      </trkpt>
      <trkpt lat="47.60088" lon="-2.1416">
        <ele>34</ele>
        <time>2023-11-11T21:30:11Z</time>
      </trkpt>
      <trkpt lat="47.60098" lon="-2.14274">
        <ele>39</ele>
        <time>2023-11-11T21:31:55Z</time>
      </trkpt>
      <trkpt lat="47.60105" lon="-2.1429">
        <ele>40</ele>
        <time>2023-11-11T21:32:12Z</time>
      </trkpt>
      <trkpt lat="47.60111" lon="-2.14403">
        <ele>45</ele>
        <time>2023-11-11T21:33:54Z</time>
      </trkpt>
      <trkpt lat="47.60147" lon="-2.14434">
        <ele>50</ele>
        <time>2023-11-11T21:34:49Z</time>
      </trkpt>
      <trkpt lat="47.60156" lon="-2.1445">
        <ele>51</ele>
        <time>2023-11-11T21:35:08Z</time>
      </trkpt>
      <trkpt lat="47.60161" lon="-2.14492">
        <ele>54</ele>
        <time>2023-11-11T21:35:46Z</time>
      </trkpt>
      <trkpt lat="47.60151" lon="-2.1455">
        <ele>54</ele>
        <time>2023-11-11T21:36:40Z</time>
      </trkpt>
      <trkpt lat="47.60134" lon="-2.146">
        <ele>53</ele>
        <time>2023-11-11T21:37:31Z</time>
      </trkpt>
      <trkpt lat="47.60122" lon="-2.14668">
        <ele>51</ele>
        <time>2023-11-11T21:38:34Z</time>
      </trkpt>
      <trkpt lat="47.60127" lon="-2.14765">
        <ele>51</ele>
        <time>2023-11-11T21:40:01Z</time>
      </trkpt>
      <trkpt lat="47.60115" lon="-2.14827">
        <ele>52</ele>
        <time>2023-11-11T21:40:59Z</time>
      </trkpt>
      <trkpt lat="47.60115" lon="-2.14941">
        <ele>55</ele>
        <time>2023-11-11T21:42:42Z</time>
      </trkpt>
      <trkpt lat="47.60102" lon="-2.14996">
        <ele>57</ele>
        <time>2023-11-11T21:43:34Z</time>
      </trkpt>
      <trkpt lat="47.60099" lon="-2.1504">
        <ele>59</ele>
        <time>2023-11-11T21:44:14Z</time>
      </trkpt>
      <trkpt lat="47.60059" lon="-2.15185">
        <ele>56</ele>
        <time>2023-11-11T21:46:35Z</time>
      </trkpt>
      <trkpt lat="47.60038" lon="-2.15219">
        <ele>53</ele>
        <time>2023-11-11T21:47:17Z</time>
      </trkpt>
      <trkpt lat="47.60035" lon="-2.15257">
        <ele>51</ele>
        <time>2023-11-11T21:47:51Z</time>
      </trkpt>
      <trkpt lat="47.60049" lon="-2.15325">
        <ele>46</ele>
        <time>2023-11-11T21:48:55Z</time>
      </trkpt>
      <trkpt lat="47.60043" lon="-2.15328">
        <ele>45</ele>
        <time>2023-11-11T21:49:04Z</time>
      </trkpt>
      <trkpt lat="47.60082" lon="-2.15428">
        <ele>41</ele>
        <time>2023-11-11T21:50:48Z</time>
      </trkpt>
      <trkpt lat="47.60087" lon="-2.15437">
        <ele>41</ele>
        <time>2023-11-11T21:50:58Z</time>
      </trkpt>
      <trkpt lat="47.60104" lon="-2.15439">
        <ele>43</ele>
        <time>2023-11-11T21:51:21Z</time>
      </trkpt>
      <trkpt lat="47.6011" lon="-2.15449">
        <ele>43</ele>
        <time>2023-11-11T21:51:33Z</time>
      </trkpt>
      <trkpt lat="47.60114" lon="-2.15491">
        <ele>40</ele>
        <time>2023-11-11T21:52:11Z</time>
      </trkpt>
      <trkpt lat="47.60103" lon="-2.15571">
        <ele>32</ele>
        <time>2023-11-11T21:53:24Z</time>
      </trkpt>
      <trkpt lat="47.60092" lon="-2.15621">
        <ele>28</ele>
        <time>2023-11-11T21:54:12Z</time>
      </trkpt>
      <trkpt lat="47.60098" lon="-2.15642">
        <ele>27</ele>
        <time>2023-11-11T21:54:32Z</time>
      </trkpt>
      <trkpt lat="47.60089" lon="-2.15693">
        <ele>23</ele>
        <time>2023-11-11T21:55:20Z</time>
      </trkpt>
      <trkpt lat="47.60153" lon="-2.15707">
        <ele>22</ele>
        <time>2023-11-11T21:56:46Z</time>
      </trkpt>
      <trkpt lat="47.60216" lon="-2.15709">
        <ele>21</ele>
        <time>2023-11-11T21:58:10Z</time>
      </trkpt>
      <trkpt lat="47.60303" lon="-2.15631">
        <ele>25</ele>
        <time>2023-11-11T22:00:26Z</time>
      </trkpt>
      <trkpt lat="47.60284" lon="-2.15653">
        <ele>24</ele>
        <time>2023-11-11T22:00:58Z</time>
      </trkpt>
      <trkpt lat="47.60275" lon="-2.15656">
        <ele>23</ele>
        <time>2023-11-11T22:01:10Z</time>
      </trkpt>
      <trkpt lat="47.60216" lon="-2.15703">
        <ele>21</ele>
        <time>2023-11-11T22:02:40Z</time>
      </trkpt>
      <trkpt lat="47.60191" lon="-2.15708">
        <ele>22</ele>
        <time>2023-11-11T22:03:13Z</time>
      </trkpt>
      <trkpt lat="47.60185" lon="-2.15721">
        <ele>21</ele>
        <time>2023-11-11T22:03:28Z</time>
      </trkpt>
      <trkpt lat="47.60182" lon="-2.15712">
        <ele>21</ele>
        <time>2023-11-11T22:03:37Z</time>
      </trkpt>
      <trkpt lat="47.60188" lon="-2.15803">
        <ele>18</ele>
        <time>2023-11-11T22:04:59Z</time>
      </trkpt>
      <trkpt lat="47.60285" lon="-2.15809">
        <ele>19</ele>
        <time>2023-11-11T22:07:08Z</time>
      </trkpt>
      <trkpt lat="47.6034" lon="-2.15845">
        <ele>19</ele>
        <time>2023-11-11T22:08:29Z</time>
      </trkpt>
      <trkpt lat="47.60375" lon="-2.15849">
        <ele>19</ele>
        <time>2023-11-11T22:09:15Z</time>
      </trkpt>
      <trkpt lat="47.60429" lon="-2.15841">
        <ele>20</ele>
        <time>2023-11-11T22:10:28Z</time>
      </trkpt>
      <trkpt lat="47.60598" lon="-2.15837">
        <ele>24</ele>
        <time>2023-11-11T22:14:13Z</time>
      </trkpt>
      <trkpt lat="47.60648" lon="-2.15831">
        <ele>27</ele>
        <time>2023-11-11T22:15:20Z</time>
      </trkpt>
      <trkpt lat="47.60693" lon="-2.15817">
        <ele>30</ele>
        <time>2023-11-11T22:16:22Z</time>
      </trkpt>
      <trkpt lat="47.60749" lon="-2.15828">
        <ele>34</ele>
        <time>2023-11-11T22:17:37Z</time>
      </trkpt>
      <trkpt lat="47.60777" lon="-2.15817">
        <ele>34</ele>
        <time>2023-11-11T22:18:16Z</time>
      </trkpt>
      <trkpt lat="47.60785" lon="-2.1582">
        <ele>34</ele>
        <time>2023-11-11T22:18:27Z</time>
      </trkpt>
      <trkpt lat="47.60825" lon="-2.15797">
        <ele>34</ele>
        <time>2023-11-11T22:19:24Z</time>
      </trkpt>
      <trkpt lat="47.60919" lon="-2.15761">
        <ele>39</ele>
        <time>2023-11-11T22:21:34Z</time>
      </trkpt>
      <trkpt lat="47.60925" lon="-2.1577">
        <ele>40</ele>
        <time>2023-11-11T22:21:45Z</time>
      </trkpt>
      <trkpt lat="47.6094" lon="-2.15775">
        <ele>41</ele>
        <time>2023-11-11T22:22:05Z</time>
      </trkpt>
      <trkpt lat="47.60965" lon="-2.15808">
        <ele>43</ele>
        <time>2023-11-11T22:22:50Z</time>
      </trkpt>
      <trkpt lat="47.60969" lon="-2.15839">
        <ele>44</ele>
        <time>2023-11-11T22:23:19Z</time>
      </trkpt>
      <trkpt lat="47.60968" lon="-2.15856">
        <ele>44</ele>
        <time>2023-11-11T22:23:34Z</time>
      </trkpt>
      <trkpt lat="47.60988" lon="-2.15894">
        <ele>46</ele>
        <time>2023-11-11T22:24:17Z</time>
      </trkpt>
      <trkpt lat="47.60989" lon="-2.15923">
        <ele>47</ele>
        <time>2023-11-11T22:24:43Z</time>
      </trkpt>
      <trkpt lat="47.6098" lon="-2.15958">
        <ele>49</ele>
        <time>2023-11-11T22:25:17Z</time>
      </trkpt>
      <trkpt lat="47.60983" lon="-2.15974">
        <ele>50</ele>
        <time>2023-11-11T22:25:32Z</time>
      </trkpt>
      <trkpt lat="47.6098" lon="-2.1597">
        <ele>49</ele>
        <time>2023-11-11T22:25:37Z</time>
      </trkpt>
      <trkpt lat="47.60978" lon="-2.15977">
        <ele>49</ele>
        <time>2023-11-11T22:25:44Z</time>
      </trkpt>
      <trkpt lat="47.60994" lon="-2.15983">
        <ele>51</ele>
        <time>2023-11-11T22:26:06Z</time>
      </trkpt>
      <trkpt lat="47.60989" lon="-2.15963">
        <ele>49</ele>
        <time>2023-11-11T22:26:25Z</time>
      </trkpt>
      <trkpt lat="47.60975" lon="-2.15948">
        <ele>48</ele>
        <time>2023-11-11T22:26:48Z</time>
      </trkpt>
      <trkpt lat="47.60986" lon="-2.1596">
        <ele>49</ele>
        <time>2023-11-11T22:27:07Z</time>
      </trkpt>
      <trkpt lat="47.60981" lon="-2.15956">
        <ele>48</ele>
        <time>2023-11-11T22:27:14Z</time>
      </trkpt>
      <trkpt lat="47.60984" lon="-2.15969">
        <ele>49</ele>
        <time>2023-11-11T22:27:27Z</time>
      </trkpt>
      <trkpt lat="47.60983" lon="-2.15965">
        <ele>49</ele>
        <time>2023-11-11T22:27:30Z</time>
      </trkpt>
      <trkpt lat="47.6099" lon="-2.1597">
        <ele>50</ele>
        <time>2023-11-11T22:27:41Z</time>
      </trkpt>
      <trkpt lat="47.6099" lon="-2.15964">
        <ele>49</ele>
        <time>2023-11-11T22:27:46Z</time>
      </trkpt>
      <trkpt lat="47.61004" lon="-2.15981">
        <ele>51</ele>
        <time>2023-11-11T22:28:10Z</time>
      </trkpt>
      <trkpt lat="47.61004" lon="-2.15978">
        <ele>51</ele>
        <time>2023-11-11T22:28:13Z</time>
      </trkpt>
      <trkpt lat="47.61008" lon="-2.15979">
        <ele>51</ele>
        <time>2023-11-11T22:28:19Z</time>
      </trkpt>
      <trkpt lat="47.61001" lon="-2.15959">
        <ele>50</ele>
        <time>2023-11-11T22:28:39Z</time>
      </trkpt>
      <trkpt lat="47.60993" lon="-2.1596">
        <ele>49</ele>
        <time>2023-11-11T22:28:50Z</time>
      </trkpt>
      <trkpt lat="47.60994" lon="-2.15965">
        <ele>50</ele>
        <time>2023-11-11T22:28:54Z</time>
      </trkpt>
      <trkpt lat="47.60989" lon="-2.15958">
        <ele>49</ele>
        <time>2023-11-11T22:29:03Z</time>
      </trkpt>
      <trkpt lat="47.60994" lon="-2.15963">
        <ele>49</ele>
        <time>2023-11-11T22:29:11Z</time>
      </trkpt>
      <trkpt lat="47.60999" lon="-2.15935">
        <ele>48</ele>
        <time>2023-11-11T22:29:37Z</time>
      </trkpt>
      <trkpt lat="47.61005" lon="-2.15929">
        <ele>48</ele>
        <time>2023-11-11T22:29:47Z</time>
      </trkpt>
      <trkpt lat="47.60999" lon="-2.15902">
        <ele>47</ele>
        <time>2023-11-11T22:30:13Z</time>
      </trkpt>
      <trkpt lat="47.60992" lon="-2.15902">
        <ele>46</ele>
        <time>2023-11-11T22:30:22Z</time>
      </trkpt>
      <trkpt lat="47.60991" lon="-2.15894">
        <ele>46</ele>
        <time>2023-11-11T22:30:29Z</time>
      </trkpt>
      <trkpt lat="47.60989" lon="-2.15908">
        <ele>46</ele>
        <time>2023-11-11T22:30:42Z</time>
      </trkpt>
      <trkpt lat="47.60996" lon="-2.1593">
        <ele>48</ele>
        <time>2023-11-11T22:31:04Z</time>
      </trkpt>
      <trkpt lat="47.61008" lon="-2.15947">
        <ele>49</ele>
        <time>2023-11-11T22:31:26Z</time>
      </trkpt>
      <trkpt lat="47.61008" lon="-2.15973">
        <ele>50</ele>
        <time>2023-11-11T22:31:50Z</time>
      </trkpt>
      <trkpt lat="47.61" lon="-2.15965">
        <ele>50</ele>
        <time>2023-11-11T22:32:03Z</time>
      </trkpt>
      <trkpt lat="47.61001" lon="-2.15928">
        <ele>48</ele>
        <time>2023-11-11T22:32:36Z</time>
      </trkpt>
      <trkpt lat="47.61005" lon="-2.15978">
        <ele>51</ele>
        <time>2023-11-11T22:33:21Z</time>
      </trkpt>
      <trkpt lat="47.61018" lon="-2.15997">
        <ele>52</ele>
        <time>2023-11-11T22:33:46Z</time>
      </trkpt>
      <trkpt lat="47.60992" lon="-2.15964">
        <ele>49</ele>
        <time>2023-11-11T22:34:31Z</time>
      </trkpt>
      <trkpt lat="47.6098" lon="-2.15998">
        <ele>51</ele>
        <time>2023-11-11T22:35:06Z</time>
      </trkpt>
      <trkpt lat="47.6097" lon="-2.16102">
        <ele>53</ele>
        <time>2023-11-11T22:36:40Z</time>
      </trkpt>
      <trkpt lat="47.60972" lon="-2.16221">
        <ele>53</ele>
        <time>2023-11-11T22:38:27Z</time>
      </trkpt>
      <trkpt lat="47.60954" lon="-2.16326">
        <ele>55</ele>
        <time>2023-11-11T22:40:05Z</time>
      </trkpt>
      <trkpt lat="47.60972" lon="-2.16344">
        <ele>56</ele>
        <time>2023-11-11T22:40:34Z</time>
      </trkpt>
      <trkpt lat="47.61084" lon="-2.16383">
        <ele>64</ele>
        <time>2023-11-11T22:43:07Z</time>
      </trkpt>
      <trkpt lat="47.6112" lon="-2.16385">
        <ele>66</ele>
        <time>2023-11-11T22:43:55Z</time>
      </trkpt>
      <trkpt lat="47.61166" lon="-2.16397">
        <ele>68</ele>
        <time>2023-11-11T22:44:58Z</time>
      </trkpt>
      <trkpt lat="47.61182" lon="-2.16394">
        <ele>70</ele>
        <time>2023-11-11T22:45:19Z</time>
      </trkpt>
      <trkpt lat="47.61197" lon="-2.16399">
        <ele>72</ele>
        <time>2023-11-11T22:45:40Z</time>
      </trkpt>
      <trkpt lat="47.61235" lon="-2.16398">
        <ele>77</ele>
        <time>2023-11-11T22:46:30Z</time>
      </trkpt>
      <trkpt lat="47.61248" lon="-2.16407">
        <ele>79</ele>
        <time>2023-11-11T22:46:50Z</time>
      </trkpt>
      <trkpt lat="47.61273" lon="-2.16407">
        <ele>78</ele>
        <time>2023-11-11T22:47:23Z</time>
      </trkpt>
      <trkpt lat="47.6131" lon="-2.16418">
        <ele>78</ele>
        <time>2023-11-11T22:48:13Z</time>
      </trkpt>
      <trkpt lat="47.61314" lon="-2.16414">
        <ele>77</ele>
        <time>2023-11-11T22:48:20Z</time>
      </trkpt>
      <trkpt lat="47.61296" lon="-2.16241">
        <ele>77</ele>
        <time>2023-11-11T22:50:57Z</time>
      </trkpt>
      <trkpt lat="47.61313" lon="-2.16099">
        <ele>74</ele>
        <time>2023-11-11T22:53:07Z</time>
      </trkpt>
      <trkpt lat="47.61431" lon="-2.16201">
        <ele>79</ele>
        <time>2023-11-11T22:56:09Z</time>
      </trkpt>
      <trkpt lat="47.61496" lon="-2.16269">
        <ele>80</ele>
        <time>2023-11-11T22:57:55Z</time>
      </trkpt>
      <trkpt lat="47.61532" lon="-2.16291">
        <ele>78</ele>
        <time>2023-11-11T22:58:47Z</time>
      </trkpt>
      <trkpt lat="47.61561" lon="-2.16301">
        <ele>76</ele>
        <time>2023-11-11T22:59:27Z</time>
      </trkpt>
      <trkpt lat="47.61566" lon="-2.16294">
        <ele>75</ele>
        <time>2023-11-11T22:59:36Z</time>
      </trkpt>
      <trkpt lat="47.61563" lon="-2.16289">
        <ele>76</ele>
        <time>2023-11-11T22:59:42Z</time>
      </trkpt>
      <trkpt lat="47.61566" lon="-2.16257">
        <ele>75</ele>
        <time>2023-11-11T23:00:11Z</time>
      </trkpt>
      <trkpt lat="47.61598" lon="-2.1607">
        <ele>75</ele>
        <time>2023-11-11T23:03:05Z</time>
      </trkpt>
      <trkpt lat="47.61614" lon="-2.15996">
        <ele>76</ele>
        <time>2023-11-11T23:04:15Z</time>
      </trkpt>
      <trkpt lat="47.61641" lon="-2.16008">
        <ele>75</ele>
        <time>2023-11-11T23:04:52Z</time>
      </trkpt>
      <trkpt lat="47.61784" lon="-2.16114">
        <ele>73</ele>
        <time>2023-11-11T23:08:26Z</time>
      </trkpt>
      <trkpt lat="47.61806" lon="-2.16144">
        <ele>75</ele>
        <time>2023-11-11T23:09:06Z</time>
      </trkpt>
      <trkpt lat="47.6187" lon="-2.16288">
        <ele>77</ele>
        <time>2023-11-11T23:11:41Z</time>
      </trkpt>
      <trkpt lat="47.61913" lon="-2.16438">
        <ele>72</ele>
        <time>2023-11-11T23:14:07Z</time>
      </trkpt>
      <trkpt lat="47.61943" lon="-2.16513">
        <ele>72</ele>
        <time>2023-11-11T23:15:26Z</time>
      </trkpt>
      <trkpt lat="47.61963" lon="-2.16534">
        <ele>73</ele>
        <time>2023-11-11T23:15:58Z</time>
      </trkpt>
      <trkpt lat="47.62013" lon="-2.16569">
        <ele>75</ele>
        <time>2023-11-11T23:17:12Z</time>
      </trkpt>
      <trkpt lat="47.62058" lon="-2.16583">
        <ele>76</ele>
        <time>2023-11-11T23:18:14Z</time>
      </trkpt>
      <trkpt lat="47.62123" lon="-2.16615">
        <ele>75</ele>
        <time>2023-11-11T23:19:45Z</time>
      </trkpt>
      <trkpt lat="47.62141" lon="-2.16609">
        <ele>74</ele>
        <time>2023-11-11T23:20:10Z</time>
      </trkpt>
      <trkpt lat="47.62156" lon="-2.16594">
        <ele>74</ele>
        <time>2023-11-11T23:20:34Z</time>
      </trkpt>
      <trkpt lat="47.62226" lon="-2.16489">
        <ele>73</ele>
        <time>2023-11-11T23:22:47Z</time>
      </trkpt>
      <trkpt lat="47.62287" lon="-2.16414">
        <ele>71</ele>
        <time>2023-11-11T23:24:32Z</time>
      </trkpt>
      <trkpt lat="47.62309" lon="-2.16398">
        <ele>70</ele>
        <time>2023-11-11T23:25:05Z</time>
      </trkpt>
      <trkpt lat="47.6233" lon="-2.164">
        <ele>69</ele>
        <time>2023-11-11T23:25:33Z</time>
      </trkpt>
      <trkpt lat="47.62364" lon="-2.16416">
        <ele>69</ele>
        <time>2023-11-11T23:26:21Z</time>
      </trkpt>
      <trkpt lat="47.62385" lon="-2.16414">
        <ele>69</ele>
        <time>2023-11-11T23:26:49Z</time>
      </trkpt>
      <trkpt lat="47.62441" lon="-2.16381">
        <ele>68</ele>
        <time>2023-11-11T23:28:09Z</time>
      </trkpt>
      <trkpt lat="47.62518" lon="-2.16349">
        <ele>67</ele>
        <time>2023-11-11T23:29:56Z</time>
      </trkpt>
      <trkpt lat="47.62526" lon="-2.16337">
        <ele>67</ele>
        <time>2023-11-11T23:30:11Z</time>
      </trkpt>
      <trkpt lat="47.62521" lon="-2.16331">
        <ele>67</ele>
        <time>2023-11-11T23:30:20Z</time>
      </trkpt>
      <trkpt lat="47.62507" lon="-2.16327">
        <ele>67</ele>
        <time>2023-11-11T23:30:39Z</time>
      </trkpt>
      <trkpt lat="47.62495" lon="-2.16326">
        <ele>67</ele>
        <time>2023-11-11T23:30:55Z</time>
      </trkpt>
      <trkpt lat="47.62483" lon="-2.16331">
        <ele>67</ele>
        <time>2023-11-11T23:31:11Z</time>
      </trkpt>
      <trkpt lat="47.62409" lon="-2.16325">
        <ele>69</ele>
        <time>2023-11-11T23:32:50Z</time>
      </trkpt>
      <trkpt lat="47.62394" lon="-2.16309">
        <ele>70</ele>
        <time>2023-11-11T23:33:15Z</time>
      </trkpt>
      <trkpt lat="47.62383" lon="-2.16285">
        <ele>70</ele>
        <time>2023-11-11T23:33:41Z</time>
      </trkpt>
      <trkpt lat="47.62368" lon="-2.16272">
        <ele>71</ele>
        <time>2023-11-11T23:34:04Z</time>
      </trkpt>
      <trkpt lat="47.62358" lon="-2.16245">
        <ele>71</ele>
        <time>2023-11-11T23:34:32Z</time>
      </trkpt>
      <trkpt lat="47.62339" lon="-2.16228">
        <ele>72</ele>
        <time>2023-11-11T23:35:02Z</time>
      </trkpt>
      <trkpt lat="47.62339" lon="-2.16221">
        <ele>72</ele>
        <time>2023-11-11T23:35:08Z</time>
      </trkpt>
      <trkpt lat="47.62312" lon="-2.16179">
        <ele>72</ele>
        <time>2023-11-11T23:36:00Z</time>
      </trkpt>
      <trkpt lat="47.62279" lon="-2.16148">
        <ele>72</ele>
        <time>2023-11-11T23:36:52Z</time>
      </trkpt>
      <trkpt lat="47.62277" lon="-2.16132">
        <ele>72</ele>
        <time>2023-11-11T23:37:07Z</time>
      </trkpt>
      <trkpt lat="47.62253" lon="-2.16094">
        <ele>73</ele>
        <time>2023-11-11T23:37:54Z</time>
      </trkpt>
      <trkpt lat="47.62234" lon="-2.16081">
        <ele>73</ele>
        <time>2023-11-11T23:38:22Z</time>
      </trkpt>
      <trkpt lat="47.6222" lon="-2.16052">
        <ele>72</ele>
        <time>2023-11-11T23:38:54Z</time>
      </trkpt>
      <trkpt lat="47.62191" lon="-2.16029">
        <ele>71</ele>
        <time>2023-11-11T23:39:37Z</time>
      </trkpt>
      <trkpt lat="47.62173" lon="-2.15992">
        <ele>71</ele>
        <time>2023-11-11T23:40:19Z</time>
      </trkpt>
      <trkpt lat="47.62133" lon="-2.15941">
        <ele>74</ele>
        <time>2023-11-11T23:41:29Z</time>
      </trkpt>
      <trkpt lat="47.62123" lon="-2.15922">
        <ele>75</ele>
        <time>2023-11-11T23:41:51Z</time>
      </trkpt>
      <trkpt lat="47.62093" lon="-2.1588">
        <ele>76</ele>
        <time>2023-11-11T23:42:46Z</time>
      </trkpt>
      <trkpt lat="47.62074" lon="-2.15867">
        <ele>76</ele>
        <time>2023-11-11T23:43:14Z</time>
      </trkpt>
      <trkpt lat="47.62009" lon="-2.15759">
        <ele>76</ele>
        <time>2023-11-11T23:45:24Z</time>
      </trkpt>
      <trkpt lat="47.62003" lon="-2.15741">
        <ele>77</ele>
        <time>2023-11-11T23:45:42Z</time>
      </trkpt>
      <trkpt lat="47.61977" lon="-2.15699">
        <ele>76</ele>
        <time>2023-11-11T23:46:33Z</time>
      </trkpt>
      <trkpt lat="47.61969" lon="-2.15694">
        <ele>76</ele>
        <time>2023-11-11T23:46:45Z</time>
      </trkpt>
      <trkpt lat="47.61963" lon="-2.15701">
        <ele>77</ele>
        <time>2023-11-11T23:46:55Z</time>
      </trkpt>
      <trkpt lat="47.61955" lon="-2.15701">
        <ele>77</ele>
        <time>2023-11-11T23:47:06Z</time>
      </trkpt>
      <trkpt lat="47.61878" lon="-2.15584">
        <ele>82</ele>
        <time>2023-11-11T23:49:33Z</time>
      </trkpt>
      <trkpt lat="47.61825" lon="-2.15511">
        <ele>84</ele>
        <time>2023-11-11T23:51:09Z</time>
      </trkpt>
      <trkpt lat="47.61773" lon="-2.15454">
        <ele>83</ele>
        <time>2023-11-11T23:52:35Z</time>
      </trkpt>
      <trkpt lat="47.61771" lon="-2.15444">
        <ele>83</ele>
        <time>2023-11-11T23:52:45Z</time>
      </trkpt>
      <trkpt lat="47.61841" lon="-2.1526">
        <ele>84</ele>
        <time>2023-11-11T23:55:55Z</time>
      </trkpt>
      <trkpt lat="47.61847" lon="-2.15205">
        <ele>82</ele>
        <time>2023-11-11T23:56:45Z</time>
      </trkpt>
      <trkpt lat="47.61871" lon="-2.15133">
        <ele>79</ele>
        <time>2023-11-11T23:57:57Z</time>
      </trkpt>
      <trkpt lat="47.61885" lon="-2.15107">
        <ele>78</ele>
        <time>2023-11-11T23:58:27Z</time>
      </trkpt>
      <trkpt lat="47.61961" lon="-2.14786">
        <ele>73</ele>
        <time>2023-11-12T00:03:33Z</time>
      </trkpt>
      <trkpt lat="47.61966" lon="-2.14749">
        <ele>73</ele>
        <time>2023-11-12T00:04:07Z</time>
      </trkpt>
      <trkpt lat="47.61964" lon="-2.14593">
        <ele>72</ele>
        <time>2023-11-12T00:06:28Z</time>
      </trkpt>
      <trkpt lat="47.61984" lon="-2.14419">
        <ele>64</ele>
        <time>2023-11-12T00:09:06Z</time>
      </trkpt>
      <trkpt lat="47.61989" lon="-2.14306">
        <ele>57</ele>
        <time>2023-11-12T00:10:48Z</time>
      </trkpt>
      <trkpt lat="47.62007" lon="-2.14162">
        <ele>48</ele>
        <time>2023-11-12T00:13:00Z</time>
      </trkpt>
      <trkpt lat="47.6199" lon="-2.14076">
        <ele>45</ele>
        <time>2023-11-12T00:14:21Z</time>
      </trkpt>
      <trkpt lat="47.62005" lon="-2.13928">
        <ele>42</ele>
        <time>2023-11-12T00:16:35Z</time>
      </trkpt>
      <trkpt lat="47.62003" lon="-2.13913">
        <ele>42</ele>
        <time>2023-11-12T00:16:49Z</time>
      </trkpt>
      <trkpt lat="47.62009" lon="-2.13864">
        <ele>42</ele>
        <time>2023-11-12T00:17:34Z</time>
      </trkpt>
      <trkpt lat="47.62026" lon="-2.13812">
        <ele>42</ele>
        <time>2023-11-12T00:18:26Z</time>
      </trkpt>
      <trkpt lat="47.62028" lon="-2.13744">
        <ele>42</ele>
        <time>2023-11-12T00:19:27Z</time>
      </trkpt>
      <trkpt lat="47.62044" lon="-2.13693">
        <ele>39</ele>
        <time>2023-11-12T00:20:17Z</time>
      </trkpt>
      <trkpt lat="47.62066" lon="-2.13568">
        <ele>36</ele>
        <time>2023-11-12T00:22:14Z</time>
      </trkpt>
      <trkpt lat="47.62054" lon="-2.13382">
        <ele>40</ele>
        <time>2023-11-12T00:25:02Z</time>
      </trkpt>
      <trkpt lat="47.62034" lon="-2.13363">
        <ele>41</ele>
        <time>2023-11-12T00:25:33Z</time>
      </trkpt>
      <trkpt lat="47.62035" lon="-2.13317">
        <ele>42</ele>
        <time>2023-11-12T00:26:15Z</time>
      </trkpt>
      <trkpt lat="47.6203" lon="-2.13296">
        <ele>43</ele>
        <time>2023-11-12T00:26:35Z</time>
      </trkpt>
      <trkpt lat="47.62023" lon="-2.1318">
        <ele>47</ele>
        <time>2023-11-12T00:28:20Z</time>
      </trkpt>
      <trkpt lat="47.62041" lon="-2.13102">
        <ele>46</ele>
        <time>2023-11-12T00:29:34Z</time>
      </trkpt>
      <trkpt lat="47.62068" lon="-2.12933">
        <ele>40</ele>
        <time>2023-11-12T00:32:10Z</time>
      </trkpt>
      <trkpt lat="47.62097" lon="-2.12791">
        <ele>35</ele>
        <time>2023-11-12T00:34:23Z</time>
      </trkpt>
      <trkpt lat="47.62102" lon="-2.12737">
        <ele>33</ele>
        <time>2023-11-12T00:35:13Z</time>
      </trkpt>
      <trkpt lat="47.621" lon="-2.12667">
        <ele>33</ele>
        <time>2023-11-12T00:36:16Z</time>
      </trkpt>
      <trkpt lat="47.62105" lon="-2.12394">
        <ele>32</ele>
        <time>2023-11-12T00:40:21Z</time>
      </trkpt>
      <trkpt lat="47.62091" lon="-2.12388">
        <ele>33</ele>
        <time>2023-11-12T00:40:41Z</time>
      </trkpt>
      <trkpt lat="47.62064" lon="-2.12394">
        <ele>35</ele>
        <time>2023-11-12T00:41:17Z</time>
      </trkpt>
      <trkpt lat="47.62042" lon="-2.12393">
        <ele>36</ele>
        <time>2023-11-12T00:41:46Z</time>
      </trkpt>
      <trkpt lat="47.61945" lon="-2.1242">
        <ele>48</ele>
        <time>2023-11-12T00:43:58Z</time>
      </trkpt>
      <trkpt lat="47.61914" lon="-2.12419">
        <ele>53</ele>
        <time>2023-11-12T00:44:40Z</time>
      </trkpt>
      <trkpt lat="47.61906" lon="-2.12412">
        <ele>55</ele>
        <time>2023-11-12T00:44:52Z</time>
      </trkpt>
      <trkpt lat="47.61914" lon="-2.12376">
        <ele>55</ele>
        <time>2023-11-12T00:45:26Z</time>
      </trkpt>
      <trkpt lat="47.61911" lon="-2.12367">
        <ele>56</ele>
        <time>2023-11-12T00:45:35Z</time>
      </trkpt>
      <trkpt lat="47.61915" lon="-2.12332">
        <ele>56</ele>
        <time>2023-11-12T00:46:07Z</time>
      </trkpt>
      <trkpt lat="47.61908" lon="-2.12304">
        <ele>59</ele>
        <time>2023-11-12T00:46:34Z</time>
      </trkpt>
      <trkpt lat="47.61908" lon="-2.12262">
        <ele>60</ele>
        <time>2023-11-12T00:47:12Z</time>
      </trkpt>
      <trkpt lat="47.61914" lon="-2.12243">
        <ele>60</ele>
        <time>2023-11-12T00:47:30Z</time>
      </trkpt>
      <trkpt lat="47.61907" lon="-2.12212">
        <ele>61</ele>
        <time>2023-11-12T00:48:00Z</time>
      </trkpt>
      <trkpt lat="47.61921" lon="-2.12197">
        <ele>58</ele>
        <time>2023-11-12T00:48:23Z</time>
      </trkpt>
      <trkpt lat="47.61925" lon="-2.12184">
        <ele>57</ele>
        <time>2023-11-12T00:48:36Z</time>
      </trkpt>
      <trkpt lat="47.61948" lon="-2.1205">
        <ele>51</ele>
        <time>2023-11-12T00:50:40Z</time>
      </trkpt>
      <trkpt lat="47.61973" lon="-2.12008">
        <ele>45</ele>
        <time>2023-11-12T00:51:31Z</time>
      </trkpt>
      <trkpt lat="47.61972" lon="-2.11985">
        <ele>44</ele>
        <time>2023-11-12T00:51:51Z</time>
      </trkpt>
      <trkpt lat="47.61931" lon="-2.11909">
        <ele>45</ele>
        <time>2023-11-12T00:53:19Z</time>
      </trkpt>
      <trkpt lat="47.61916" lon="-2.11906">
        <ele>47</ele>
        <time>2023-11-12T00:53:39Z</time>
      </trkpt>
      <trkpt lat="47.61901" lon="-2.1192">
        <ele>48</ele>
        <time>2023-11-12T00:54:03Z</time>
      </trkpt>
      <trkpt lat="47.6192" lon="-2.11877">
        <ele>46</ele>
        <time>2023-11-12T00:54:49Z</time>
      </trkpt>
      <trkpt lat="47.61943" lon="-2.1186">
        <ele>44</ele>
        <time>2023-11-12T00:55:23Z</time>
      </trkpt>
      <trkpt lat="47.61955" lon="-2.11841">
        <ele>42</ele>
        <time>2023-11-12T00:55:47Z</time>
      </trkpt>
      <trkpt lat="47.61955" lon="-2.11824">
        <ele>42</ele>
        <time>2023-11-12T00:56:02Z</time>
      </trkpt>
      <trkpt lat="47.61949" lon="-2.1181">
        <ele>41</ele>
        <time>2023-11-12T00:56:17Z</time>
      </trkpt>
      <trkpt lat="47.61957" lon="-2.11805">
        <ele>40</ele>
        <time>2023-11-12T00:56:28Z</time>
      </trkpt>
      <trkpt lat="47.61961" lon="-2.11788">
        <ele>39</ele>
        <time>2023-11-12T00:56:45Z</time>
      </trkpt>
      <trkpt lat="47.61957" lon="-2.11769">
        <ele>37</ele>
        <time>2023-11-12T00:57:03Z</time>
      </trkpt>
      <trkpt lat="47.61976" lon="-2.11749">
        <ele>35</ele>
        <time>2023-11-12T00:57:34Z</time>
      </trkpt>
      <trkpt lat="47.62018" lon="-2.11734">
        <ele>30</ele>
        <time>2023-11-12T00:58:31Z</time>
      </trkpt>
      <trkpt lat="47.62077" lon="-2.11694">
        <ele>25</ele>
        <time>2023-11-12T00:59:58Z</time>
      </trkpt>
      <trkpt lat="47.62152" lon="-2.11666">
        <ele>22</ele>
        <time>2023-11-12T01:01:41Z</time>
      </trkpt>
      <trkpt lat="47.62166" lon="-2.11652">
        <ele>21</ele>
        <time>2023-11-12T01:02:04Z</time>
      </trkpt>
      <trkpt lat="47.62133" lon="-2.11573">
        <ele>22</ele>
        <time>2023-11-12T01:03:27Z</time>
      </trkpt>
      <trkpt lat="47.62092" lon="-2.11434">
        <ele>16</ele>
        <time>2023-11-12T01:05:44Z</time>
      </trkpt>
      <trkpt lat="47.62058" lon="-2.11427">
        <ele>15</ele>
        <time>2023-11-12T01:06:29Z</time>
      </trkpt>
      <trkpt lat="47.62055" lon="-2.11335">
        <ele>13</ele>
        <time>2023-11-12T01:07:52Z</time>
      </trkpt>
      <trkpt lat="47.62064" lon="-2.1131">
        <ele>12</ele>
        <time>2023-11-12T01:08:18Z</time>
      </trkpt>
      <trkpt lat="47.6205" lon="-2.11288">
        <ele>12</ele>
        <time>2023-11-12T01:08:45Z</time>
      </trkpt>
      <trkpt lat="47.62006" lon="-2.11277">
        <ele>12</ele>
        <time>2023-11-12T01:09:45Z</time>
      </trkpt>
      <trkpt lat="47.61995" lon="-2.11207">
        <ele>10</ele>
        <time>2023-11-12T01:10:49Z</time>
      </trkpt>
      <trkpt lat="47.61962" lon="-2.112">
        <ele>10</ele>
        <time>2023-11-12T01:11:34Z</time>
      </trkpt>
      <trkpt lat="47.61971" lon="-2.11184">
        <ele>9</ele>
        <time>2023-11-12T01:11:52Z</time>
      </trkpt>
      <trkpt lat="47.61929" lon="-2.11178">
        <ele>9</ele>
        <time>2023-11-12T01:12:49Z</time>
      </trkpt>
      <trkpt lat="47.61944" lon="-2.11132">
        <ele>8</ele>
        <time>2023-11-12T01:13:35Z</time>
      </trkpt>
      <trkpt lat="47.61939" lon="-2.11125">
        <ele>8</ele>
        <time>2023-11-12T01:13:44Z</time>
      </trkpt>
      <trkpt lat="47.61931" lon="-2.11153">
        <ele>9</ele>
        <time>2023-11-12T01:14:11Z</time>
      </trkpt>
      <trkpt lat="47.61925" lon="-2.11228">
        <ele>10</ele>
        <time>2023-11-12T01:15:19Z</time>
      </trkpt>
      <trkpt lat="47.61912" lon="-2.11251">
        <ele>10</ele>
        <time>2023-11-12T01:15:46Z</time>
      </trkpt>
      <trkpt lat="47.619" lon="-2.1126">
        <ele>10</ele>
        <time>2023-11-12T01:16:04Z</time>
      </trkpt>
      <trkpt lat="47.6181" lon="-2.11245">
        <ele>10</ele>
        <time>2023-11-12T01:18:05Z</time>
      </trkpt>
      <trkpt lat="47.61763" lon="-2.11224">
        <ele>10</ele>
        <time>2023-11-12T01:19:11Z</time>
      </trkpt>
      <trkpt lat="47.61702" lon="-2.11216">
        <ele>10</ele>
        <time>2023-11-12T01:20:32Z</time>
      </trkpt>
      <trkpt lat="47.61651" lon="-2.11226">
        <ele>10</ele>
        <time>2023-11-12T01:21:41Z</time>
      </trkpt>
      <trkpt lat="47.61592" lon="-2.11219">
        <ele>10</ele>
        <time>2023-11-12T01:23:00Z</time>
      </trkpt>
      <trkpt lat="47.61571" lon="-2.1123">
        <ele>10</ele>
        <time>2023-11-12T01:23:30Z</time>
      </trkpt>
      <trkpt lat="47.61545" lon="-2.11211">
        <ele>9</ele>
        <time>2023-11-12T01:24:08Z</time>
      </trkpt>
      <trkpt lat="47.61521" lon="-2.11205">
        <ele>9</ele>
        <time>2023-11-12T01:24:41Z</time>
      </trkpt>
      <trkpt lat="47.61507" lon="-2.11194">
        <ele>8</ele>
        <time>2023-11-12T01:25:02Z</time>
      </trkpt>
      <trkpt lat="47.61495" lon="-2.11177">
        <ele>7</ele>
        <time>2023-11-12T01:25:24Z</time>
      </trkpt>
      <trkpt lat="47.61486" lon="-2.1119">
        <ele>8</ele>
        <time>2023-11-12T01:25:41Z</time>
      </trkpt>
      <trkpt lat="47.6136" lon="-2.11224">
        <ele>9</ele>
        <time>2023-11-12T01:28:32Z</time>
      </trkpt>
      <trkpt lat="47.61353" lon="-2.11238">
        <ele>9</ele>
        <time>2023-11-12T01:28:47Z</time>
      </trkpt>
      <trkpt lat="47.61289" lon="-2.11307">
        <ele>10</ele>
        <time>2023-11-12T01:30:33Z</time>
      </trkpt>
      <trkpt lat="47.6127" lon="-2.11318">
        <ele>10</ele>
        <time>2023-11-12T01:31:00Z</time>
      </trkpt>
      <trkpt lat="47.61249" lon="-2.11315">
        <ele>11</ele>
        <time>2023-11-12T01:31:28Z</time>
      </trkpt>
      <trkpt lat="47.6115" lon="-2.11276">
        <ele>9</ele>
        <time>2023-11-12T01:33:45Z</time>
      </trkpt>
      <trkpt lat="47.61118" lon="-2.11274">
        <ele>9</ele>
        <time>2023-11-12T01:34:28Z</time>
      </trkpt>
      <trkpt lat="47.61099" lon="-2.11296">
        <ele>9</ele>
        <time>2023-11-12T01:35:00Z</time>
      </trkpt>
      <trkpt lat="47.61085" lon="-2.11356">
        <ele>10</ele>
        <time>2023-11-12T01:35:57Z</time>
      </trkpt>
      <trkpt lat="47.61075" lon="-2.11372">
        <ele>10</ele>
        <time>2023-11-12T01:36:17Z</time>
      </trkpt>
      <trkpt lat="47.61067" lon="-2.11374">
        <ele>10</ele>
        <time>2023-11-12T01:36:27Z</time>
      </trkpt>
      <trkpt lat="47.61066" lon="-2.11382">
        <ele>11</ele>
        <time>2023-11-12T01:36:35Z</time>
      </trkpt>
      <trkpt lat="47.61038" lon="-2.11346">
        <ele>10</ele>
        <time>2023-11-12T01:37:24Z</time>
      </trkpt>
      <trkpt lat="47.61016" lon="-2.11297">
        <ele>10</ele>
        <time>2023-11-12T01:38:17Z</time>
      </trkpt>
      <trkpt lat="47.61005" lon="-2.11267">
        <ele>10</ele>
        <time>2023-11-12T01:38:48Z</time>
      </trkpt>
      <trkpt lat="47.60997" lon="-2.11257">
        <ele>10</ele>
        <time>2023-11-12T01:39:02Z</time>
      </trkpt>
      <trkpt lat="47.60934" lon="-2.11336">
        <ele>13</ele>
        <time>2023-11-12T01:40:52Z</time>
      </trkpt>
      <trkpt lat="47.60864" lon="-2.11379">
        <ele>17</ele>
        <time>2023-11-12T01:42:33Z</time>
      </trkpt>
      <trkpt lat="47.60831" lon="-2.11388">
        <ele>19</ele>
        <time>2023-11-12T01:43:18Z</time>
      </trkpt>
      <trkpt lat="47.60806" lon="-2.11403">
        <ele>20</ele>
        <time>2023-11-12T01:43:54Z</time>
      </trkpt>
      <trkpt lat="47.60731" lon="-2.11499">
        <ele>30</ele>
        <time>2023-11-12T01:46:06Z</time>
      </trkpt>
      <trkpt lat="47.60724" lon="-2.11498">
        <ele>31</ele>
        <time>2023-11-12T01:46:15Z</time>
      </trkpt>
      <trkpt lat="47.6071" lon="-2.11471">
        <ele>30</ele>
        <time>2023-11-12T01:46:46Z</time>
      </trkpt>
      <trkpt lat="47.60691" lon="-2.11403">
        <ele>27</ele>
        <time>2023-11-12T01:47:52Z</time>
      </trkpt>
      <trkpt lat="47.60647" lon="-2.11271">
        <ele>24</ele>
        <time>2023-11-12T01:50:05Z</time>
      </trkpt>
      <trkpt lat="47.60579" lon="-2.11124">
        <ele>15</ele>
        <time>2023-11-12T01:52:45Z</time>
      </trkpt>
      <trkpt lat="47.60559" lon="-2.11066">
        <ele>13</ele>
        <time>2023-11-12T01:53:44Z</time>
      </trkpt>
      <trkpt lat="47.60543" lon="-2.11045">
        <ele>14</ele>
        <time>2023-11-12T01:54:12Z</time>
      </trkpt>
      <trkpt lat="47.60521" lon="-2.10994">
        <ele>12</ele>
        <time>2023-11-12T01:55:07Z</time>
      </trkpt>
      <trkpt lat="47.60475" lon="-2.10949">
        <ele>12</ele>
        <time>2023-11-12T01:56:20Z</time>
      </trkpt>
      <trkpt lat="47.60472" lon="-2.10939">
        <ele>11</ele>
        <time>2023-11-12T01:56:30Z</time>
      </trkpt>
      <trkpt lat="47.60457" lon="-2.10931">
        <ele>11</ele>
        <time>2023-11-12T01:56:51Z</time>
      </trkpt>
      <trkpt lat="47.60404" lon="-2.10877">
        <ele>11</ele>
        <time>2023-11-12T01:58:17Z</time>
      </trkpt>
      <trkpt lat="47.60387" lon="-2.10853">
        <ele>12</ele>
        <time>2023-11-12T01:58:49Z</time>
      </trkpt>
      <trkpt lat="47.60369" lon="-2.1085">
        <ele>14</ele>
        <time>2023-11-12T01:59:13Z</time>
      </trkpt>
      <trkpt lat="47.60353" lon="-2.10857">
        <ele>16</ele>
        <time>2023-11-12T01:59:35Z</time>
      </trkpt>
      <trkpt lat="47.60318" lon="-2.10843">
        <ele>20</ele>
        <time>2023-11-12T02:00:23Z</time>
      </trkpt>
      <trkpt lat="47.60306" lon="-2.10843">
        <ele>22</ele>
        <time>2023-11-12T02:00:39Z</time>
      </trkpt>
      <trkpt lat="47.60264" lon="-2.1081">
        <ele>25</ele>
        <time>2023-11-12T02:01:43Z</time>
      </trkpt>
      <trkpt lat="47.60256" lon="-2.10799">
        <ele>25</ele>
        <time>2023-11-12T02:01:57Z</time>
      </trkpt>
      <trkpt lat="47.60206" lon="-2.10768">
        <ele>25</ele>
        <time>2023-11-12T02:03:10Z</time>
      </trkpt>
      <trkpt lat="47.60186" lon="-2.1075">
        <ele>25</ele>
        <time>2023-11-12T02:03:41Z</time>
      </trkpt>
      <trkpt lat="47.60162" lon="-2.10735">
        <ele>24</ele>
        <time>2023-11-12T02:04:16Z</time>
      </trkpt>
      <trkpt lat="47.60149" lon="-2.10732">
        <ele>24</ele>
        <time>2023-11-12T02:04:33Z</time>
      </trkpt>
      <trkpt lat="47.60149" lon="-2.10737">
        <ele>25</ele>
        <time>2023-11-12T02:04:38Z</time>
      </trkpt>
      <trkpt lat="47.60146" lon="-2.10737">
        <ele>25</ele>
        <time>2023-11-12T02:04:42Z</time>
      </trkpt>
      <trkpt lat="47.60146" lon="-2.10727">
        <ele>24</ele>
        <time>2023-11-12T02:04:51Z</time>
      </trkpt>
      <trkpt lat="47.60131" lon="-2.10713">
        <ele>22</ele>
        <time>2023-11-12T02:05:14Z</time>
      </trkpt>
      <trkpt lat="47.60104" lon="-2.10655">
        <ele>18</ele>
        <time>2023-11-12T02:06:18Z</time>
      </trkpt>
      <trkpt lat="47.60104" lon="-2.10648">
        <ele>18</ele>
        <time>2023-11-12T02:06:24Z</time>
      </trkpt>
      <trkpt lat="47.59995" lon="-2.10524">
        <ele>14</ele>
        <time>2023-11-12T02:09:27Z</time>
      </trkpt>
      <trkpt lat="47.5998" lon="-2.105">
        <ele>14</ele>
        <time>2023-11-12T02:09:57Z</time>
      </trkpt>
      <trkpt lat="47.59963" lon="-2.10412">
        <ele>11</ele>
        <time>2023-11-12T02:11:19Z</time>
      </trkpt>
      <trkpt lat="47.59955" lon="-2.10385">
        <ele>11</ele>
        <time>2023-11-12T02:11:46Z</time>
      </trkpt>
      <trkpt lat="47.59967" lon="-2.10345">
        <ele>9</ele>
        <time>2023-11-12T02:12:25Z</time>
      </trkpt>
      <trkpt lat="47.59979" lon="-2.10238">
        <ele>8</ele>
        <time>2023-11-12T02:14:03Z</time>
      </trkpt>
      <trkpt lat="47.59979" lon="-2.10201">
        <ele>7</ele>
        <time>2023-11-12T02:14:36Z</time>
      </trkpt>
      <trkpt lat="47.59969" lon="-2.10165">
        <ele>7</ele>
        <time>2023-11-12T02:15:11Z</time>
      </trkpt>
      <trkpt lat="47.5997" lon="-2.10132">
        <ele>6</ele>
        <time>2023-11-12T02:15:41Z</time>
      </trkpt>
      <trkpt lat="47.59957" lon="-2.10062">
        <ele>7</ele>
        <time>2023-11-12T02:16:46Z</time>
      </trkpt>
      <trkpt lat="47.59958" lon="-2.1004">
        <ele>7</ele>
        <time>2023-11-12T02:17:06Z</time>
      </trkpt>
      <trkpt lat="47.5997" lon="-2.10003">
        <ele>7</ele>
        <time>2023-11-12T02:17:43Z</time>
      </trkpt>
      <trkpt lat="47.59964" lon="-2.09963">
        <ele>9</ele>
        <time>2023-11-12T02:18:20Z</time>
      </trkpt>
      <trkpt lat="47.59969" lon="-2.09893">
        <ele>8</ele>
        <time>2023-11-12T02:19:23Z</time>
      </trkpt>
      <trkpt lat="47.59966" lon="-2.09861">
        <ele>8</ele>
        <time>2023-11-12T02:19:52Z</time>
      </trkpt>
      <trkpt lat="47.59956" lon="-2.09806">
        <ele>6</ele>
        <time>2023-11-12T02:20:44Z</time>
      </trkpt>
      <trkpt lat="47.59951" lon="-2.09802">
        <ele>7</ele>
        <time>2023-11-12T02:20:51Z</time>
      </trkpt>
      <trkpt lat="47.59943" lon="-2.09778">
        <ele>6</ele>
        <time>2023-11-12T02:21:15Z</time>
      </trkpt>
      <trkpt lat="47.59931" lon="-2.09773">
        <ele>6</ele>
        <time>2023-11-12T02:21:32Z</time>
      </trkpt>
      <trkpt lat="47.59915" lon="-2.09774">
        <ele>7</ele>
        <time>2023-11-12T02:21:53Z</time>
      </trkpt>
      <trkpt lat="47.59916" lon="-2.09785">
        <ele>8</ele>
        <time>2023-11-12T02:22:03Z</time>
      </trkpt>
      <trkpt lat="47.59927" lon="-2.09783">
        <ele>7</ele>
        <time>2023-11-12T02:22:18Z</time>
      </trkpt>
      <trkpt lat="47.59921" lon="-2.0981">
        <ele>10</ele>
        <time>2023-11-12T02:22:44Z</time>
      </trkpt>
      <trkpt lat="47.59909" lon="-2.09816">
        <ele>11</ele>
        <time>2023-11-12T02:23:00Z</time>
      </trkpt>
      <trkpt lat="47.59902" lon="-2.09809">
        <ele>10</ele>
        <time>2023-11-12T02:23:12Z</time>
      </trkpt>
      <trkpt lat="47.5988" lon="-2.09869">
        <ele>12</ele>
        <time>2023-11-12T02:24:13Z</time>
      </trkpt>
      <trkpt lat="47.59879" lon="-2.09889">
        <ele>13</ele>
        <time>2023-11-12T02:24:31Z</time>
      </trkpt>
      <trkpt lat="47.59885" lon="-2.09901">
        <ele>15</ele>
        <time>2023-11-12T02:24:45Z</time>
      </trkpt>
      <trkpt lat="47.59891" lon="-2.09894">
        <ele>15</ele>
        <time>2023-11-12T02:24:55Z</time>
      </trkpt>
      <trkpt lat="47.5991" lon="-2.09904">
        <ele>18</ele>
        <time>2023-11-12T02:25:22Z</time>
      </trkpt>
      <trkpt lat="47.59895" lon="-2.09903">
        <ele>16</ele>
        <time>2023-11-12T02:25:42Z</time>
      </trkpt>
      <trkpt lat="47.59883" lon="-2.09939">
        <ele>15</ele>
        <time>2023-11-12T02:26:18Z</time>
      </trkpt>
      <trkpt lat="47.59883" lon="-2.09965">
        <ele>14</ele>
        <time>2023-11-12T02:26:41Z</time>
      </trkpt>
      <trkpt lat="47.599" lon="-2.10011">
        <ele>13</ele>
        <time>2023-11-12T02:27:29Z</time>
      </trkpt>
      <trkpt lat="47.59896" lon="-2.10031">
        <ele>12</ele>
        <time>2023-11-12T02:27:47Z</time>
      </trkpt>
      <trkpt lat="47.59879" lon="-2.10071">
        <ele>10</ele>
        <time>2023-11-12T02:28:30Z</time>
      </trkpt>
      <trkpt lat="47.59863" lon="-2.10096">
        <ele>11</ele>
        <time>2023-11-12T02:29:01Z</time>
      </trkpt>
      <trkpt lat="47.59857" lon="-2.10099">
        <ele>11</ele>
        <time>2023-11-12T02:29:09Z</time>
      </trkpt>
      <trkpt lat="47.5983" lon="-2.10159">
        <ele>13</ele>
        <time>2023-11-12T02:30:14Z</time>
      </trkpt>
      <trkpt lat="47.59834" lon="-2.10216">
        <ele>16</ele>
        <time>2023-11-12T02:31:06Z</time>
      </trkpt>
      <trkpt lat="47.59826" lon="-2.1029">
        <ele>17</ele>
        <time>2023-11-12T02:32:13Z</time>
      </trkpt>
      <trkpt lat="47.598" lon="-2.10307">
        <ele>16</ele>
        <time>2023-11-12T02:32:51Z</time>
      </trkpt>
      <trkpt lat="47.59841" lon="-2.10323">
        <ele>18</ele>
        <time>2023-11-12T02:33:48Z</time>
      </trkpt>
      <trkpt lat="47.59848" lon="-2.10358">
        <ele>18</ele>
        <time>2023-11-12T02:34:21Z</time>
      </trkpt>
      <trkpt lat="47.59839" lon="-2.10397">
        <ele>19</ele>
        <time>2023-11-12T02:34:58Z</time>
      </trkpt>
      <trkpt lat="47.59838" lon="-2.10425">
        <ele>19</ele>
        <time>2023-11-12T02:35:23Z</time>
      </trkpt>
      <trkpt lat="47.59807" lon="-2.1052">
        <ele>20</ele>
        <time>2023-11-12T02:36:58Z</time>
      </trkpt>
      <trkpt lat="47.59812" lon="-2.10556">
        <ele>21</ele>
        <time>2023-11-12T02:37:31Z</time>
      </trkpt>
      <trkpt lat="47.59809" lon="-2.10589">
        <ele>23</ele>
        <time>2023-11-12T02:38:01Z</time>
      </trkpt>
      <trkpt lat="47.59801" lon="-2.10615">
        <ele>23</ele>
        <time>2023-11-12T02:38:27Z</time>
      </trkpt>
      <trkpt lat="47.59784" lon="-2.10707">
        <ele>24</ele>
        <time>2023-11-12T02:39:52Z</time>
      </trkpt>
      <trkpt lat="47.59779" lon="-2.10777">
        <ele>24</ele>
        <time>2023-11-12T02:40:56Z</time>
      </trkpt>
      <trkpt lat="47.5976" lon="-2.10869">
        <ele>25</ele>
        <time>2023-11-12T02:42:22Z</time>
        <extensions>
          <visugpx:TrkExtension xmlns:visugpx="https://www.visugpx.com/editgpx/">
            <visugpx:node>1</visugpx:node>
            </visugpx:TrkExtension>
        </extensions>
      </trkpt>
    </trkseg>
  </trk>
  <trk>
    <name><![CDATA[Enregistrement du 06/03/2024-18490647]]></name>
    <extensions>
      <line xmlns="http://www.topografix.com/GPX/gpx_style/0/2">
        <color>FF0000</color>
        <width>4</width>
      </line>
    </extensions>
    <trkseg>
      <trkpt lat="47.59723" lon="-2.10848">
        <ele>24</ele>
        <time>2024-03-22T18:09:03Z</time>
      </trkpt>
      <trkpt lat="47.59729" lon="-2.10839">
        <ele>24</ele>
        <time>2024-03-22T18:09:14Z</time>
      </trkpt>
      <trkpt lat="47.59732" lon="-2.1082">
        <ele>24</ele>
        <time>2024-03-22T18:09:32Z</time>
      </trkpt>
      <trkpt lat="47.59763" lon="-2.10817">
        <ele>24</ele>
        <time>2024-03-22T18:10:13Z</time>
      </trkpt>
      <trkpt lat="47.59773" lon="-2.1083">
        <ele>25</ele>
        <time>2024-03-22T18:10:31Z</time>
      </trkpt>
      <trkpt lat="47.59776" lon="-2.10856">
        <ele>25</ele>
        <time>2024-03-22T18:10:55Z</time>
      </trkpt>
      <trkpt lat="47.59758" lon="-2.10833">
        <ele>24</ele>
        <time>2024-03-22T18:11:27Z</time>
      </trkpt>
      <trkpt lat="47.59764" lon="-2.10819">
        <ele>24</ele>
        <time>2024-03-22T18:11:42Z</time>
      </trkpt>
      <trkpt lat="47.59768" lon="-2.10822">
        <ele>24</ele>
        <time>2024-03-22T18:11:48Z</time>
      </trkpt>
      <trkpt lat="47.59772" lon="-2.10819">
        <ele>24</ele>
        <time>2024-03-22T18:11:53Z</time>
      </trkpt>
      <trkpt lat="47.59776" lon="-2.10771">
        <ele>24</ele>
        <time>2024-03-22T18:12:37Z</time>
      </trkpt>
      <trkpt lat="47.59791" lon="-2.10702">
        <ele>24</ele>
        <time>2024-03-22T18:13:42Z</time>
      </trkpt>
      <trkpt lat="47.59791" lon="-2.10651">
        <ele>23</ele>
        <time>2024-03-22T18:14:28Z</time>
      </trkpt>
      <trkpt lat="47.59801" lon="-2.10598">
        <ele>23</ele>
        <time>2024-03-22T18:15:18Z</time>
      </trkpt>
      <trkpt lat="47.59811" lon="-2.1057">
        <ele>22</ele>
        <time>2024-03-22T18:15:46Z</time>
      </trkpt>
      <trkpt lat="47.59808" lon="-2.10524">
        <ele>20</ele>
        <time>2024-03-22T18:16:28Z</time>
      </trkpt>
      <trkpt lat="47.59821" lon="-2.10477">
        <ele>19</ele>
        <time>2024-03-22T18:17:13Z</time>
      </trkpt>
      <trkpt lat="47.59821" lon="-2.10469">
        <ele>19</ele>
        <time>2024-03-22T18:17:21Z</time>
      </trkpt>
      <trkpt lat="47.59797" lon="-2.10453">
        <ele>17</ele>
        <time>2024-03-22T18:17:56Z</time>
      </trkpt>
      <trkpt lat="47.5974" lon="-2.10436">
        <ele>13</ele>
        <time>2024-03-22T18:19:13Z</time>
      </trkpt>
      <trkpt lat="47.59717" lon="-2.10424">
        <ele>11</ele>
        <time>2024-03-22T18:19:46Z</time>
      </trkpt>
      <trkpt lat="47.59699" lon="-2.10431">
        <ele>10</ele>
        <time>2024-03-22T18:20:11Z</time>
      </trkpt>
      <trkpt lat="47.59665" lon="-2.10464">
        <ele>9</ele>
        <time>2024-03-22T18:21:05Z</time>
      </trkpt>
      <trkpt lat="47.59651" lon="-2.10466">
        <ele>10</ele>
        <time>2024-03-22T18:21:24Z</time>
      </trkpt>
      <trkpt lat="47.59497" lon="-2.10416">
        <ele>10</ele>
        <time>2024-03-22T18:24:54Z</time>
      </trkpt>
      <trkpt lat="47.5945" lon="-2.10413">
        <ele>7</ele>
        <time>2024-03-22T18:25:57Z</time>
      </trkpt>
      <trkpt lat="47.59397" lon="-2.10428">
        <ele>6</ele>
        <time>2024-03-22T18:27:09Z</time>
      </trkpt>
      <trkpt lat="47.59357" lon="-2.10448">
        <ele>6</ele>
        <time>2024-03-22T18:28:05Z</time>
      </trkpt>
      <trkpt lat="47.5934" lon="-2.10467">
        <ele>6</ele>
        <time>2024-03-22T18:28:34Z</time>
      </trkpt>
      <trkpt lat="47.59331" lon="-2.10505">
        <ele>8</ele>
        <time>2024-03-22T18:29:10Z</time>
      </trkpt>
      <trkpt lat="47.59319" lon="-2.10521">
        <ele>9</ele>
        <time>2024-03-22T18:29:31Z</time>
      </trkpt>
      <trkpt lat="47.59263" lon="-2.10556">
        <ele>9</ele>
        <time>2024-03-22T18:30:53Z</time>
      </trkpt>
      <trkpt lat="47.5923" lon="-2.10567">
        <ele>8</ele>
        <time>2024-03-22T18:31:38Z</time>
      </trkpt>
      <trkpt lat="47.59227" lon="-2.10566">
        <ele>8</ele>
        <time>2024-03-22T18:31:42Z</time>
      </trkpt>
      <trkpt lat="47.59224" lon="-2.10548">
        <ele>7</ele>
        <time>2024-03-22T18:31:58Z</time>
      </trkpt>
      <trkpt lat="47.59219" lon="-2.10456">
        <ele>2</ele>
        <time>2024-03-22T18:33:22Z</time>
      </trkpt>
      <trkpt lat="47.59212" lon="-2.10443">
        <ele>2</ele>
        <time>2024-03-22T18:33:36Z</time>
      </trkpt>
      <trkpt lat="47.59196" lon="-2.1044">
        <ele>2</ele>
        <time>2024-03-22T18:33:58Z</time>
      </trkpt>
      <trkpt lat="47.5911" lon="-2.10455">
        <ele>2</ele>
        <time>2024-03-22T18:35:54Z</time>
      </trkpt>
      <trkpt lat="47.59021" lon="-2.1048">
        <ele>3</ele>
        <time>2024-03-22T18:37:54Z</time>
      </trkpt>
      <trkpt lat="47.58958" lon="-2.10471">
        <ele>2</ele>
        <time>2024-03-22T18:39:19Z</time>
      </trkpt>
      <trkpt lat="47.589" lon="-2.1045">
        <ele>2</ele>
        <time>2024-03-22T18:40:39Z</time>
      </trkpt>
      <trkpt lat="47.58846" lon="-2.1042">
        <ele>1</ele>
        <time>2024-03-22T18:41:56Z</time>
      </trkpt>
      <trkpt lat="47.58826" lon="-2.10414">
        <ele>1</ele>
        <time>2024-03-22T18:42:23Z</time>
      </trkpt>
      <trkpt lat="47.58661" lon="-2.10332">
        <ele>2</ele>
        <time>2024-03-22T18:46:15Z</time>
      </trkpt>
      <trkpt lat="47.58588" lon="-2.10304">
        <ele>2</ele>
        <time>2024-03-22T18:47:56Z</time>
      </trkpt>
      <trkpt lat="47.58536" lon="-2.10276">
        <ele>1</ele>
        <time>2024-03-22T18:49:09Z</time>
      </trkpt>
      <trkpt lat="47.58371" lon="-2.102">
        <ele>1</ele>
        <time>2024-03-22T18:53:00Z</time>
      </trkpt>
      <trkpt lat="47.5836" lon="-2.10191">
        <ele>1</ele>
        <time>2024-03-22T18:53:17Z</time>
      </trkpt>
      <trkpt lat="47.58234" lon="-2.10136">
        <ele>2</ele>
        <time>2024-03-22T18:56:12Z</time>
      </trkpt>
      <trkpt lat="47.58111" lon="-2.10073">
        <ele>4</ele>
        <time>2024-03-22T18:59:06Z</time>
      </trkpt>
      <trkpt lat="47.58055" lon="-2.10067">
        <ele>3</ele>
        <time>2024-03-22T19:00:21Z</time>
      </trkpt>
      <trkpt lat="47.58027" lon="-2.10072">
        <ele>3</ele>
        <time>2024-03-22T19:00:58Z</time>
      </trkpt>
      <trkpt lat="47.58001" lon="-2.10084">
        <ele>3</ele>
        <time>2024-03-22T19:01:35Z</time>
      </trkpt>
      <trkpt lat="47.57973" lon="-2.10115">
        <ele>3</ele>
        <time>2024-03-22T19:02:21Z</time>
      </trkpt>
      <trkpt lat="47.57955" lon="-2.10142">
        <ele>4</ele>
        <time>2024-03-22T19:02:55Z</time>
      </trkpt>
      <trkpt lat="47.57921" lon="-2.10209">
        <ele>3</ele>
        <time>2024-03-22T19:04:11Z</time>
      </trkpt>
      <trkpt lat="47.57898" lon="-2.1031">
        <ele>2</ele>
        <time>2024-03-22T19:05:47Z</time>
      </trkpt>
      <trkpt lat="47.57859" lon="-2.10451">
        <ele>1</ele>
        <time>2024-03-22T19:08:04Z</time>
      </trkpt>
      <trkpt lat="47.57851" lon="-2.10514">
        <ele>2.8</ele>
        <time>2024-03-22T19:09:02Z</time>
      </trkpt>
      <trkpt lat="47.57851" lon="-2.10552">
        <ele>3</ele>
        <time>2024-03-22T19:09:36Z</time>
      </trkpt>
      <trkpt lat="47.57862" lon="-2.10631">
        <ele>1</ele>
        <time>2024-03-22T19:10:49Z</time>
      </trkpt>
      <trkpt lat="47.5788" lon="-2.10689">
        <ele>2</ele>
        <time>2024-03-22T19:11:46Z</time>
      </trkpt>
      <trkpt lat="47.57886" lon="-2.10734">
        <ele>2</ele>
        <time>2024-03-22T19:12:27Z</time>
      </trkpt>
      <trkpt lat="47.57907" lon="-2.10789">
        <ele>2</ele>
        <time>2024-03-22T19:13:24Z</time>
      </trkpt>
      <trkpt lat="47.57936" lon="-2.10899">
        <ele>3</ele>
        <time>2024-03-22T19:15:11Z</time>
      </trkpt>
      <trkpt lat="47.57953" lon="-2.10987">
        <ele>2</ele>
        <time>2024-03-22T19:16:33Z</time>
      </trkpt>
      <trkpt lat="47.57974" lon="-2.11066">
        <ele>2</ele>
        <time>2024-03-22T19:17:49Z</time>
      </trkpt>
      <trkpt lat="47.57985" lon="-2.11121">
        <ele>2</ele>
        <time>2024-03-22T19:18:41Z</time>
      </trkpt>
      <trkpt lat="47.57987" lon="-2.11151">
        <ele>3</ele>
        <time>2024-03-22T19:19:08Z</time>
      </trkpt>
      <trkpt lat="47.57991" lon="-2.11357">
        <ele>3</ele>
        <time>2024-03-22T19:22:14Z</time>
      </trkpt>
      <trkpt lat="47.57975" lon="-2.1153">
        <ele>3</ele>
        <time>2024-03-22T19:24:51Z</time>
      </trkpt>
      <trkpt lat="47.57942" lon="-2.11705">
        <ele>3</ele>
        <time>2024-03-22T19:27:34Z</time>
      </trkpt>
      <trkpt lat="47.579" lon="-2.11852">
        <ele>1</ele>
        <time>2024-03-22T19:29:58Z</time>
      </trkpt>
      <trkpt lat="47.57868" lon="-2.11988">
        <ele>2</ele>
        <time>2024-03-22T19:32:08Z</time>
      </trkpt>
      <trkpt lat="47.57868" lon="-2.12082">
        <ele>3</ele>
        <time>2024-03-22T19:33:32Z</time>
      </trkpt>
      <trkpt lat="47.57881" lon="-2.12155">
        <ele>3</ele>
        <time>2024-03-22T19:34:40Z</time>
      </trkpt>
      <trkpt lat="47.57911" lon="-2.12252">
        <ele>3</ele>
        <time>2024-03-22T19:36:16Z</time>
      </trkpt>
      <trkpt lat="47.57972" lon="-2.12361">
        <ele>3</ele>
        <time>2024-03-22T19:38:24Z</time>
      </trkpt>
      <trkpt lat="47.57992" lon="-2.12393">
        <ele>3</ele>
        <time>2024-03-22T19:39:03Z</time>
      </trkpt>
      <trkpt lat="47.58012" lon="-2.12415">
        <ele>3</ele>
        <time>2024-03-22T19:39:36Z</time>
      </trkpt>
      <trkpt lat="47.58043" lon="-2.1249">
        <ele>3</ele>
        <time>2024-03-22T19:40:56Z</time>
      </trkpt>
      <trkpt lat="47.5805" lon="-2.12518">
        <ele>2</ele>
        <time>2024-03-22T19:41:22Z</time>
      </trkpt>
      <trkpt lat="47.58055" lon="-2.12524">
        <ele>3</ele>
        <time>2024-03-22T19:41:31Z</time>
      </trkpt>
      <trkpt lat="47.58081" lon="-2.12527">
        <ele>3</ele>
        <time>2024-03-22T19:42:06Z</time>
      </trkpt>
      <trkpt lat="47.58096" lon="-2.12541">
        <ele>3</ele>
        <time>2024-03-22T19:42:30Z</time>
      </trkpt>
      <trkpt lat="47.58123" lon="-2.12577">
        <ele>2</ele>
        <time>2024-03-22T19:43:18Z</time>
      </trkpt>
      <trkpt lat="47.58163" lon="-2.12643">
        <ele>2</ele>
        <time>2024-03-22T19:44:38Z</time>
      </trkpt>
      <trkpt lat="47.58178" lon="-2.12656">
        <ele>2</ele>
        <time>2024-03-22T19:45:01Z</time>
      </trkpt>
      <trkpt lat="47.5819" lon="-2.12656">
        <ele>2</ele>
        <time>2024-03-22T19:45:17Z</time>
      </trkpt>
      <trkpt lat="47.5828" lon="-2.12629">
        <ele>1</ele>
        <time>2024-03-22T19:47:20Z</time>
      </trkpt>
      <trkpt lat="47.58393" lon="-2.12604">
        <ele>1</ele>
        <time>2024-03-22T19:49:52Z</time>
      </trkpt>
      <trkpt lat="47.58461" lon="-2.12583">
        <ele>1</ele>
        <time>2024-03-22T19:51:25Z</time>
      </trkpt>
      <trkpt lat="47.58596" lon="-2.12553">
        <ele>2</ele>
        <time>2024-03-22T19:54:27Z</time>
      </trkpt>
      <trkpt lat="47.58624" lon="-2.12543">
        <ele>1</ele>
        <time>2024-03-22T19:55:05Z</time>
      </trkpt>
      <trkpt lat="47.58679" lon="-2.12537">
        <ele>1</ele>
        <time>2024-03-22T19:56:19Z</time>
      </trkpt>
      <trkpt lat="47.58728" lon="-2.1252">
        <ele>2</ele>
        <time>2024-03-22T19:57:26Z</time>
      </trkpt>
      <trkpt lat="47.58862" lon="-2.12487">
        <ele>3</ele>
        <time>2024-03-22T20:00:27Z</time>
      </trkpt>
      <trkpt lat="47.58907" lon="-2.1248">
        <ele>3</ele>
        <time>2024-03-22T20:01:28Z</time>
      </trkpt>
      <trkpt lat="47.58944" lon="-2.12468">
        <ele>3</ele>
        <time>2024-03-22T20:02:18Z</time>
      </trkpt>
      <trkpt lat="47.5897" lon="-2.12466">
        <ele>4</ele>
        <time>2024-03-22T20:02:53Z</time>
      </trkpt>
      <trkpt lat="47.5898" lon="-2.12564">
        <ele>4</ele>
        <time>2024-03-22T20:04:22Z</time>
      </trkpt>
      <trkpt lat="47.58972" lon="-2.1262">
        <ele>4</ele>
        <time>2024-03-22T20:05:14Z</time>
      </trkpt>
      <trkpt lat="47.5898" lon="-2.12688">
        <ele>4</ele>
        <time>2024-03-22T20:06:16Z</time>
      </trkpt>
      <trkpt lat="47.58975" lon="-2.12761">
        <ele>3</ele>
        <time>2024-03-22T20:07:22Z</time>
      </trkpt>
      <trkpt lat="47.58983" lon="-2.12805">
        <ele>3</ele>
        <time>2024-03-22T20:08:03Z</time>
      </trkpt>
      <trkpt lat="47.58993" lon="-2.12835">
        <ele>4</ele>
        <time>2024-03-22T20:08:33Z</time>
      </trkpt>
      <trkpt lat="47.59024" lon="-2.129">
        <ele>5</ele>
        <time>2024-03-22T20:09:45Z</time>
      </trkpt>
      <trkpt lat="47.59035" lon="-2.1294">
        <ele>6</ele>
        <time>2024-03-22T20:10:24Z</time>
      </trkpt>
      <trkpt lat="47.5903" lon="-2.12964">
        <ele>6</ele>
        <time>2024-03-22T20:10:46Z</time>
      </trkpt>
      <trkpt lat="47.59007" lon="-2.1301">
        <ele>4</ele>
        <time>2024-03-22T20:11:38Z</time>
      </trkpt>
      <trkpt lat="47.58998" lon="-2.13037">
        <ele>4</ele>
        <time>2024-03-22T20:12:05Z</time>
      </trkpt>
      <trkpt lat="47.58985" lon="-2.13099">
        <ele>3</ele>
        <time>2024-03-22T20:13:03Z</time>
      </trkpt>
      <trkpt lat="47.58987" lon="-2.1314">
        <ele>3</ele>
        <time>2024-03-22T20:13:40Z</time>
      </trkpt>
      <trkpt lat="47.58996" lon="-2.13173">
        <ele>4</ele>
        <time>2024-03-22T20:14:12Z</time>
      </trkpt>
      <trkpt lat="47.59027" lon="-2.13237">
        <ele>7</ele>
        <time>2024-03-22T20:15:23Z</time>
      </trkpt>
      <trkpt lat="47.59041" lon="-2.13249">
        <ele>8</ele>
        <time>2024-03-22T20:15:45Z</time>
      </trkpt>
      <trkpt lat="47.59054" lon="-2.13253">
        <ele>9</ele>
        <time>2024-03-22T20:16:03Z</time>
      </trkpt>
      <trkpt lat="47.59084" lon="-2.13247">
        <ele>11</ele>
        <time>2024-03-22T20:16:43Z</time>
      </trkpt>
      <trkpt lat="47.59101" lon="-2.13248">
        <ele>13</ele>
        <time>2024-03-22T20:17:06Z</time>
      </trkpt>
      <trkpt lat="47.59121" lon="-2.13277">
        <ele>15</ele>
        <time>2024-03-22T20:17:43Z</time>
      </trkpt>
      <trkpt lat="47.59122" lon="-2.1329">
        <ele>16</ele>
        <time>2024-03-22T20:17:55Z</time>
      </trkpt>
      <trkpt lat="47.59102" lon="-2.13367">
        <ele>17</ele>
        <time>2024-03-22T20:19:09Z</time>
      </trkpt>
      <trkpt lat="47.59089" lon="-2.13401">
        <ele>18</ele>
        <time>2024-03-22T20:19:44Z</time>
      </trkpt>
      <trkpt lat="47.59083" lon="-2.13441">
        <ele>19</ele>
        <time>2024-03-22T20:20:21Z</time>
      </trkpt>
      <trkpt lat="47.59083" lon="-2.13465">
        <ele>20</ele>
        <time>2024-03-22T20:20:43Z</time>
      </trkpt>
      <trkpt lat="47.59103" lon="-2.13559">
        <ele>23</ele>
        <time>2024-03-22T20:22:11Z</time>
      </trkpt>
      <trkpt lat="47.59108" lon="-2.13618">
        <ele>24</ele>
        <time>2024-03-22T20:23:05Z</time>
      </trkpt>
      <trkpt lat="47.59112" lon="-2.13627">
        <ele>24</ele>
        <time>2024-03-22T20:23:15Z</time>
      </trkpt>
      <trkpt lat="47.59137" lon="-2.13626">
        <ele>25</ele>
        <time>2024-03-22T20:23:48Z</time>
      </trkpt>
      <trkpt lat="47.59204" lon="-2.13599">
        <ele>24</ele>
        <time>2024-03-22T20:25:21Z</time>
      </trkpt>
      <trkpt lat="47.59254" lon="-2.13558">
        <ele>24</ele>
        <time>2024-03-22T20:26:37Z</time>
      </trkpt>
      <trkpt lat="47.59336" lon="-2.13542">
        <ele>23</ele>
        <time>2024-03-22T20:28:27Z</time>
      </trkpt>
      <trkpt lat="47.59353" lon="-2.13534">
        <ele>23</ele>
        <time>2024-03-22T20:28:51Z</time>
      </trkpt>
      <trkpt lat="47.59389" lon="-2.13506">
        <ele>23</ele>
        <time>2024-03-22T20:29:45Z</time>
      </trkpt>
      <trkpt lat="47.59417" lon="-2.13474">
        <ele>23</ele>
        <time>2024-03-22T20:30:32Z</time>
      </trkpt>
      <trkpt lat="47.5946" lon="-2.13441">
        <ele>24</ele>
        <time>2024-03-22T20:31:37Z</time>
      </trkpt>
      <trkpt lat="47.595" lon="-2.13528">
        <ele>24</ele>
        <time>2024-03-22T20:33:12Z</time>
      </trkpt>
      <trkpt lat="47.59528" lon="-2.13554">
        <ele>24</ele>
        <time>2024-03-22T20:33:56Z</time>
      </trkpt>
      <trkpt lat="47.59557" lon="-2.13573">
        <ele>25</ele>
        <time>2024-03-22T20:34:38Z</time>
      </trkpt>
      <trkpt lat="47.59578" lon="-2.13599">
        <ele>26</ele>
        <time>2024-03-22T20:35:15Z</time>
      </trkpt>
      <trkpt lat="47.59593" lon="-2.13663">
        <ele>25</ele>
        <time>2024-03-22T20:36:16Z</time>
      </trkpt>
      <trkpt lat="47.59691" lon="-2.13661">
        <ele>22</ele>
        <time>2024-03-22T20:38:26Z</time>
      </trkpt>
      <trkpt lat="47.5974" lon="-2.1364">
        <ele>21</ele>
        <time>2024-03-22T20:39:35Z</time>
      </trkpt>
      <trkpt lat="47.59759" lon="-2.13637">
        <ele>21</ele>
        <time>2024-03-22T20:40:00Z</time>
      </trkpt>
      <trkpt lat="47.59788" lon="-2.13637">
        <ele>20</ele>
        <time>2024-03-22T20:40:39Z</time>
      </trkpt>
      <trkpt lat="47.59795" lon="-2.13641">
        <ele>19</ele>
        <time>2024-03-22T20:40:49Z</time>
      </trkpt>
      <trkpt lat="47.59797" lon="-2.13635">
        <ele>19</ele>
        <time>2024-03-22T20:40:55Z</time>
      </trkpt>
      <trkpt lat="47.59802" lon="-2.1365">
        <ele>19</ele>
        <time>2024-03-22T20:41:10Z</time>
      </trkpt>
      <trkpt lat="47.59808" lon="-2.13651">
        <ele>18</ele>
        <time>2024-03-22T20:41:18Z</time>
      </trkpt>
      <trkpt lat="47.59816" lon="-2.13673">
        <ele>18</ele>
        <time>2024-03-22T20:41:40Z</time>
      </trkpt>
      <trkpt lat="47.59814" lon="-2.13686">
        <ele>18</ele>
        <time>2024-03-22T20:41:52Z</time>
      </trkpt>
      <trkpt lat="47.5982" lon="-2.13709">
        <ele>19</ele>
        <time>2024-03-22T20:42:15Z</time>
      </trkpt>
      <trkpt lat="47.59813" lon="-2.13724">
        <ele>20</ele>
        <time>2024-03-22T20:42:31Z</time>
      </trkpt>
      <trkpt lat="47.59799" lon="-2.13733">
        <ele>20</ele>
        <time>2024-03-22T20:42:51Z</time>
      </trkpt>
      <trkpt lat="47.59796" lon="-2.13741">
        <ele>20</ele>
        <time>2024-03-22T20:43:00Z</time>
      </trkpt>
      <trkpt lat="47.598" lon="-2.13744">
        <ele>20</ele>
        <time>2024-03-22T20:43:06Z</time>
      </trkpt>
      <trkpt lat="47.59827" lon="-2.13741">
        <ele>21</ele>
        <time>2024-03-22T20:43:42Z</time>
      </trkpt>
      <trkpt lat="47.59832" lon="-2.13746">
        <ele>22</ele>
        <time>2024-03-22T20:43:50Z</time>
      </trkpt>
      <trkpt lat="47.59835" lon="-2.13783">
        <ele>23</ele>
        <time>2024-03-22T20:44:23Z</time>
      </trkpt>
      <trkpt lat="47.59829" lon="-2.13885">
        <ele>23</ele>
        <time>2024-03-22T20:45:55Z</time>
      </trkpt>
      <trkpt lat="47.59832" lon="-2.13902">
        <ele>22</ele>
        <time>2024-03-22T20:46:11Z</time>
      </trkpt>
      <trkpt lat="47.59831" lon="-2.13981">
        <ele>20</ele>
        <time>2024-03-22T20:47:22Z</time>
      </trkpt>
      <trkpt lat="47.59842" lon="-2.14035">
        <ele>20</ele>
        <time>2024-03-22T20:48:13Z</time>
      </trkpt>
      <trkpt lat="47.5986" lon="-2.14057">
        <ele>21</ele>
        <time>2024-03-22T20:48:44Z</time>
      </trkpt>
      <trkpt lat="47.59879" lon="-2.14047">
        <ele>21</ele>
        <time>2024-03-22T20:49:11Z</time>
      </trkpt>
      <trkpt lat="47.59946" lon="-2.13994">
        <ele>24</ele>
        <time>2024-03-22T20:50:52Z</time>
      </trkpt>
      <trkpt lat="47.59964" lon="-2.13989">
        <ele>25</ele>
        <time>2024-03-22T20:51:17Z</time>
      </trkpt>
      <trkpt lat="47.60009" lon="-2.13955">
        <ele>27</ele>
        <time>2024-03-22T20:52:24Z</time>
      </trkpt>
      <trkpt lat="47.6003" lon="-2.13948">
        <ele>28</ele>
        <time>2024-03-22T20:52:53Z</time>
      </trkpt>
      <trkpt lat="47.6004" lon="-2.13928">
        <ele>28</ele>
        <time>2024-03-22T20:53:15Z</time>
      </trkpt>
      <trkpt lat="47.60061" lon="-2.13813">
        <ele>29</ele>
        <time>2024-03-22T20:55:03Z</time>
      </trkpt>
      <trkpt lat="47.60091" lon="-2.13801">
        <ele>31</ele>
        <time>2024-03-22T20:55:44Z</time>
      </trkpt>
      <trkpt lat="47.60123" lon="-2.13801">
        <ele>34</ele>
        <time>2024-03-22T20:56:27Z</time>
      </trkpt>
      <trkpt lat="47.60142" lon="-2.13797">
        <ele>36</ele>
        <time>2024-03-22T20:56:52Z</time>
      </trkpt>
      <trkpt lat="47.60154" lon="-2.13801">
        <ele>37</ele>
        <time>2024-03-22T20:57:09Z</time>
      </trkpt>
      <trkpt lat="47.6016" lon="-2.13823">
        <ele>39</ele>
        <time>2024-03-22T20:57:30Z</time>
      </trkpt>
      <trkpt lat="47.60159" lon="-2.139">
        <ele>38</ele>
        <time>2024-03-22T20:58:39Z</time>
      </trkpt>
      <trkpt lat="47.60155" lon="-2.13924">
        <ele>37</ele>
        <time>2024-03-22T20:59:02Z</time>
      </trkpt>
      <trkpt lat="47.60134" lon="-2.13999">
        <ele>34</ele>
        <time>2024-03-22T21:00:15Z</time>
      </trkpt>
      <trkpt lat="47.60128" lon="-2.14034">
        <ele>34</ele>
        <time>2024-03-22T21:00:47Z</time>
      </trkpt>
      <trkpt lat="47.60096" lon="-2.14127">
        <ele>33</ele>
        <time>2024-03-22T21:02:21Z</time>
      </trkpt>
      <trkpt lat="47.6009" lon="-2.14153">
        <ele>34</ele>
        <time>2024-03-22T21:02:46Z</time>
      </trkpt>
      <trkpt lat="47.6009" lon="-2.14177">
        <ele>35</ele>
        <time>2024-03-22T21:03:08Z</time>
      </trkpt>
      <trkpt lat="47.60111" lon="-2.14397">
        <ele>45</ele>
        <time>2024-03-22T21:06:27Z</time>
      </trkpt>
      <trkpt lat="47.60116" lon="-2.14409">
        <ele>46</ele>
        <time>2024-03-22T21:06:40Z</time>
      </trkpt>
      <trkpt lat="47.60152" lon="-2.14445">
        <ele>51</ele>
        <time>2024-03-22T21:07:38Z</time>
      </trkpt>
      <trkpt lat="47.60161" lon="-2.14477">
        <ele>53</ele>
        <time>2024-03-22T21:08:09Z</time>
      </trkpt>
      <trkpt lat="47.60161" lon="-2.14497">
        <ele>54</ele>
        <time>2024-03-22T21:08:27Z</time>
      </trkpt>
      <trkpt lat="47.60151" lon="-2.14549">
        <ele>54</ele>
        <time>2024-03-22T21:09:16Z</time>
      </trkpt>
      <trkpt lat="47.60131" lon="-2.14607">
        <ele>52</ele>
        <time>2024-03-22T21:10:15Z</time>
      </trkpt>
      <trkpt lat="47.6012" lon="-2.14654">
        <ele>51</ele>
        <time>2024-03-22T21:10:59Z</time>
      </trkpt>
      <trkpt lat="47.60119" lon="-2.14678">
        <ele>51</ele>
        <time>2024-03-22T21:11:21Z</time>
      </trkpt>
      <trkpt lat="47.60127" lon="-2.14733">
        <ele>51</ele>
        <time>2024-03-22T21:12:12Z</time>
      </trkpt>
      <trkpt lat="47.60112" lon="-2.14824">
        <ele>51</ele>
        <time>2024-03-22T21:13:36Z</time>
      </trkpt>
      <trkpt lat="47.60113" lon="-2.14932">
        <ele>54</ele>
        <time>2024-03-22T21:15:13Z</time>
      </trkpt>
      <trkpt lat="47.60105" lon="-2.14996">
        <ele>57</ele>
        <time>2024-03-22T21:16:12Z</time>
      </trkpt>
      <trkpt lat="47.60098" lon="-2.15019">
        <ele>58</ele>
        <time>2024-03-22T21:16:34Z</time>
      </trkpt>
      <trkpt lat="47.60079" lon="-2.15135">
        <ele>59</ele>
        <time>2024-03-22T21:18:22Z</time>
      </trkpt>
      <trkpt lat="47.60048" lon="-2.15207">
        <ele>54</ele>
        <time>2024-03-22T21:19:39Z</time>
      </trkpt>
      <trkpt lat="47.6004" lon="-2.15245">
        <ele>52</ele>
        <time>2024-03-22T21:20:14Z</time>
      </trkpt>
      <trkpt lat="47.60047" lon="-2.15319">
        <ele>46</ele>
        <time>2024-03-22T21:21:22Z</time>
      </trkpt>
      <trkpt lat="47.60074" lon="-2.15383">
        <ele>43</ele>
        <time>2024-03-22T21:22:30Z</time>
      </trkpt>
      <trkpt lat="47.60087" lon="-2.1543">
        <ele>42</ele>
        <time>2024-03-22T21:23:15Z</time>
      </trkpt>
      <trkpt lat="47.60092" lon="-2.15434">
        <ele>42</ele>
        <time>2024-03-22T21:23:23Z</time>
      </trkpt>
      <trkpt lat="47.60123" lon="-2.15418">
        <ele>46</ele>
        <time>2024-03-22T21:24:07Z</time>
      </trkpt>
      <trkpt lat="47.60178" lon="-2.15378">
        <ele>52</ele>
        <time>2024-03-22T21:25:28Z</time>
      </trkpt>
      <trkpt lat="47.60203" lon="-2.15355">
        <ele>51</ele>
        <time>2024-03-22T21:26:08Z</time>
      </trkpt>
      <trkpt lat="47.60219" lon="-2.15368">
        <ele>49</ele>
        <time>2024-03-22T21:26:32Z</time>
      </trkpt>
      <trkpt lat="47.60254" lon="-2.15438">
        <ele>43</ele>
        <time>2024-03-22T21:27:50Z</time>
      </trkpt>
      <trkpt lat="47.60256" lon="-2.15472">
        <ele>41</ele>
        <time>2024-03-22T21:28:21Z</time>
      </trkpt>
      <trkpt lat="47.60248" lon="-2.15482">
        <ele>42</ele>
        <time>2024-03-22T21:28:35Z</time>
      </trkpt>
      <trkpt lat="47.6024" lon="-2.15509">
        <ele>40</ele>
        <time>2024-03-22T21:29:02Z</time>
      </trkpt>
      <trkpt lat="47.60242" lon="-2.15572">
        <ele>32</ele>
        <time>2024-03-22T21:29:58Z</time>
      </trkpt>
      <trkpt lat="47.60238" lon="-2.15589">
        <ele>29</ele>
        <time>2024-03-22T21:30:15Z</time>
      </trkpt>
      <trkpt lat="47.60201" lon="-2.15693">
        <ele>22</ele>
        <time>2024-03-22T21:32:00Z</time>
      </trkpt>
      <trkpt lat="47.6019" lon="-2.15701">
        <ele>22</ele>
        <time>2024-03-22T21:32:17Z</time>
      </trkpt>
      <trkpt lat="47.60183" lon="-2.1572">
        <ele>21</ele>
        <time>2024-03-22T21:32:36Z</time>
      </trkpt>
      <trkpt lat="47.60189" lon="-2.15783">
        <ele>18</ele>
        <time>2024-03-22T21:33:34Z</time>
      </trkpt>
      <trkpt lat="47.60202" lon="-2.15802">
        <ele>18</ele>
        <time>2024-03-22T21:33:58Z</time>
      </trkpt>
      <trkpt lat="47.60224" lon="-2.1581">
        <ele>18</ele>
        <time>2024-03-22T21:34:28Z</time>
      </trkpt>
      <trkpt lat="47.60271" lon="-2.15813">
        <ele>18</ele>
        <time>2024-03-22T21:35:31Z</time>
      </trkpt>
      <trkpt lat="47.60298" lon="-2.15825">
        <ele>19</ele>
        <time>2024-03-22T21:36:08Z</time>
      </trkpt>
      <trkpt lat="47.60323" lon="-2.15844">
        <ele>19</ele>
        <time>2024-03-22T21:36:46Z</time>
      </trkpt>
      <trkpt lat="47.60346" lon="-2.1585">
        <ele>19</ele>
        <time>2024-03-22T21:37:17Z</time>
      </trkpt>
      <trkpt lat="47.60577" lon="-2.15836">
        <ele>23</ele>
        <time>2024-03-22T21:42:26Z</time>
      </trkpt>
      <trkpt lat="47.60642" lon="-2.15827">
        <ele>27</ele>
        <time>2024-03-22T21:43:53Z</time>
      </trkpt>
      <trkpt lat="47.60687" lon="-2.15814">
        <ele>29</ele>
        <time>2024-03-22T21:44:54Z</time>
      </trkpt>
      <trkpt lat="47.60715" lon="-2.1582">
        <ele>31</ele>
        <time>2024-03-22T21:45:32Z</time>
      </trkpt>
      <trkpt lat="47.60732" lon="-2.15832">
        <ele>33</ele>
        <time>2024-03-22T21:45:57Z</time>
      </trkpt>
      <trkpt lat="47.60748" lon="-2.15835">
        <ele>34</ele>
        <time>2024-03-22T21:46:18Z</time>
      </trkpt>
      <trkpt lat="47.60766" lon="-2.15824">
        <ele>34</ele>
        <time>2024-03-22T21:46:44Z</time>
      </trkpt>
      <trkpt lat="47.60775" lon="-2.15824">
        <ele>34</ele>
        <time>2024-03-22T21:46:56Z</time>
      </trkpt>
      <trkpt lat="47.6082" lon="-2.15797">
        <ele>34</ele>
        <time>2024-03-22T21:48:01Z</time>
      </trkpt>
      <trkpt lat="47.60877" lon="-2.1578">
        <ele>37</ele>
        <time>2024-03-22T21:49:19Z</time>
      </trkpt>
      <trkpt lat="47.60901" lon="-2.15762">
        <ele>38</ele>
        <time>2024-03-22T21:49:55Z</time>
      </trkpt>
      <trkpt lat="47.60917" lon="-2.15765">
        <ele>39</ele>
        <time>2024-03-22T21:50:16Z</time>
      </trkpt>
      <trkpt lat="47.60956" lon="-2.15796">
        <ele>42</ele>
        <time>2024-03-22T21:51:15Z</time>
      </trkpt>
      <trkpt lat="47.60966" lon="-2.1583">
        <ele>43</ele>
        <time>2024-03-22T21:51:49Z</time>
      </trkpt>
      <trkpt lat="47.60968" lon="-2.15852">
        <ele>44</ele>
        <time>2024-03-22T21:52:09Z</time>
      </trkpt>
      <trkpt lat="47.60984" lon="-2.1589">
        <ele>46</ele>
        <time>2024-03-22T21:52:49Z</time>
      </trkpt>
      <trkpt lat="47.60986" lon="-2.15931">
        <ele>47</ele>
        <time>2024-03-22T21:53:26Z</time>
      </trkpt>
      <trkpt lat="47.60979" lon="-2.15977">
        <ele>49</ele>
        <time>2024-03-22T21:54:08Z</time>
      </trkpt>
      <trkpt lat="47.60977" lon="-2.15975">
        <ele>49</ele>
        <time>2024-03-22T21:54:11Z</time>
      </trkpt>
      <trkpt lat="47.60978" lon="-2.15997">
        <ele>51</ele>
        <time>2024-03-22T21:54:31Z</time>
      </trkpt>
      <trkpt lat="47.60983" lon="-2.16004">
        <ele>51</ele>
        <time>2024-03-22T21:54:40Z</time>
      </trkpt>
      <trkpt lat="47.61002" lon="-2.16009">
        <ele>52</ele>
        <time>2024-03-22T21:55:06Z</time>
      </trkpt>
      <trkpt lat="47.61009" lon="-2.16017">
        <ele>53</ele>
        <time>2024-03-22T21:55:18Z</time>
      </trkpt>
      <trkpt lat="47.61004" lon="-2.16011">
        <ele>53</ele>
        <time>2024-03-22T21:55:27Z</time>
      </trkpt>
      <trkpt lat="47.61005" lon="-2.16014">
        <ele>53</ele>
        <time>2024-03-22T21:55:30Z</time>
      </trkpt>
      <trkpt lat="47.61008" lon="-2.1601">
        <ele>53</ele>
        <time>2024-03-22T21:55:35Z</time>
      </trkpt>
      <trkpt lat="47.61001" lon="-2.16009">
        <ele>52</ele>
        <time>2024-03-22T21:55:44Z</time>
      </trkpt>
      <trkpt lat="47.61008" lon="-2.16019">
        <ele>53</ele>
        <time>2024-03-22T21:55:57Z</time>
      </trkpt>
      <trkpt lat="47.6101" lon="-2.1601">
        <ele>53</ele>
        <time>2024-03-22T21:56:06Z</time>
      </trkpt>
      <trkpt lat="47.61011" lon="-2.16014">
        <ele>53</ele>
        <time>2024-03-22T21:56:10Z</time>
      </trkpt>
      <trkpt lat="47.61015" lon="-2.16011">
        <ele>53</ele>
        <time>2024-03-22T21:56:16Z</time>
      </trkpt>
      <trkpt lat="47.61006" lon="-2.15999">
        <ele>52</ele>
        <time>2024-03-22T21:56:32Z</time>
      </trkpt>
      <trkpt lat="47.6099" lon="-2.16019">
        <ele>52</ele>
        <time>2024-03-22T21:57:00Z</time>
      </trkpt>
      <trkpt lat="47.60983" lon="-2.1604">
        <ele>53</ele>
        <time>2024-03-22T21:57:21Z</time>
      </trkpt>
      <trkpt lat="47.60982" lon="-2.16071">
        <ele>54</ele>
        <time>2024-03-22T21:57:49Z</time>
      </trkpt>
      <trkpt lat="47.60974" lon="-2.16104">
        <ele>53</ele>
        <time>2024-03-22T21:58:20Z</time>
      </trkpt>
      <trkpt lat="47.6098" lon="-2.16169">
        <ele>53</ele>
        <time>2024-03-22T21:59:19Z</time>
      </trkpt>
      <trkpt lat="47.60979" lon="-2.16232">
        <ele>53</ele>
        <time>2024-03-22T22:00:16Z</time>
      </trkpt>
      <trkpt lat="47.60975" lon="-2.16269">
        <ele>54</ele>
        <time>2024-03-22T22:00:50Z</time>
      </trkpt>
      <trkpt lat="47.60961" lon="-2.16323">
        <ele>55</ele>
        <time>2024-03-22T22:01:42Z</time>
      </trkpt>
      <trkpt lat="47.60963" lon="-2.16332">
        <ele>56</ele>
        <time>2024-03-22T22:01:50Z</time>
      </trkpt>
      <trkpt lat="47.60969" lon="-2.16342">
        <ele>56</ele>
        <time>2024-03-22T22:02:02Z</time>
      </trkpt>
      <trkpt lat="47.6103" lon="-2.1637">
        <ele>61</ele>
        <time>2024-03-22T22:03:28Z</time>
      </trkpt>
      <trkpt lat="47.61141" lon="-2.16393">
        <ele>67</ele>
        <time>2024-03-22T22:05:57Z</time>
      </trkpt>
      <trkpt lat="47.61186" lon="-2.16397">
        <ele>70</ele>
        <time>2024-03-22T22:06:57Z</time>
      </trkpt>
      <trkpt lat="47.61205" lon="-2.16407">
        <ele>73</ele>
        <time>2024-03-22T22:07:24Z</time>
      </trkpt>
      <trkpt lat="47.61256" lon="-2.16415">
        <ele>79</ele>
        <time>2024-03-22T22:08:33Z</time>
      </trkpt>
      <trkpt lat="47.61301" lon="-2.16418">
        <ele>78</ele>
        <time>2024-03-22T22:09:33Z</time>
      </trkpt>
      <trkpt lat="47.61308" lon="-2.1641">
        <ele>78</ele>
        <time>2024-03-22T22:09:45Z</time>
      </trkpt>
      <trkpt lat="47.61298" lon="-2.16283">
        <ele>77</ele>
        <time>2024-03-22T22:11:40Z</time>
      </trkpt>
      <trkpt lat="47.61308" lon="-2.16103">
        <ele>74</ele>
        <time>2024-03-22T22:14:22Z</time>
      </trkpt>
      <trkpt lat="47.61317" lon="-2.16105">
        <ele>74</ele>
        <time>2024-03-22T22:14:34Z</time>
      </trkpt>
      <trkpt lat="47.61376" lon="-2.16165">
        <ele>77</ele>
        <time>2024-03-22T22:16:10Z</time>
      </trkpt>
      <trkpt lat="47.61408" lon="-2.16192">
        <ele>78</ele>
        <time>2024-03-22T22:16:59Z</time>
      </trkpt>
      <trkpt lat="47.61421" lon="-2.16198">
        <ele>79</ele>
        <time>2024-03-22T22:17:17Z</time>
      </trkpt>
      <trkpt lat="47.61454" lon="-2.16237">
        <ele>80</ele>
        <time>2024-03-22T22:18:13Z</time>
      </trkpt>
      <trkpt lat="47.61502" lon="-2.16281">
        <ele>80</ele>
        <time>2024-03-22T22:19:29Z</time>
      </trkpt>
      <trkpt lat="47.61511" lon="-2.16287">
        <ele>80</ele>
        <time>2024-03-22T22:19:42Z</time>
      </trkpt>
      <trkpt lat="47.61534" lon="-2.16287">
        <ele>78</ele>
        <time>2024-03-22T22:20:12Z</time>
      </trkpt>
      <trkpt lat="47.61558" lon="-2.16276">
        <ele>76</ele>
        <time>2024-03-22T22:20:46Z</time>
      </trkpt>
      <trkpt lat="47.6157" lon="-2.16251">
        <ele>75</ele>
        <time>2024-03-22T22:21:14Z</time>
      </trkpt>
      <trkpt lat="47.61602" lon="-2.16055">
        <ele>75</ele>
        <time>2024-03-22T22:24:15Z</time>
      </trkpt>
      <trkpt lat="47.61611" lon="-2.16018">
        <ele>75</ele>
        <time>2024-03-22T22:24:50Z</time>
      </trkpt>
      <trkpt lat="47.61617" lon="-2.16007">
        <ele>75</ele>
        <time>2024-03-22T22:25:03Z</time>
      </trkpt>
      <trkpt lat="47.61626" lon="-2.16005">
        <ele>75</ele>
        <time>2024-03-22T22:25:15Z</time>
      </trkpt>
      <trkpt lat="47.6176" lon="-2.16092">
        <ele>71</ele>
        <time>2024-03-22T22:28:30Z</time>
      </trkpt>
      <trkpt lat="47.61781" lon="-2.16109">
        <ele>72</ele>
        <time>2024-03-22T22:29:02Z</time>
      </trkpt>
      <trkpt lat="47.61806" lon="-2.16137">
        <ele>74</ele>
        <time>2024-03-22T22:29:44Z</time>
      </trkpt>
      <trkpt lat="47.61833" lon="-2.16191">
        <ele>77</ele>
        <time>2024-03-22T22:30:45Z</time>
      </trkpt>
      <trkpt lat="47.61845" lon="-2.16226">
        <ele>77</ele>
        <time>2024-03-22T22:31:20Z</time>
      </trkpt>
      <trkpt lat="47.61879" lon="-2.16292">
        <ele>77</ele>
        <time>2024-03-22T22:32:35Z</time>
      </trkpt>
      <trkpt lat="47.61891" lon="-2.16328">
        <ele>76</ele>
        <time>2024-03-22T22:33:11Z</time>
      </trkpt>
      <trkpt lat="47.6192" lon="-2.16453">
        <ele>72</ele>
        <time>2024-03-22T22:35:10Z</time>
      </trkpt>
      <trkpt lat="47.6193" lon="-2.1648">
        <ele>72</ele>
        <time>2024-03-22T22:35:37Z</time>
      </trkpt>
      <trkpt lat="47.61946" lon="-2.16509">
        <ele>72</ele>
        <time>2024-03-22T22:36:11Z</time>
      </trkpt>
      <trkpt lat="47.61965" lon="-2.16533">
        <ele>73</ele>
        <time>2024-03-22T22:36:44Z</time>
      </trkpt>
      <trkpt lat="47.61989" lon="-2.16554">
        <ele>74</ele>
        <time>2024-03-22T22:37:22Z</time>
      </trkpt>
      <trkpt lat="47.62014" lon="-2.16569">
        <ele>75</ele>
        <time>2024-03-22T22:37:58Z</time>
      </trkpt>
      <trkpt lat="47.6205" lon="-2.16583">
        <ele>76</ele>
        <time>2024-03-22T22:38:47Z</time>
      </trkpt>
      <trkpt lat="47.62119" lon="-2.16619">
        <ele>75</ele>
        <time>2024-03-22T22:40:25Z</time>
      </trkpt>
      <trkpt lat="47.62134" lon="-2.16618">
        <ele>75</ele>
        <time>2024-03-22T22:40:45Z</time>
      </trkpt>
      <trkpt lat="47.62157" lon="-2.16594">
        <ele>73</ele>
        <time>2024-03-22T22:41:22Z</time>
      </trkpt>
      <trkpt lat="47.62231" lon="-2.16486">
        <ele>73</ele>
        <time>2024-03-22T22:43:41Z</time>
      </trkpt>
      <trkpt lat="47.62293" lon="-2.16415">
        <ele>70</ele>
        <time>2024-03-22T22:45:25Z</time>
      </trkpt>
      <trkpt lat="47.62319" lon="-2.16405">
        <ele>70</ele>
        <time>2024-03-22T22:46:01Z</time>
      </trkpt>
      <trkpt lat="47.62347" lon="-2.16407">
        <ele>69</ele>
        <time>2024-03-22T22:46:39Z</time>
      </trkpt>
      <trkpt lat="47.6237" lon="-2.16416">
        <ele>69</ele>
        <time>2024-03-22T22:47:10Z</time>
      </trkpt>
      <trkpt lat="47.62388" lon="-2.16415">
        <ele>69</ele>
        <time>2024-03-22T22:47:34Z</time>
      </trkpt>
      <trkpt lat="47.6249" lon="-2.16366">
        <ele>67</ele>
        <time>2024-03-22T22:49:58Z</time>
      </trkpt>
      <trkpt lat="47.62528" lon="-2.16342">
        <ele>67</ele>
        <time>2024-03-22T22:50:53Z</time>
      </trkpt>
      <trkpt lat="47.62522" lon="-2.16334">
        <ele>67</ele>
        <time>2024-03-22T22:51:03Z</time>
      </trkpt>
      <trkpt lat="47.62439" lon="-2.16329">
        <ele>69</ele>
        <time>2024-03-22T22:52:54Z</time>
      </trkpt>
      <trkpt lat="47.62416" lon="-2.16331">
        <ele>69</ele>
        <time>2024-03-22T22:53:25Z</time>
      </trkpt>
      <trkpt lat="47.62407" lon="-2.16324">
        <ele>69</ele>
        <time>2024-03-22T22:53:39Z</time>
      </trkpt>
      <trkpt lat="47.6231" lon="-2.1618">
        <ele>72</ele>
        <time>2024-03-22T22:56:42Z</time>
      </trkpt>
      <trkpt lat="47.62278" lon="-2.16146">
        <ele>72</ele>
        <time>2024-03-22T22:57:34Z</time>
      </trkpt>
      <trkpt lat="47.62262" lon="-2.16115">
        <ele>72</ele>
        <time>2024-03-22T22:58:09Z</time>
      </trkpt>
      <trkpt lat="47.62258" lon="-2.16111">
        <ele>72</ele>
        <time>2024-03-22T22:58:16Z</time>
      </trkpt>
      <trkpt lat="47.62258" lon="-2.16116">
        <ele>72</ele>
        <time>2024-03-22T22:58:20Z</time>
      </trkpt>
      <trkpt lat="47.62256" lon="-2.16107">
        <ele>73</ele>
        <time>2024-03-22T22:58:29Z</time>
      </trkpt>
      <trkpt lat="47.62244" lon="-2.16095">
        <ele>73</ele>
        <time>2024-03-22T22:58:48Z</time>
      </trkpt>
      <trkpt lat="47.62211" lon="-2.16043">
        <ele>71</ele>
        <time>2024-03-22T22:59:52Z</time>
      </trkpt>
      <trkpt lat="47.6219" lon="-2.16025">
        <ele>71</ele>
        <time>2024-03-22T23:00:25Z</time>
      </trkpt>
      <trkpt lat="47.6217" lon="-2.15991">
        <ele>71</ele>
        <time>2024-03-22T23:01:05Z</time>
      </trkpt>
      <trkpt lat="47.62149" lon="-2.15967">
        <ele>73</ele>
        <time>2024-03-22T23:01:41Z</time>
      </trkpt>
      <trkpt lat="47.62096" lon="-2.15889">
        <ele>76</ele>
        <time>2024-03-22T23:03:20Z</time>
      </trkpt>
      <trkpt lat="47.62072" lon="-2.15857">
        <ele>75</ele>
        <time>2024-03-22T23:04:03Z</time>
      </trkpt>
      <trkpt lat="47.62056" lon="-2.15844">
        <ele>75</ele>
        <time>2024-03-22T23:04:28Z</time>
      </trkpt>
      <trkpt lat="47.62037" lon="-2.15803">
        <ele>75</ele>
        <time>2024-03-22T23:05:12Z</time>
      </trkpt>
      <trkpt lat="47.62015" lon="-2.1577">
        <ele>76</ele>
        <time>2024-03-22T23:05:54Z</time>
      </trkpt>
      <trkpt lat="47.62012" lon="-2.15756">
        <ele>76</ele>
        <time>2024-03-22T23:06:07Z</time>
      </trkpt>
      <trkpt lat="47.61981" lon="-2.15709">
        <ele>76</ele>
        <time>2024-03-22T23:07:07Z</time>
      </trkpt>
      <trkpt lat="47.61981" lon="-2.1568">
        <ele>76</ele>
        <time>2024-03-22T23:07:33Z</time>
      </trkpt>
      <trkpt lat="47.61994" lon="-2.15622">
        <ele>75</ele>
        <time>2024-03-22T23:08:28Z</time>
      </trkpt>
      <trkpt lat="47.62034" lon="-2.15485">
        <ele>76</ele>
        <time>2024-03-22T23:10:42Z</time>
      </trkpt>
      <trkpt lat="47.62062" lon="-2.15425">
        <ele>72</ele>
        <time>2024-03-22T23:11:48Z</time>
      </trkpt>
      <trkpt lat="47.62068" lon="-2.15402">
        <ele>71</ele>
        <time>2024-03-22T23:12:10Z</time>
      </trkpt>
      <trkpt lat="47.62063" lon="-2.1538">
        <ele>71</ele>
        <time>2024-03-22T23:12:31Z</time>
      </trkpt>
      <trkpt lat="47.62047" lon="-2.15344">
        <ele>73</ele>
        <time>2024-03-22T23:13:09Z</time>
      </trkpt>
      <trkpt lat="47.62012" lon="-2.15296">
        <ele>76</ele>
        <time>2024-03-22T23:14:13Z</time>
      </trkpt>
      <trkpt lat="47.61888" lon="-2.15104">
        <ele>78</ele>
        <time>2024-03-22T23:18:12Z</time>
      </trkpt>
      <trkpt lat="47.61898" lon="-2.15075">
        <ele>76</ele>
        <time>2024-03-22T23:18:41Z</time>
      </trkpt>
      <trkpt lat="47.61965" lon="-2.14774">
        <ele>73</ele>
        <time>2024-03-22T23:23:27Z</time>
      </trkpt>
      <trkpt lat="47.61962" lon="-2.14638">
        <ele>72</ele>
        <time>2024-03-22T23:25:29Z</time>
      </trkpt>
      <trkpt lat="47.61972" lon="-2.14561">
        <ele>70</ele>
        <time>2024-03-22T23:26:40Z</time>
      </trkpt>
      <trkpt lat="47.61977" lon="-2.14475">
        <ele>67</ele>
        <time>2024-03-22T23:27:57Z</time>
      </trkpt>
      <trkpt lat="47.62012" lon="-2.14234">
        <ele>52</ele>
        <time>2024-03-22T23:31:39Z</time>
      </trkpt>
      <trkpt lat="47.6201" lon="-2.14191">
        <ele>50</ele>
        <time>2024-03-22T23:32:18Z</time>
      </trkpt>
      <trkpt lat="47.61997" lon="-2.14141">
        <ele>47</ele>
        <time>2024-03-22T23:33:06Z</time>
      </trkpt>
      <trkpt lat="47.62002" lon="-2.14092">
        <ele>45</ele>
        <time>2024-03-22T23:33:51Z</time>
      </trkpt>
      <trkpt lat="47.62002" lon="-2.14041">
        <ele>44</ele>
        <time>2024-03-22T23:34:36Z</time>
      </trkpt>
      <trkpt lat="47.62017" lon="-2.13957">
        <ele>42</ele>
        <time>2024-03-22T23:35:55Z</time>
      </trkpt>
      <trkpt lat="47.62025" lon="-2.13886">
        <ele>42</ele>
        <time>2024-03-22T23:36:59Z</time>
      </trkpt>
      <trkpt lat="47.62025" lon="-2.13844">
        <ele>42</ele>
        <time>2024-03-22T23:37:37Z</time>
      </trkpt>
      <trkpt lat="47.62039" lon="-2.1373">
        <ele>41</ele>
        <time>2024-03-22T23:39:21Z</time>
      </trkpt>
      <trkpt lat="47.62071" lon="-2.13561">
        <ele>36</ele>
        <time>2024-03-22T23:41:59Z</time>
      </trkpt>
      <trkpt lat="47.62056" lon="-2.1343">
        <ele>38</ele>
        <time>2024-03-22T23:43:59Z</time>
      </trkpt>
      <trkpt lat="47.62054" lon="-2.13376">
        <ele>40</ele>
        <time>2024-03-22T23:44:47Z</time>
      </trkpt>
      <trkpt lat="47.62047" lon="-2.1334">
        <ele>41</ele>
        <time>2024-03-22T23:45:21Z</time>
      </trkpt>
      <trkpt lat="47.62045" lon="-2.13289">
        <ele>44</ele>
        <time>2024-03-22T23:46:07Z</time>
      </trkpt>
      <trkpt lat="47.62033" lon="-2.13225">
        <ele>46</ele>
        <time>2024-03-22T23:47:07Z</time>
      </trkpt>
      <trkpt lat="47.62035" lon="-2.13181">
        <ele>47</ele>
        <time>2024-03-22T23:47:46Z</time>
      </trkpt>
      <trkpt lat="47.62054" lon="-2.13027">
        <ele>43</ele>
        <time>2024-03-22T23:50:07Z</time>
      </trkpt>
      <trkpt lat="47.62074" lon="-2.1292">
        <ele>40</ele>
        <time>2024-03-22T23:51:47Z</time>
      </trkpt>
      <trkpt lat="47.62095" lon="-2.12846">
        <ele>37</ele>
        <time>2024-03-22T23:52:59Z</time>
      </trkpt>
      <trkpt lat="47.62104" lon="-2.12759">
        <ele>33</ele>
        <time>2024-03-22T23:54:19Z</time>
      </trkpt>
      <trkpt lat="47.62106" lon="-2.12403">
        <ele>32</ele>
        <time>2024-03-22T23:59:39Z</time>
      </trkpt>
      <trkpt lat="47.62094" lon="-2.12391">
        <ele>33</ele>
        <time>2024-03-22T23:59:58Z</time>
      </trkpt>
      <trkpt lat="47.62015" lon="-2.124">
        <ele>38</ele>
        <time>2024-03-23T00:01:44Z</time>
      </trkpt>
      <trkpt lat="47.61947" lon="-2.12413">
        <ele>48</ele>
        <time>2024-03-23T00:03:15Z</time>
      </trkpt>
      <trkpt lat="47.61928" lon="-2.12412">
        <ele>51</ele>
        <time>2024-03-23T00:03:41Z</time>
      </trkpt>
      <trkpt lat="47.61915" lon="-2.12403">
        <ele>54</ele>
        <time>2024-03-23T00:04:00Z</time>
      </trkpt>
      <trkpt lat="47.61911" lon="-2.1238">
        <ele>55</ele>
        <time>2024-03-23T00:04:21Z</time>
      </trkpt>
      <trkpt lat="47.61918" lon="-2.12257">
        <ele>58</ele>
        <time>2024-03-23T00:06:12Z</time>
      </trkpt>
      <trkpt lat="47.61924" lon="-2.12223">
        <ele>57</ele>
        <time>2024-03-23T00:06:44Z</time>
      </trkpt>
      <trkpt lat="47.61931" lon="-2.12207">
        <ele>55</ele>
        <time>2024-03-23T00:07:01Z</time>
      </trkpt>
      <trkpt lat="47.61937" lon="-2.12129">
        <ele>54</ele>
        <time>2024-03-23T00:08:12Z</time>
      </trkpt>
      <trkpt lat="47.61945" lon="-2.12107">
        <ele>53</ele>
        <time>2024-03-23T00:08:34Z</time>
      </trkpt>
      <trkpt lat="47.61949" lon="-2.12038">
        <ele>51</ele>
        <time>2024-03-23T00:09:36Z</time>
      </trkpt>
      <trkpt lat="47.61962" lon="-2.12006">
        <ele>47</ele>
        <time>2024-03-23T00:10:10Z</time>
      </trkpt>
      <trkpt lat="47.61957" lon="-2.11984">
        <ele>47</ele>
        <time>2024-03-23T00:10:31Z</time>
      </trkpt>
      <trkpt lat="47.61919" lon="-2.1192">
        <ele>47</ele>
        <time>2024-03-23T00:11:48Z</time>
      </trkpt>
      <trkpt lat="47.61916" lon="-2.11885">
        <ele>47</ele>
        <time>2024-03-23T00:12:19Z</time>
      </trkpt>
      <trkpt lat="47.61919" lon="-2.11872">
        <ele>46</ele>
        <time>2024-03-23T00:12:32Z</time>
      </trkpt>
      <trkpt lat="47.61934" lon="-2.11848">
        <ele>44</ele>
        <time>2024-03-23T00:13:01Z</time>
      </trkpt>
      <trkpt lat="47.61952" lon="-2.11781">
        <ele>39</ele>
        <time>2024-03-23T00:14:06Z</time>
      </trkpt>
      <trkpt lat="47.61965" lon="-2.11755">
        <ele>36</ele>
        <time>2024-03-23T00:14:35Z</time>
      </trkpt>
      <trkpt lat="47.61987" lon="-2.11747">
        <ele>34</ele>
        <time>2024-03-23T00:15:05Z</time>
      </trkpt>
      <trkpt lat="47.62001" lon="-2.11729">
        <ele>31</ele>
        <time>2024-03-23T00:15:30Z</time>
      </trkpt>
      <trkpt lat="47.62062" lon="-2.11693">
        <ele>25</ele>
        <time>2024-03-23T00:16:58Z</time>
      </trkpt>
      <trkpt lat="47.62131" lon="-2.11673">
        <ele>22</ele>
        <time>2024-03-23T00:18:31Z</time>
      </trkpt>
      <trkpt lat="47.62148" lon="-2.11658">
        <ele>22</ele>
        <time>2024-03-23T00:18:58Z</time>
      </trkpt>
      <trkpt lat="47.62155" lon="-2.11644">
        <ele>22</ele>
        <time>2024-03-23T00:19:14Z</time>
      </trkpt>
      <trkpt lat="47.62152" lon="-2.11623">
        <ele>22</ele>
        <time>2024-03-23T00:19:33Z</time>
      </trkpt>
      <trkpt lat="47.62104" lon="-2.11495">
        <ele>19</ele>
        <time>2024-03-23T00:21:45Z</time>
      </trkpt>
      <trkpt lat="47.6209" lon="-2.11443">
        <ele>16</ele>
        <time>2024-03-23T00:22:35Z</time>
      </trkpt>
      <trkpt lat="47.62083" lon="-2.11434">
        <ele>16</ele>
        <time>2024-03-23T00:22:47Z</time>
      </trkpt>
      <trkpt lat="47.62067" lon="-2.11435">
        <ele>16</ele>
        <time>2024-03-23T00:23:09Z</time>
      </trkpt>
      <trkpt lat="47.62061" lon="-2.1143">
        <ele>15</ele>
        <time>2024-03-23T00:23:18Z</time>
      </trkpt>
      <trkpt lat="47.62055" lon="-2.114">
        <ele>14</ele>
        <time>2024-03-23T00:23:46Z</time>
      </trkpt>
      <trkpt lat="47.62055" lon="-2.1135">
        <ele>13</ele>
        <time>2024-03-23T00:24:31Z</time>
      </trkpt>
      <trkpt lat="47.62062" lon="-2.11329">
        <ele>13</ele>
        <time>2024-03-23T00:24:52Z</time>
      </trkpt>
      <trkpt lat="47.62058" lon="-2.11306">
        <ele>12</ele>
        <time>2024-03-23T00:25:13Z</time>
      </trkpt>
      <trkpt lat="47.62049" lon="-2.11292">
        <ele>12</ele>
        <time>2024-03-23T00:25:31Z</time>
      </trkpt>
      <trkpt lat="47.62025" lon="-2.11283">
        <ele>12</ele>
        <time>2024-03-23T00:26:04Z</time>
      </trkpt>
      <trkpt lat="47.62015" lon="-2.11283">
        <ele>12</ele>
        <time>2024-03-23T00:26:17Z</time>
      </trkpt>
      <trkpt lat="47.62009" lon="-2.11278">
        <ele>12</ele>
        <time>2024-03-23T00:26:26Z</time>
      </trkpt>
      <trkpt lat="47.61999" lon="-2.11214">
        <ele>10</ele>
        <time>2024-03-23T00:27:26Z</time>
      </trkpt>
      <trkpt lat="47.6199" lon="-2.11207">
        <ele>10</ele>
        <time>2024-03-23T00:27:39Z</time>
      </trkpt>
      <trkpt lat="47.61965" lon="-2.11204">
        <ele>10</ele>
        <time>2024-03-23T00:28:13Z</time>
      </trkpt>
      <trkpt lat="47.61943" lon="-2.11183">
        <ele>9</ele>
        <time>2024-03-23T00:28:47Z</time>
      </trkpt>
      <trkpt lat="47.6193" lon="-2.11159">
        <ele>9</ele>
        <time>2024-03-23T00:29:15Z</time>
      </trkpt>
      <trkpt lat="47.61935" lon="-2.11132">
        <ele>8</ele>
        <time>2024-03-23T00:29:40Z</time>
      </trkpt>
      <trkpt lat="47.61925" lon="-2.11162">
        <ele>9</ele>
        <time>2024-03-23T00:30:10Z</time>
      </trkpt>
      <trkpt lat="47.61923" lon="-2.11222">
        <ele>10</ele>
        <time>2024-03-23T00:31:04Z</time>
      </trkpt>
      <trkpt lat="47.61911" lon="-2.1125">
        <ele>10</ele>
        <time>2024-03-23T00:31:34Z</time>
      </trkpt>
      <trkpt lat="47.61905" lon="-2.11253">
        <ele>10</ele>
        <time>2024-03-23T00:31:43Z</time>
      </trkpt>
      <trkpt lat="47.61832" lon="-2.11252">
        <ele>10</ele>
        <time>2024-03-23T00:33:20Z</time>
      </trkpt>
      <trkpt lat="47.61754" lon="-2.11223">
        <ele>10</ele>
        <time>2024-03-23T00:35:07Z</time>
      </trkpt>
      <trkpt lat="47.61721" lon="-2.11218">
        <ele>10</ele>
        <time>2024-03-23T00:35:52Z</time>
      </trkpt>
      <trkpt lat="47.61689" lon="-2.11217">
        <ele>10</ele>
        <time>2024-03-23T00:36:34Z</time>
      </trkpt>
      <trkpt lat="47.61653" lon="-2.11225">
        <ele>10</ele>
        <time>2024-03-23T00:37:23Z</time>
      </trkpt>
      <trkpt lat="47.61589" lon="-2.11223">
        <ele>10</ele>
        <time>2024-03-23T00:38:48Z</time>
      </trkpt>
      <trkpt lat="47.61571" lon="-2.1123">
        <ele>10</ele>
        <time>2024-03-23T00:39:13Z</time>
      </trkpt>
      <trkpt lat="47.61547" lon="-2.11214">
        <ele>9</ele>
        <time>2024-03-23T00:39:48Z</time>
      </trkpt>
      <trkpt lat="47.61523" lon="-2.11211">
        <ele>9</ele>
        <time>2024-03-23T00:40:21Z</time>
      </trkpt>
      <trkpt lat="47.61506" lon="-2.11188">
        <ele>8</ele>
        <time>2024-03-23T00:40:51Z</time>
      </trkpt>
      <trkpt lat="47.615" lon="-2.11186">
        <ele>8</ele>
        <time>2024-03-23T00:40:59Z</time>
      </trkpt>
      <trkpt lat="47.61478" lon="-2.11199">
        <ele>8</ele>
        <time>2024-03-23T00:41:31Z</time>
      </trkpt>
      <trkpt lat="47.61371" lon="-2.11225">
        <ele>9</ele>
        <time>2024-03-23T00:43:56Z</time>
      </trkpt>
      <trkpt lat="47.61357" lon="-2.11237">
        <ele>9</ele>
        <time>2024-03-23T00:44:17Z</time>
      </trkpt>
      <trkpt lat="47.61315" lon="-2.11289">
        <ele>10</ele>
        <time>2024-03-23T00:45:30Z</time>
      </trkpt>
      <trkpt lat="47.61275" lon="-2.11319">
        <ele>10</ele>
        <time>2024-03-23T00:46:30Z</time>
      </trkpt>
      <trkpt lat="47.6122" lon="-2.11306">
        <ele>10</ele>
        <time>2024-03-23T00:47:44Z</time>
      </trkpt>
      <trkpt lat="47.61148" lon="-2.11278">
        <ele>9</ele>
        <time>2024-03-23T00:49:24Z</time>
      </trkpt>
      <trkpt lat="47.61111" lon="-2.1128">
        <ele>9</ele>
        <time>2024-03-23T00:50:13Z</time>
      </trkpt>
      <trkpt lat="47.61088" lon="-2.11319">
        <ele>9</ele>
        <time>2024-03-23T00:51:00Z</time>
      </trkpt>
      <trkpt lat="47.61069" lon="-2.11391">
        <ele>11</ele>
        <time>2024-03-23T00:52:09Z</time>
      </trkpt>
      <trkpt lat="47.61057" lon="-2.11386">
        <ele>11</ele>
        <time>2024-03-23T00:52:26Z</time>
      </trkpt>
      <trkpt lat="47.61039" lon="-2.11361">
        <ele>11</ele>
        <time>2024-03-23T00:52:59Z</time>
      </trkpt>
      <trkpt lat="47.61027" lon="-2.11338">
        <ele>10</ele>
        <time>2024-03-23T00:53:25Z</time>
      </trkpt>
      <trkpt lat="47.6101" lon="-2.11281">
        <ele>10</ele>
        <time>2024-03-23T00:54:21Z</time>
      </trkpt>
      <trkpt lat="47.61002" lon="-2.11266">
        <ele>10</ele>
        <time>2024-03-23T00:54:38Z</time>
      </trkpt>
      <trkpt lat="47.60992" lon="-2.11264">
        <ele>10</ele>
        <time>2024-03-23T00:54:52Z</time>
      </trkpt>
      <trkpt lat="47.6092" lon="-2.11348">
        <ele>14</ele>
        <time>2024-03-23T00:56:54Z</time>
      </trkpt>
      <trkpt lat="47.60818" lon="-2.11401">
        <ele>20</ele>
        <time>2024-03-23T00:59:18Z</time>
      </trkpt>
      <trkpt lat="47.60793" lon="-2.11421">
        <ele>22</ele>
        <time>2024-03-23T00:59:56Z</time>
      </trkpt>
      <trkpt lat="47.60754" lon="-2.11474">
        <ele>27</ele>
        <time>2024-03-23T01:01:07Z</time>
      </trkpt>
      <trkpt lat="47.60726" lon="-2.11502">
        <ele>31</ele>
        <time>2024-03-23T01:01:52Z</time>
      </trkpt>
      <trkpt lat="47.6072" lon="-2.11498">
        <ele>31</ele>
        <time>2024-03-23T01:02:01Z</time>
      </trkpt>
      <trkpt lat="47.60707" lon="-2.11471">
        <ele>30</ele>
        <time>2024-03-23T01:02:30Z</time>
      </trkpt>
      <trkpt lat="47.60697" lon="-2.11431">
        <ele>28</ele>
        <time>2024-03-23T01:03:09Z</time>
      </trkpt>
      <trkpt lat="47.60625" lon="-2.11227">
        <ele>21</ele>
        <time>2024-03-23T01:06:36Z</time>
      </trkpt>
      <trkpt lat="47.60576" lon="-2.11138">
        <ele>16</ele>
        <time>2024-03-23T01:08:19Z</time>
      </trkpt>
      <trkpt lat="47.60554" lon="-2.11078">
        <ele>14</ele>
        <time>2024-03-23T01:09:21Z</time>
      </trkpt>
      <trkpt lat="47.60508" lon="-2.10987">
        <ele>13</ele>
        <time>2024-03-23T01:11:03Z</time>
      </trkpt>
      <trkpt lat="47.60469" lon="-2.10944">
        <ele>12</ele>
        <time>2024-03-23T01:12:08Z</time>
      </trkpt>
      <trkpt lat="47.60447" lon="-2.10927">
        <ele>12</ele>
        <time>2024-03-23T01:12:41Z</time>
      </trkpt>
      <trkpt lat="47.6039" lon="-2.10863">
        <ele>12</ele>
        <time>2024-03-23T01:14:17Z</time>
      </trkpt>
      <trkpt lat="47.60373" lon="-2.10851">
        <ele>14</ele>
        <time>2024-03-23T01:14:42Z</time>
      </trkpt>
      <trkpt lat="47.60335" lon="-2.10852">
        <ele>18</ele>
        <time>2024-03-23T01:15:32Z</time>
      </trkpt>
      <trkpt lat="47.60283" lon="-2.10832">
        <ele>25</ele>
        <time>2024-03-23T01:16:44Z</time>
      </trkpt>
      <trkpt lat="47.60226" lon="-2.10786">
        <ele>26</ele>
        <time>2024-03-23T01:18:11Z</time>
      </trkpt>
      <trkpt lat="47.60201" lon="-2.10774">
        <ele>26</ele>
        <time>2024-03-23T01:18:46Z</time>
      </trkpt>
      <trkpt lat="47.60124" lon="-2.10706">
        <ele>22</ele>
        <time>2024-03-23T01:20:45Z</time>
      </trkpt>
      <trkpt lat="47.60094" lon="-2.10647">
        <ele>18</ele>
        <time>2024-03-23T01:21:52Z</time>
      </trkpt>
      <trkpt lat="47.60065" lon="-2.10614">
        <ele>17</ele>
        <time>2024-03-23T01:22:41Z</time>
      </trkpt>
      <trkpt lat="47.60053" lon="-2.10593">
        <ele>15</ele>
        <time>2024-03-23T01:23:05Z</time>
      </trkpt>
      <trkpt lat="47.6001" lon="-2.10547">
        <ele>14</ele>
        <time>2024-03-23T01:24:16Z</time>
      </trkpt>
      <trkpt lat="47.59978" lon="-2.10499">
        <ele>14</ele>
        <time>2024-03-23T01:25:17Z</time>
      </trkpt>
      <trkpt lat="47.5997" lon="-2.10483">
        <ele>13</ele>
        <time>2024-03-23T01:25:35Z</time>
      </trkpt>
      <trkpt lat="47.5996" lon="-2.10445">
        <ele>12</ele>
        <time>2024-03-23T01:26:12Z</time>
      </trkpt>
      <trkpt lat="47.5995" lon="-2.10388">
        <ele>12</ele>
        <time>2024-03-23T01:27:05Z</time>
      </trkpt>
      <trkpt lat="47.59961" lon="-2.1033">
        <ele>10</ele>
        <time>2024-03-23T01:27:59Z</time>
      </trkpt>
      <trkpt lat="47.59971" lon="-2.10205">
        <ele>8</ele>
        <time>2024-03-23T01:29:52Z</time>
      </trkpt>
      <trkpt lat="47.5996" lon="-2.10151">
        <ele>8</ele>
        <time>2024-03-23T01:30:43Z</time>
      </trkpt>
      <trkpt lat="47.59948" lon="-2.10028">
        <ele>9</ele>
        <time>2024-03-23T01:32:35Z</time>
      </trkpt>
      <trkpt lat="47.59954" lon="-2.0996">
        <ele>11</ele>
        <time>2024-03-23T01:33:36Z</time>
      </trkpt>
      <trkpt lat="47.59952" lon="-2.09954">
        <ele>11</ele>
        <time>2024-03-23T01:33:42Z</time>
      </trkpt>
      <trkpt lat="47.59952" lon="-2.0996">
        <ele>11</ele>
        <time>2024-03-23T01:33:48Z</time>
      </trkpt>
      <trkpt lat="47.59942" lon="-2.09964">
        <ele>13</ele>
        <time>2024-03-23T01:34:02Z</time>
      </trkpt>
      <trkpt lat="47.59907" lon="-2.10001">
        <ele>14</ele>
        <time>2024-03-23T01:34:59Z</time>
      </trkpt>
      <trkpt lat="47.59887" lon="-2.0997">
        <ele>14</ele>
        <time>2024-03-23T01:35:37Z</time>
      </trkpt>
      <trkpt lat="47.59882" lon="-2.09934">
        <ele>15</ele>
        <time>2024-03-23T01:36:11Z</time>
      </trkpt>
      <trkpt lat="47.59889" lon="-2.09906">
        <ele>15</ele>
        <time>2024-03-23T01:36:37Z</time>
      </trkpt>
      <trkpt lat="47.59878" lon="-2.09886">
        <ele>13</ele>
        <time>2024-03-23T01:37:01Z</time>
      </trkpt>
      <trkpt lat="47.59873" lon="-2.09889">
        <ele>13</ele>
        <time>2024-03-23T01:37:08Z</time>
      </trkpt>
      <trkpt lat="47.59862" lon="-2.09916">
        <ele>12</ele>
        <time>2024-03-23T01:37:36Z</time>
      </trkpt>
      <trkpt lat="47.59853" lon="-2.09911">
        <ele>11</ele>
        <time>2024-03-23T01:37:49Z</time>
      </trkpt>
      <trkpt lat="47.59838" lon="-2.09884">
        <ele>9</ele>
        <time>2024-03-23T01:38:21Z</time>
      </trkpt>
      <trkpt lat="47.59832" lon="-2.09885">
        <ele>8</ele>
        <time>2024-03-23T01:38:29Z</time>
      </trkpt>
      <trkpt lat="47.59822" lon="-2.09902">
        <ele>7</ele>
        <time>2024-03-23T01:38:49Z</time>
      </trkpt>
      <trkpt lat="47.59813" lon="-2.09935">
        <ele>7</ele>
        <time>2024-03-23T01:39:21Z</time>
      </trkpt>
      <trkpt lat="47.59814" lon="-2.09985">
        <ele>8</ele>
        <time>2024-03-23T01:40:06Z</time>
      </trkpt>
      <trkpt lat="47.59831" lon="-2.10056">
        <ele>10</ele>
        <time>2024-03-23T01:41:14Z</time>
      </trkpt>
      <trkpt lat="47.59832" lon="-2.10105">
        <ele>11</ele>
        <time>2024-03-23T01:41:58Z</time>
      </trkpt>
      <trkpt lat="47.5984" lon="-2.10175">
        <ele>14</ele>
        <time>2024-03-23T01:43:02Z</time>
      </trkpt>
      <trkpt lat="47.59836" lon="-2.10327">
        <ele>19</ele>
        <time>2024-03-23T01:45:19Z</time>
      </trkpt>
      <trkpt lat="47.5985" lon="-2.10366">
        <ele>18</ele>
        <time>2024-03-23T01:45:58Z</time>
      </trkpt>
      <trkpt lat="47.59835" lon="-2.10435">
        <ele>19</ele>
        <time>2024-03-23T01:47:04Z</time>
      </trkpt>
      <trkpt lat="47.59813" lon="-2.10577">
        <ele>22</ele>
        <time>2024-03-23T01:49:15Z</time>
      </trkpt>
      <trkpt lat="47.59804" lon="-2.10607">
        <ele>23</ele>
        <time>2024-03-23T01:49:44Z</time>
      </trkpt>
      <trkpt lat="47.59802" lon="-2.10639">
        <ele>23</ele>
        <time>2024-03-23T01:50:13Z</time>
      </trkpt>
      <trkpt lat="47.59791" lon="-2.10689">
        <ele>24</ele>
        <time>2024-03-23T01:51:01Z</time>
      </trkpt>
      <trkpt lat="47.59777" lon="-2.10791">
        <ele>24</ele>
        <time>2024-03-23T01:52:34Z</time>
      </trkpt>
      <trkpt lat="47.59772" lon="-2.10815">
        <ele>24</ele>
        <time>2024-03-23T01:52:57Z</time>
      </trkpt>
      <trkpt lat="47.59761" lon="-2.10817">
        <ele>24</ele>
        <time>2024-03-23T01:53:12Z</time>
        <extensions>
          <visugpx:TrkExtension xmlns:visugpx="https://www.visugpx.com/editgpx/">
            <visugpx:node>1</visugpx:node>
            </visugpx:TrkExtension>
        </extensions>
      </trkpt>
    </trkseg>
  </trk>
</gpx>